Provisional Data: Choconut Creek near Vestal Center, NY


Please select a monitoring station.
Please select start date.
Please select start date.

Toggle Unit: C/F Toggle Unit: C/F
Sample Time Temperature (C) Temperature (F) Specific Conductivity (mS/cm) pH   Turbidity (NTU+) DO (mg/L)
8/9/2021 12:00:00 AM 22.35 72.23 0.118 6.99 4.6 7.79
8/9/2021 12:15:00 AM 22.28 72.104 0.118 6.91 4.38 7.78
8/9/2021 12:30:00 AM 22.21 71.978 0.118 6.8 6.28 7.76
8/9/2021 12:45:00 AM 22.14 71.852 0.118 6.97 4.27 7.74
8/9/2021 1:00:00 AM 22.07 71.726 0.118 6.94 4.58 7.75
8/9/2021 1:15:00 AM 22.01 71.618 0.118 6.95 4.74 7.73
8/9/2021 1:30:00 AM 21.94 71.492 0.119 6.92 4.85 7.73
8/9/2021 1:45:00 AM 21.88 71.384 0.118 6.97 5.52 7.73
8/9/2021 2:00:00 AM 21.83 71.294 0.118 6.91 5.09 7.72
8/9/2021 2:15:00 AM 21.77 71.186 0.118 6.94 5.16 7.71
8/9/2021 2:30:00 AM 21.71 71.078 0.119 6.89 5.23 7.71
8/9/2021 2:45:00 AM 21.64 70.952 0.119 6.95 4.93 7.7
8/9/2021 3:00:00 AM 21.57 70.826 0.119 6.95 4.63 7.7
8/9/2021 3:15:00 AM 21.51 70.718 0.119 6.93 4.95 7.71
8/9/2021 3:30:00 AM 21.45 70.61 0.119 6.94 4.75 7.7
8/9/2021 3:45:00 AM 21.39 70.502 0.119 6.89 5.38 7.69
8/9/2021 4:00:00 AM 21.35 70.43 0.119 6.9 4.88 7.68
8/9/2021 4:15:00 AM 21.3 70.34 0.119 6.93 5.17 7.68
8/9/2021 4:30:00 AM 21.26 70.268 0.119 6.87 7.29 7.68
8/9/2021 4:45:00 AM 21.21 70.17799 0.12 6.93 6.03 7.67
8/9/2021 5:00:00 AM 21.16 70.088 0.119 6.93 5.47 7.67
8/9/2021 5:15:00 AM 21.11 69.998 0.119 6.88 5.59 7.68
8/9/2021 5:30:00 AM 21.05 69.89 0.119 6.8 5.18 7.68
8/9/2021 5:45:00 AM 21 69.8 0.12 6.9 5.17 7.69
8/9/2021 6:00:00 AM 20.94 69.692 0.119 6.92 9.19 7.69
8/9/2021 6:15:00 AM 20.89 69.602 0.12 6.92 4.75 7.7
8/9/2021 6:30:00 AM 20.85 69.53 0.119 6.83 4.97 7.72
8/9/2021 6:45:00 AM 20.81 69.458 0.119 6.92 4.78 7.76
8/9/2021 7:00:00 AM 20.79 69.422 0.119 6.86 4.61 7.84
8/9/2021 7:15:00 AM 20.78 69.404 0.119 6.9 4.47 7.95
8/9/2021 7:30:00 AM 20.78 69.404 0.119 6.95 4.5 8.07
8/9/2021 7:45:00 AM 20.78 69.404 0.118 6.87 4.42 8.17
8/9/2021 8:00:00 AM 20.8 69.44 0.118 6.97 4.52 8.31
8/9/2021 8:15:00 AM 20.82 69.476 0.118 7 4.93 8.42
8/9/2021 8:30:00 AM 20.81 69.458 0.118 6.95 4.56 8.45
8/9/2021 8:45:00 AM 20.86 69.548 0.118 6.97 4.38 8.64
8/9/2021 9:00:00 AM 20.93 69.674 0.117 7.01 4.34 8.82
8/9/2021 9:15:00 AM 20.97 69.746 0.117 7.06 4.29 8.96
8/9/2021 9:30:00 AM 21 69.8 0.117 7.08 4.22 9.07
8/9/2021 9:45:00 AM 21.06 69.908 0.117 7.09 4.46 9.19
8/9/2021 10:00:00 AM 21.21 70.17799 0.116 7.13 4.18 9.35
8/9/2021 10:15:00 AM 21.29 70.32201 0.116 7.16 4.39 9.45
8/9/2021 10:30:00 AM 21.32 70.376 0.116 7.17 4 9.55
8/9/2021 10:45:00 AM 21.52 70.736 0.116 7.11 4.09 9.72
8/9/2021 11:00:00 AM 21.64 70.952 0.116 7.22 3.95 9.85
8/9/2021 11:15:00 AM 21.88 71.384 0.115 7.25 3.94 10
8/9/2021 11:30:00 AM 22.05 71.69 0.115 7.28 4.05 10.14
8/9/2021 11:45:00 AM 22.23 72.014 0.115 7.33 3.83 10.24
8/9/2021 12:00:00 PM 22.41 72.338 0.115 7.37 3.67 10.33
8/9/2021 12:15:00 PM 22.62 72.716 0.115 7.4 3.79 10.44
8/9/2021 12:30:00 PM 22.83 73.094 0.115 7.43 3.71 10.52
8/9/2021 12:45:00 PM 23.05 73.49 0.115 7.46 3.82 10.58
8/9/2021 1:00:00 PM 23.26 73.868 0.115 7.5 3.7 10.66
8/9/2021 1:15:00 PM 23.52 74.336 0.115 7.52 3.72 10.7
8/9/2021 1:30:00 PM 23.77 74.786 0.115 7.49 3.54 10.77
8/9/2021 1:45:00 PM 24.05 75.29 0.115 7.6 3.8 10.81
8/9/2021 2:00:00 PM 24.31 75.758 0.114 7.64 3.54 10.84
8/9/2021 2:15:00 PM 24.56 76.208 0.115 7.65 3.5 10.89
8/9/2021 2:30:00 PM 24.73 76.514 0.115 7.7 3.42 10.83
8/9/2021 2:45:00 PM 24.76 76.568 0.114 7.69 3.53 10.74
8/9/2021 3:00:00 PM 24.98 76.964 0.114 7.73 18.67 10.8
8/9/2021 3:15:00 PM 25.14 77.252 0.115 7.75 45.55 10.8
8/9/2021 3:30:00 PM 25.24 77.432 0.115 7.8 18.96 10.78
8/9/2021 3:45:00 PM 25.36 77.648 0.115 7.71 4.15 10.75
8/9/2021 4:00:00 PM 25.47 77.846 0.115 7.77 4.29 10.69
8/9/2021 4:15:00 PM 25.52 77.936 0.115 7.8 3.84 10.61
8/9/2021 4:30:00 PM 25.48 77.864 0.115 7.74 4.31 10.47
8/9/2021 4:45:00 PM 25.53 77.954 0.115 7.73 3.83 10.45
8/9/2021 5:00:00 PM 25.49 77.882 0.115 7.74 4.04 10.35
8/9/2021 5:15:00 PM 25.46 77.828 0.115 7.73 3.81 10.28
8/9/2021 5:30:00 PM 25.4 77.72 0.115 7.54 3.8 9.96
8/9/2021 5:45:00 PM 25.31 77.558 0.115 7.66 3.54 10.06
8/9/2021 6:00:00 PM 25.21 77.378 0.115 7.61 3.46 9.95
8/9/2021 6:15:00 PM 25.07 77.126 0.116 7.58 3.64 9.81
8/9/2021 6:30:00 PM 24.94 76.892 0.116 7.52 3.37 9.67
8/9/2021 6:45:00 PM 24.81 76.658 0.116 7.48 6.01 9.54
8/9/2021 7:00:00 PM 24.68 76.424 0.116 7.45 3.59 9.38
8/9/2021 7:15:00 PM 24.55 76.19 0.116 7.41 3.75 9.22
8/9/2021 7:30:00 PM 24.44 75.992 0.116 7.35 3.52 9.07
8/9/2021 7:45:00 PM 24.33 75.794 0.116 7.33 3.58 8.92
8/9/2021 8:00:00 PM 24.22 75.596 0.116 7.29 3.8 8.76
8/9/2021 8:15:00 PM 24.11 75.398 0.117 7.22 3.98 8.61
8/9/2021 8:30:00 PM 24.02 75.236 0.117 7.22 3.77 8.49
8/9/2021 8:45:00 PM 23.91 75.038 0.117 7.14 3.98 8.37
8/9/2021 9:00:00 PM 23.8 74.84 0.117 7.16 4.36 8.26
8/9/2021 9:15:00 PM 23.7 74.66 0.117 7.12 4.63 8.18
8/9/2021 9:30:00 PM 23.59 74.462 0.118 7.1 4.45 8.1
8/9/2021 9:45:00 PM 23.5 74.3 0.118 7.1 4.95 8.04
8/9/2021 10:00:00 PM 23.41 74.138 0.119 7.06 4.64 7.98
8/9/2021 10:15:00 PM 23.33 73.994 0.119 7.1 5.39 7.93
8/9/2021 10:30:00 PM 23.24 73.832 0.12 7.08 5.04 7.88
8/9/2021 10:45:00 PM 23.17 73.706 0.121 7.06 5.35 7.83
8/9/2021 11:00:00 PM 23.1 73.58 0.122 7.06 5.02 7.79
8/9/2021 11:15:00 PM 23.03 73.454 0.123 7.04 5.35 7.75
8/9/2021 11:30:00 PM 22.96 73.328 0.124 6.9 5.41 7.71
8/9/2021 11:45:00 PM 22.9 73.22 0.125 6.84 5.74 7.69
8/10/2021 12:00:00 AM 22.84 73.112 0.126 6.95 5.4 7.67
8/10/2021 12:15:00 AM 22.78 73.004 0.127 7.01 5.47 7.64
8/10/2021 12:30:00 AM 22.73 72.914 0.127 7 5.84 7.63
8/10/2021 12:45:00 AM 22.67 72.806 0.129 6.99 5.79 7.62
8/10/2021 1:00:00 AM 22.61 72.698 0.13 6.96 5.94 7.59
8/10/2021 1:15:00 AM 22.56 72.608 0.13 6.98 5.9 7.58
8/10/2021 1:30:00 AM 22.5 72.5 0.131 6.99 5.89 7.58
8/10/2021 1:45:00 AM 22.46 72.42799 0.132 6.98 6.04 7.56
8/10/2021 2:00:00 AM 22.4 72.32 0.133 6.97 6.08 7.55
8/10/2021 2:15:00 AM 22.35 72.23 0.133 6.96 6.14 7.53
8/10/2021 2:30:00 AM 22.3 72.14 0.133 6.95 6.51 7.53
8/10/2021 2:45:00 AM 22.25 72.05 0.134 6.95 6.42 7.53
8/10/2021 3:00:00 AM 22.21 71.978 0.134 6.86 6.3 7.52
8/10/2021 3:15:00 AM 22.15 71.87 0.134 6.74 6.41 7.52
8/10/2021 3:30:00 AM 22.1 71.78 0.134 6.77 6.29 7.52
8/10/2021 3:45:00 AM 22.06 71.708 0.134 6.96 6.28 7.51
8/10/2021 4:00:00 AM 22.01 71.618 0.134 6.96 6.45 7.49
8/10/2021 4:15:00 AM 21.96 71.528 0.134 6.95 6.54 7.49
8/10/2021 4:30:00 AM 21.92 71.456 0.134 6.82 6.47 7.48
8/10/2021 4:45:00 AM 21.88 71.384 0.133 6.92 6.21 7.49
8/10/2021 5:00:00 AM 21.83 71.294 0.133 6.95 6.35 7.48
8/10/2021 5:15:00 AM 21.8 71.24 0.133 6.95 6.9 7.48
8/10/2021 5:30:00 AM 21.77 71.186 0.133 6.96 6.71 7.48
8/10/2021 5:45:00 AM 21.75 71.15 0.132 6.95 6.29 7.48
8/10/2021 6:00:00 AM 21.71 71.078 0.132 6.95 6.28 7.48
8/10/2021 6:15:00 AM 21.68 71.024 0.131 6.92 5.81 7.48
8/10/2021 6:30:00 AM 21.66 70.988 0.131 6.95 5.63 7.5
8/10/2021 6:45:00 AM 21.64 70.952 0.13 6.93 5.46 7.53
8/10/2021 7:00:00 AM 21.63 70.934 0.13 6.95 5.42 7.57
8/10/2021 7:15:00 AM 21.63 70.934 0.13 6.96 5.34 7.64
8/10/2021 7:30:00 AM 21.64 70.952 0.129 6.96 5.38 7.69
8/10/2021 7:45:00 AM 21.65 70.97 0.129 6.93 5.27 7.76
8/10/2021 8:00:00 AM 21.66 70.988 0.129 6.98 5.23 7.87
8/10/2021 8:15:00 AM 21.68 71.024 0.128 7 5.15 8
8/10/2021 8:30:00 AM 21.76 71.168 0.128 7.01 5.03 8.19
8/10/2021 8:45:00 AM 21.81 71.258 0.127 7.03 4.92 8.33
8/10/2021 9:00:00 AM 21.85 71.33 0.127 7.03 4.94 8.4
8/10/2021 9:15:00 AM 21.86 71.348 0.127 7.05 5.69 8.48
8/10/2021 9:30:00 AM 22.04 71.672 0.126 7.08 4.72 8.77
8/10/2021 9:45:00 AM 22.06 71.708 0.126 7.1 5.08 8.83
8/10/2021 10:00:00 AM 22.06 71.708 0.125 7.1 4.85 8.89
8/10/2021 10:15:00 AM 22.15 71.87 0.125 7.13 4.91 9.07
8/10/2021 10:30:00 AM 22.19 71.942 0.125 7.13 4.93 9.13
8/10/2021 10:45:00 AM 22.23 72.014 0.125 7.15 4.91 9.23
8/10/2021 11:00:00 AM 22.28 72.104 0.124 7.17 4.68 9.33
8/10/2021 11:15:00 AM 22.31 72.158 0.124 7.18 5.12 9.37
8/10/2021 11:30:00 AM 22.38 72.284 0.123 7.21 4.71 9.52
8/10/2021 11:45:00 AM 22.49 72.482 0.124 7.24 4.63 9.71
8/10/2021 12:00:00 PM 22.62 72.716 0.123 7.3 4.55 9.9
8/10/2021 12:15:00 PM 22.74 72.932 0.123 7.33 4.44 10.03
8/10/2021 12:30:00 PM 22.88 73.184 0.122 7.33 4.62 10.15
8/10/2021 12:45:00 PM 23.08 73.544 0.122 7.4 4.42 10.28
8/10/2021 1:00:00 PM 23.19 73.742 0.122 7.41 4.43 10.33
8/10/2021 1:15:00 PM 23.42 74.156 0.122 7.45 4.45 10.43
8/10/2021 1:30:00 PM 23.53 74.354 0.121 7.49 4.27 10.46
8/10/2021 1:45:00 PM 23.52 74.336 0.121 7.5 4.26 10.43
8/10/2021 2:00:00 PM 23.53 74.354 0.121 7.51 4.22 10.41
8/10/2021 2:15:00 PM 23.67 74.606 0.121 7.55 4.2 10.51
8/10/2021 2:30:00 PM 23.75 74.75 0.12 7.55 4.17 10.51
8/10/2021 2:45:00 PM 23.78 74.804 0.12 7.58 4.24 10.53
8/10/2021 3:00:00 PM 24.07 75.326 0.12 7.63 4.3 10.63
8/10/2021 3:15:00 PM 24.15 75.47 0.12 7.64 4.13 10.6
8/10/2021 3:30:00 PM 24.24 75.632 0.119 7.65 4.27 10.61
8/10/2021 3:45:00 PM 24.39 75.902 0.119 7.66 4.14 10.63
8/10/2021 4:00:00 PM 24.45 76.01 0.119 7.69 3.98 10.6
8/10/2021 4:15:00 PM 24.56 76.208 0.118 7.72 3.93 10.62
8/10/2021 4:30:00 PM 24.59 76.262 0.118 7.7 3.81 10.53
8/10/2021 4:45:00 PM 24.62 76.316 0.118 7.7 3.93 10.5
8/10/2021 5:00:00 PM 24.6 76.28 0.118 7.7 3.96 10.42
8/10/2021 5:15:00 PM 24.6 76.28 0.118 7.7 3.99 10.37
8/10/2021 5:30:00 PM 24.59 76.262 0.118 7.67 3.94 10.34
8/10/2021 5:45:00 PM 24.58 76.244 0.118 7.69 4.08 10.27
8/10/2021 6:00:00 PM 24.57 76.226 0.118 7.68 3.96 10.2
8/10/2021 6:15:00 PM 24.53 76.154 0.118 7.65 4.23 10.09
8/10/2021 6:30:00 PM 24.47 76.046 0.118 7.6 3.8 9.95
8/10/2021 6:45:00 PM 24.39 75.902 0.118 7.56 3.88 9.81
8/10/2021 7:00:00 PM 24.3 75.74 0.118 7.53 3.89 9.65
8/10/2021 7:15:00 PM 24.2 75.56 0.119 7.47 4.01 9.46
8/10/2021 7:30:00 PM 24.09 75.362 0.118 7.43 4 9.27
8/10/2021 7:45:00 PM 24 75.2 0.118 7.38 3.98 9.08
8/10/2021 8:00:00 PM 23.92 75.056 0.118 7.32 4.26 8.91
8/10/2021 8:15:00 PM 23.83 74.894 0.119 7.3 4.06 8.76
8/10/2021 8:30:00 PM 23.76 74.768 0.119 7.26 3.98 8.64
8/10/2021 8:45:00 PM 23.68 74.624 0.119 7.24 4.25 8.51
8/10/2021 9:00:00 PM 23.59 74.462 0.119 7.21 4.58 8.39
8/10/2021 9:15:00 PM 23.51 74.318 0.119 7.19 4.87 8.29
8/10/2021 9:30:00 PM 23.44 74.192 0.119 7.15 4.98 8.21
8/10/2021 9:45:00 PM 23.36 74.048 0.12 7.15 5.18 8.13
8/10/2021 10:00:00 PM 23.29 73.922 0.119 7.12 5.18 8.05
8/10/2021 10:15:00 PM 23.22 73.796 0.12 7.1 5.05 7.98
8/10/2021 10:30:00 PM 23.15 73.67 0.12 7.06 4.79 7.92
8/10/2021 10:45:00 PM 23.08 73.544 0.12 7.07 5.15 7.86
8/10/2021 11:00:00 PM 23.02 73.436 0.12 7.06 4.96 7.8
8/10/2021 11:15:00 PM 22.96 73.328 0.12 7.06 4.97 7.76
8/10/2021 11:30:00 PM 22.91 73.238 0.12 7.03 4.89 7.72
8/10/2021 11:45:00 PM 22.86 73.148 0.12 7.04 5.26 7.68
8/11/2021 12:00:00 AM 22.81 73.058 0.121 7.02 5.08 7.65
8/11/2021 12:15:00 AM 22.77 72.986 0.121 7.02 4.84 7.63
8/11/2021 12:30:00 AM 22.74 72.932 0.121 7 5.24 7.6
8/11/2021 12:45:00 AM 22.69 72.842 0.121 6.99 5.62 7.59
8/11/2021 1:00:00 AM 22.66 72.788 0.121 7.01 5.12 7.57
8/11/2021 1:15:00 AM 22.62 72.716 0.121 6.99 5.69 7.56
8/11/2021 1:30:00 AM 22.58 72.644 0.121 6.99 5.43 7.54
8/11/2021 1:45:00 AM 22.55 72.59 0.108 6.98 7.22 7.54
8/11/2021 2:00:00 AM 22.52 72.536 0.121 6.99 5.65 7.52
8/11/2021 2:15:00 AM 22.48 72.464 0.122 6.97 5.84 7.51
8/11/2021 2:30:00 AM 22.45 72.41 0.122 6.95 5.88 7.51
8/11/2021 2:45:00 AM 22.42 72.356 0.122 6.97 5.98 7.5
8/11/2021 3:00:00 AM 22.38 72.284 0.122 6.97 6.23 7.5
8/11/2021 3:15:00 AM 22.35 72.23 0.122 6.97 5.44 7.5
8/11/2021 3:30:00 AM 22.33 72.194 0.122 6.97 5.75 7.49
8/11/2021 3:45:00 AM 22.29 72.122 0.123 6.96 5.25 7.49
8/11/2021 4:00:00 AM 22.26 72.068 0.123 6.98 6.04 7.48
8/11/2021 4:15:00 AM 22.23 72.014 0.123 6.97 5.26 7.49
8/11/2021 4:30:00 AM 22.2 71.96 0.123 6.95 6.55 7.48
8/11/2021 4:45:00 AM 22.16 71.888 0.124 6.96 5.61 7.48
8/11/2021 5:00:00 AM 22.13 71.834 0.124 6.96 6.28 7.48
8/11/2021 5:15:00 AM 22.11 71.798 0.124 6.96 5.67 7.47
8/11/2021 5:30:00 AM 22.08 71.744 0.124 6.95 6.37 7.47
8/11/2021 5:45:00 AM 22.05 71.69 0.124 6.97 5.66 7.46
8/11/2021 6:00:00 AM 22.01 71.618 0.124 6.96 5.35 7.46
8/11/2021 6:15:00 AM 21.98 71.564 0.124 6.96 5.05 7.47
8/11/2021 6:30:00 AM 21.94 71.492 0.124 6.95 4.97 7.48
8/11/2021 6:45:00 AM 21.91 71.438 0.124 6.96 4.64 7.52
8/11/2021 7:00:00 AM 21.89 71.402 0.124 6.97 4.7 7.57
8/11/2021 7:15:00 AM 21.88 71.384 0.124 6.97 4.48 7.63
8/11/2021 7:30:00 AM 21.87 71.366 0.124 6.96 4.72 7.7
8/11/2021 7:45:00 AM 21.88 71.384 0.124 6.96 4.52 7.79
8/11/2021 8:00:00 AM 21.89 71.402 0.124 6.98 4.44 7.9
8/11/2021 8:15:00 AM 21.9 71.42 0.123 7.01 4.71 7.98
8/11/2021 8:30:00 AM 21.91 71.438 0.123 7.01 4.21 8.02
8/11/2021 8:45:00 AM 21.97 71.546 0.123 7.04 4.33 8.18
8/11/2021 9:00:00 AM 22.03 71.654 0.123 7.03 4.38 8.32
8/11/2021 9:15:00 AM 22.09 71.762 0.123 7.07 4.31 8.46
8/11/2021 9:30:00 AM 22.27 72.086 0.122 7.09 4.33 8.68
8/11/2021 9:45:00 AM 22.41 72.338 0.122 7.12 4.28 8.82
8/11/2021 10:00:00 AM 22.35 72.23 0.122 7.11 4.45 8.79
8/11/2021 10:15:00 AM 22.35 72.23 0.122 7.12 4.27 8.85
8/11/2021 10:30:00 AM 22.39 72.302 0.122 7.14 4.11 8.93
8/11/2021 10:45:00 AM 22.49 72.482 0.122 7.15 4.2 9.06
8/11/2021 11:00:00 AM 22.53 72.554 0.121 7.17 4.71 9.1
8/11/2021 11:15:00 AM 22.71 72.878 0.121 7.18 4.3 9.3
8/11/2021 11:30:00 AM 22.89 73.202 0.121 7.22 4.04 9.5
8/11/2021 11:45:00 AM 23.07 73.526 0.121 7.27 4.38 9.69
8/11/2021 12:00:00 PM 23.06 73.508 0.121 7.27 3.87 9.63
8/11/2021 12:15:00 PM 23.22 73.796 0.121 7.29 4.03 9.8
8/11/2021 12:30:00 PM 23.54 74.372 0.12 7.34 5.49 9.96
8/11/2021 12:45:00 PM 23.77 74.786 0.12 7.39 3.9 10.12
8/11/2021 1:00:00 PM 24 75.2 0.12 7.44 3.89 10.25
8/11/2021 1:15:00 PM 24.11 75.398 0.12 7.46 3.96 10.28
8/11/2021 1:30:00 PM 24.25 75.65 0.12 7.5 3.71 10.35
8/11/2021 1:45:00 PM 24.32 75.776 0.12 7.51 3.7 10.34
8/11/2021 2:00:00 PM 24.48 76.064 0.119 7.56 3.64 10.43
8/11/2021 2:15:00 PM 24.7 76.46 0.119 7.58 3.67 10.49
8/11/2021 2:30:00 PM 24.73 76.514 0.119 7.6 4.03 10.44
8/11/2021 2:45:00 PM 24.94 76.892 0.119 7.64 3.68 10.53
8/11/2021 3:00:00 PM 25.07 77.126 0.119 7.67 3.65 10.57
8/11/2021 3:15:00 PM 25.11 77.198 0.119 7.71 3.46 10.54
8/11/2021 3:30:00 PM 25.22 77.396 0.119 7.72 3.71 10.53
8/11/2021 3:45:00 PM 25.3 77.54 0.119 7.74 3.59 10.51
8/11/2021 4:00:00 PM 25.33 77.594 0.119 7.73 3.81 10.45
8/11/2021 4:15:00 PM 25.35 77.63 0.119 7.73 3.62 10.4
8/11/2021 4:30:00 PM 25.33 77.594 0.119 7.71 3.47 10.26
8/11/2021 4:45:00 PM 25.3 77.54 0.119 7.69 3.64 10.19
8/11/2021 5:00:00 PM 25.31 77.558 0.119 7.69 3.61 10.17
8/11/2021 5:15:00 PM 25.34 77.612 0.119 7.69 3.71 10.16
8/11/2021 5:30:00 PM 25.37 77.666 0.118 7.68 3.69 10.13
8/11/2021 5:45:00 PM 25.39 77.702 0.119 7.67 3.43 10.08
8/11/2021 6:00:00 PM 25.4 77.72 0.119 7.64 3.89 10
8/11/2021 6:15:00 PM 25.37 77.666 0.119 7.63 3.88 9.88
8/11/2021 6:30:00 PM 25.3 77.54 0.119 7.58 3.75 9.7
8/11/2021 6:45:00 PM 25.2 77.36 0.119 7.53 4.15 9.49
8/11/2021 7:00:00 PM 25.09 77.162 0.12 7.41 3.92 9.3
8/11/2021 7:15:00 PM 24.99 76.982 0.119 7.41 3.94 9.12
8/11/2021 7:30:00 PM 24.89 76.802 0.12 7.38 3.95 8.94
8/11/2021 7:45:00 PM 24.81 76.658 0.12 7.33 4.29 8.81
8/11/2021 8:00:00 PM 24.72 76.496 0.12 7.3 4.1 8.65
8/11/2021 8:15:00 PM 24.65 76.37 0.12 7.25 3.87 8.53
8/11/2021 8:30:00 PM 24.58 76.244 0.121 7.22 3.73 8.39
8/11/2021 8:45:00 PM 24.51 76.118 0.12 7.2 3.82 8.27
8/11/2021 9:00:00 PM 24.43 75.974 0.121 7.18 4.13 8.17
8/11/2021 9:15:00 PM 24.36 75.848 0.121 7.15 4.41 8.06
8/11/2021 9:30:00 PM 24.28 75.704 0.121 7.15 4.86 7.97
8/11/2021 9:45:00 PM 24.21 75.578 0.121 7.11 4.55 7.9
8/11/2021 10:00:00 PM 24.12 75.416 0.121 7.12 5.39 7.82
8/11/2021 10:15:00 PM 24.05 75.29 0.121 7.09 4.77 7.75
8/11/2021 10:30:00 PM 23.99 75.182 0.121 7.07 4.73 7.69
8/11/2021 10:45:00 PM 23.92 75.056 0.122 7.05 4.79 7.63
8/11/2021 11:00:00 PM 23.85 74.93 0.122 7.06 4.5 7.59
8/11/2021 11:15:00 PM 23.78 74.804 0.122 7.05 4.66 7.54
8/11/2021 11:30:00 PM 23.72 74.696 0.121 7.04 4.82 7.5
8/11/2021 11:45:00 PM 23.65 74.57 0.122 7.03 5.65 7.46
8/12/2021 12:00:00 AM 23.59 74.462 0.121 7.02 5.05 7.43
8/12/2021 12:15:00 AM 23.52 74.336 0.122 7.02 5.67 7.41
8/12/2021 12:30:00 AM 23.46 74.228 0.122 7 4.98 7.39
8/12/2021 12:45:00 AM 23.4 74.12 0.122 7 5.06 7.37
8/12/2021 1:00:00 AM 23.35 74.03 0.122 6.98 5.3 7.36
8/12/2021 1:15:00 AM 23.31 73.958 0.122 6.99 5.9 7.36
8/12/2021 1:30:00 AM 23.26 73.868 0.122 6.98 4.95 7.35
8/12/2021 1:45:00 AM 23.22 73.796 0.122 6.97 5.59 7.34
8/12/2021 2:00:00 AM 23.18 73.724 0.122 6.99 5.17 7.34
8/12/2021 2:15:00 AM 23.13 73.634 0.122 6.97 5.36 7.33
8/12/2021 2:30:00 AM 23.08 73.544 0.122 6.98 5.39 7.34
8/12/2021 2:45:00 AM 23.02 73.436 0.122 6.95 5.15 7.35
8/12/2021 3:00:00 AM 22.97 73.346 0.122 6.96 5.53 7.34
8/12/2021 3:15:00 AM 22.91 73.238 0.122 6.97 5.76 7.35
8/12/2021 3:30:00 AM 22.86 73.148 0.122 6.96 5.16 7.35
8/12/2021 3:45:00 AM 22.82 73.076 0.122 6.96 5.07 7.36
8/12/2021 4:00:00 AM 22.77 72.986 0.122 6.96 5.42 7.37
8/12/2021 4:15:00 AM 22.73 72.914 0.122 6.95 5.68 7.36
8/12/2021 4:30:00 AM 22.69 72.842 0.123 6.96 5.3 7.36
8/12/2021 4:45:00 AM 22.66 72.788 0.123 6.96 5.7 7.36
8/12/2021 5:00:00 AM 22.63 72.734 0.123 6.93 6 7.35
8/12/2021 5:15:00 AM 22.59 72.662 0.123 6.95 6.07 7.35
8/12/2021 5:30:00 AM 22.56 72.608 0.123 6.95 6.47 7.35
8/12/2021 5:45:00 AM 22.53 72.554 0.123 6.95 5.84 7.36
8/12/2021 6:00:00 AM 22.49 72.482 0.123 6.95 5.16 7.36
8/12/2021 6:15:00 AM 22.46 72.42799 0.123 6.97 5.16 7.36
8/12/2021 6:30:00 AM 22.42 72.356 0.123 6.95 5.67 7.38
8/12/2021 6:45:00 AM 22.39 72.302 0.123 6.95 4.92 7.41
8/12/2021 7:00:00 AM 22.36 72.248 0.123 6.96 4.73 7.46
8/12/2021 7:15:00 AM 22.34 72.212 0.123 6.97 4.69 7.52
8/12/2021 7:30:00 AM 22.33 72.194 0.123 6.97 4.65 7.58
8/12/2021 7:45:00 AM 22.34 72.212 0.124 6.97 5.15 7.66
8/12/2021 8:00:00 AM 22.35 72.23 0.123 7 4.72 7.79
8/12/2021 8:15:00 AM 22.38 72.284 0.124 7.01 5.3 7.88
8/12/2021 8:30:00 AM 22.42 72.356 0.124 7.02 4.38 7.98
8/12/2021 8:45:00 AM 22.47 72.446 0.123 7.04 4.41 8.1
8/12/2021 9:00:00 AM 22.57 72.626 0.123 7.04 4.82 8.26
8/12/2021 9:15:00 AM 22.66 72.788 0.123 7.06 4.62 8.38
8/12/2021 9:30:00 AM 22.79 73.022 0.123 7.09 4.33 8.53
8/12/2021 9:45:00 AM 22.89 73.202 0.123 7.1 4.42 8.63
8/12/2021 10:00:00 AM 23.01 73.418 0.123 7.12 4.76 8.72
8/12/2021 10:15:00 AM 23.18 73.724 0.123 7.15 4.04 8.85
8/12/2021 10:30:00 AM 23.32 73.976 0.123 7.16 3.99 8.94
8/12/2021 10:45:00 AM 23.49 74.282 0.123 7.19 4.55 9.06
8/12/2021 11:00:00 AM 23.58 74.444 0.123 7.2 4.59 9.12
8/12/2021 11:15:00 AM 23.69 74.642 0.123 7.22 4.01 9.26
8/12/2021 11:30:00 AM 23.67 74.606 0.123 7.24 4.02 9.32
8/12/2021 11:45:00 AM 23.67 74.606 0.123 7.26 3.93 9.39
8/12/2021 12:00:00 PM 23.79 74.82201 0.122 7.3 4.01 9.56
8/12/2021 12:15:00 PM 24 75.2 0.122 7.32 3.96 9.68
8/12/2021 12:30:00 PM 24.26 75.668 0.122 7.35 3.87 9.81
8/12/2021 12:45:00 PM 24.26 75.668 0.122 7.37 4.53 9.81
8/12/2021 1:00:00 PM 24.4 75.92 0.122 7.4 4.26 9.86
8/12/2021 1:15:00 PM 24.78 76.604 0.122 7.42 4.42 9.93
8/12/2021 1:30:00 PM 25.06 77.108 0.122 7.44 4.01 10.01
8/12/2021 1:45:00 PM 25.25 77.45 0.121 7.46 3.99 10.03
8/12/2021 2:00:00 PM 25.45 77.81 0.121 7.51 3.93 10.1
8/12/2021 2:15:00 PM 25.49 77.882 0.121 7.53 3.71 10.1
8/12/2021 2:30:00 PM 25.52 77.936 0.121 7.54 4.23 10.03
8/12/2021 2:45:00 PM 25.72 78.296 0.121 7.57 3.86 10.1
8/12/2021 3:00:00 PM 25.77 78.386 0.121 7.55 3.87 10.03
8/12/2021 3:15:00 PM 25.65 78.17 0.121 7.53 3.53 9.75
8/12/2021 3:30:00 PM 25.64 78.152 0.121 7.49 3.51 9.59
8/12/2021 3:45:00 PM 25.57 78.026 0.121 7.42 3.46 9.36
8/12/2021 4:00:00 PM 25.5 77.9 0.121 7.4 3.29 9.2
8/12/2021 4:15:00 PM 25.49 77.882 0.121 7.39 3.38 9.21
8/12/2021 4:30:00 PM 25.63 78.134 0.12 7.44 3.35 9.43
8/12/2021 4:45:00 PM 25.72 78.296 0.12 7.45 3.41 9.47
8/12/2021 5:00:00 PM 25.81 78.458 0.12 7.47 3.92 9.51
8/12/2021 5:15:00 PM 25.86 78.548 0.12 7.46 3.46 9.51
8/12/2021 5:30:00 PM 25.85 78.53 0.12 7.46 3.29 9.45
8/12/2021 5:45:00 PM 25.79 78.422 0.12 7.46 3.18 9.37
8/12/2021 6:00:00 PM 25.69 78.242 0.121 7.44 3.29 9.24
8/12/2021 6:15:00 PM 25.57 78.026 0.121 7.41 3.43 9.11
8/12/2021 6:30:00 PM 25.46 77.828 0.121 7.38 3.38 9.01
8/12/2021 6:45:00 PM 25.34 77.612 0.121 7.36 3.37 8.88
8/12/2021 7:00:00 PM 25.18 77.324 0.121 7.3 3.4 8.65
8/12/2021 7:15:00 PM 25.05 77.09 0.121 7.27 3.55 8.49
8/12/2021 7:30:00 PM 24.97 76.946 0.121 7.25 3.62 8.37
8/12/2021 7:45:00 PM 24.88 76.784 0.121 7.23 3.69 8.25
8/12/2021 8:00:00 PM 24.81 76.658 0.121 7.21 3.64 8.15
8/12/2021 8:15:00 PM 24.74 76.532 0.121 7.16 3.79 8.04
8/12/2021 8:30:00 PM 24.66 76.388 0.121 7.16 4.19 7.96
8/12/2021 8:45:00 PM 24.59 76.262 0.122 7.14 3.93 7.89
8/12/2021 9:00:00 PM 24.52 76.136 0.122 7.13 3.97 7.81
8/12/2021 9:15:00 PM 24.46 76.028 0.122 7.11 4.35 7.74
8/12/2021 9:30:00 PM 24.38 75.884 0.122 7.1 4.57 7.68
8/12/2021 9:45:00 PM 24.32 75.776 0.122 7.1 4.32 7.62
8/12/2021 10:00:00 PM 24.26 75.668 0.122 7.08 4.36 7.57
8/12/2021 10:15:00 PM 24.19 75.542 0.122 7.06 4.5 7.51
8/12/2021 10:30:00 PM 24.13 75.434 0.122 7.05 4.29 7.47
8/12/2021 10:45:00 PM 24.08 75.344 0.122 7.04 4.43 7.43
8/12/2021 11:00:00 PM 24.02 75.236 0.122 7.02 4.93 7.39
8/12/2021 11:15:00 PM 23.96 75.128 0.122 7.03 4.63 7.37
8/12/2021 11:30:00 PM 23.9 75.02 0.122 7.01 4.82 7.34
8/12/2021 11:45:00 PM 23.84 74.912 0.123 7.02 4.62 7.32
8/13/2021 12:00:00 AM 23.79 74.82201 0.123 7.01 4.45 7.31
8/13/2021 12:15:00 AM 23.73 74.714 0.123 6.99 4.36 7.29
8/13/2021 12:30:00 AM 23.69 74.642 0.123 7.01 5.36 7.28
8/13/2021 12:45:00 AM 23.64 74.552 0.123 6.98 4.99 7.27
8/13/2021 1:00:00 AM 23.6 74.48 0.122 6.99 4.82 7.26
8/13/2021 1:15:00 AM 23.55 74.39 0.123 7 4.32 7.26
8/13/2021 1:30:00 AM 23.51 74.318 0.123 6.99 4.57 7.26
8/13/2021 1:45:00 AM 23.48 74.264 0.123 6.99 5.2 7.24
8/13/2021 2:00:00 AM 23.43 74.174 0.123 6.99 5.96 7.25
8/13/2021 2:15:00 AM 23.39 74.102 0.123 6.98 5.09 7.24
8/13/2021 2:30:00 AM 23.35 74.03 0.123 6.98 5.28 7.25
8/13/2021 2:45:00 AM 23.31 73.958 0.124 6.98 5.76 7.24
8/13/2021 3:00:00 AM 23.28 73.904 0.124 6.99 4.87 7.25
8/13/2021 3:15:00 AM 23.24 73.832 0.124 6.97 4.76 7.25
8/13/2021 3:30:00 AM 23.2 73.76 0.124 6.98 5.49 7.25
8/13/2021 3:45:00 AM 23.17 73.706 0.124 6.87 5.29 7.23
8/13/2021 4:00:00 AM 23.13 73.634 0.124 6.86 4.94 7.25
8/13/2021 4:15:00 AM 23.07 73.526 0.124 6.86 4.71 7.25
8/13/2021 4:30:00 AM 23.02 73.436 0.124 6.97 4.81 7.25
8/13/2021 4:45:00 AM 22.97 73.346 0.124 6.97 5.38 7.26
8/13/2021 5:00:00 AM 22.92 73.256 0.124 6.96 5.28 7.26
8/13/2021 5:15:00 AM 22.87 73.166 0.124 6.97 5.8 7.26
8/13/2021 5:30:00 AM 22.82 73.076 0.124 6.97 6.58 7.27
8/13/2021 5:45:00 AM 22.77 72.986 0.125 6.98 5.95 7.27
8/13/2021 6:00:00 AM 22.72 72.896 0.125 6.97 6.01 7.28
8/13/2021 6:15:00 AM 22.67 72.806 0.125 6.97 5.03 7.29
8/13/2021 6:30:00 AM 22.63 72.734 0.125 6.99 5.18 7.31
8/13/2021 6:45:00 AM 22.58 72.644 0.125 6.97 4.96 7.35
8/13/2021 7:00:00 AM 22.54 72.57201 0.125 6.99 4.97 7.4
8/13/2021 7:15:00 AM 22.51 72.518 0.125 6.98 4.6 7.44
8/13/2021 7:30:00 AM 22.47 72.446 0.125 6.99 4.66 7.52
8/13/2021 7:45:00 AM 22.46 72.42799 0.125 6.99 4.76 7.6
8/13/2021 8:00:00 AM 22.47 72.446 0.125 7.01 4.75 7.71
8/13/2021 8:15:00 AM 22.48 72.464 0.125 7.02 4.71 7.84
8/13/2021 8:30:00 AM 22.51 72.518 0.125 6.95 4.78 7.94
8/13/2021 8:45:00 AM 22.55 72.59 0.125 7.03 4.73 8.07
8/13/2021 9:00:00 AM 22.64 72.752 0.125 7.07 4.55 8.22
8/13/2021 9:15:00 AM 22.78 73.004 0.125 7.07 4.71 8.4
8/13/2021 9:30:00 AM 22.95 73.31 0.125 7.08 4.47 8.56
8/13/2021 9:45:00 AM 22.99 73.382 0.125 7.11 5.21 8.64
8/13/2021 10:00:00 AM 22.99 73.382 0.125 7.11 4.45 8.69
8/13/2021 10:15:00 AM 23.21 73.778 0.125 7.13 5.39 8.83
8/13/2021 10:30:00 AM 23.33 73.994 0.125 7.16 11.1 8.91
8/13/2021 10:45:00 AM 23.37 74.066 0.125 7.12 5.78 8.97
8/13/2021 11:00:00 AM 23.62 74.516 0.125 7.17 6.9 9.16
8/13/2021 11:15:00 AM 23.71 74.67799 0.125 7.22 10.66 9.25
8/13/2021 11:30:00 AM 23.7 74.66 0.124 7.2 5.32 9.34
8/13/2021 11:45:00 AM 23.9 75.02 0.125 7.16 5.23 9.47
8/13/2021 12:00:00 PM 24.2 75.56 0.125 7.29 5.61 9.62
8/13/2021 12:15:00 PM 24.44 75.992 0.124 7.27 5.32 9.72
8/13/2021 12:30:00 PM 24.57 76.226 0.124 7.29 5.3 9.76
8/13/2021 12:45:00 PM 24.67 76.406 0.124 7.24 4.88 9.82
8/13/2021 1:00:00 PM 24.97 76.946 0.124 7.33 4.79 9.9
8/13/2021 1:15:00 PM 25.2 77.36 0.124 7.3 4.6 9.96
8/13/2021 1:30:00 PM 25.44 77.792 0.123 7.27 5.1 9.99
8/13/2021 1:45:00 PM 25.7 78.26 0.123 7.45 4.29 10.03
8/13/2021 2:00:00 PM 25.97 78.746 0.123 7.5 5.21 10.07
8/13/2021 2:15:00 PM 26.22 79.196 0.123 7.51 4.68 10.09
8/13/2021 2:30:00 PM 26.41 79.538 0.123 7.55 4.09 10.1
8/13/2021 2:45:00 PM 26.57 79.826 0.123 7.43 4.13 10.03
8/13/2021 3:00:00 PM 26.64 79.952 0.123 7.56 4.31 10
8/13/2021 3:15:00 PM 26.74 80.132 0.123 7.58 5.22 9.95
8/13/2021 3:30:00 PM 26.91 80.438 0.123 7.58 4.88 9.94
8/13/2021 3:45:00 PM 26.99 80.582 0.123 7.5 4.34 9.91
8/13/2021 4:00:00 PM 27.02 80.636 0.123 7.57 4.17 9.84
8/13/2021 4:15:00 PM 27.17 80.906 0.123 7.6 3.93 9.85
8/13/2021 4:30:00 PM 27.11 80.798 0.123 7.56 3.89 9.62
8/13/2021 4:45:00 PM 27.02 80.636 0.123 7.44 3.8 9.45
8/13/2021 5:00:00 PM 26.91 80.438 0.123 7.47 4.71 9.3
8/13/2021 5:15:00 PM 26.83 80.294 0.122 7.44 3.79 9.26
8/13/2021 5:30:00 PM 26.68 80.024 0.123 7.38 4.43 9.06
8/13/2021 5:45:00 PM 26.54 79.772 0.122 7.36 4.14 8.86
8/13/2021 6:00:00 PM 26.41 79.538 0.123 7.26 4.69 8.71
8/13/2021 6:15:00 PM 26.3 79.34 0.123 7.26 4.65 8.59
8/13/2021 6:30:00 PM 26.19 79.142 0.123 7.21 4.6 8.46
8/13/2021 6:45:00 PM 26.08 78.944 0.123 7.27 5.9 8.38
8/13/2021 7:00:00 PM 25.99 78.782 0.123 7.19 6.29 8.34
8/13/2021 7:15:00 PM 25.9 78.62 0.123 7.17 5.01 8.33
8/13/2021 7:30:00 PM 25.8 78.44 0.123 7.12 5.04 8.28
8/13/2021 7:45:00 PM 25.69 78.242 0.123 7.17 4.03 8.21
8/13/2021 8:00:00 PM 25.57 78.026 0.123 7.23 4.38 8.09
8/13/2021 8:15:00 PM 25.44 77.792 0.123 7.04 4.37 7.96
8/13/2021 8:30:00 PM 25.32 77.576 0.124 7.19 4.63 7.85
8/13/2021 8:45:00 PM 25.18 77.324 0.124 7.07 4.51 7.74
8/13/2021 9:00:00 PM 25.05 77.09 0.124 7.04 4.82 7.65
8/13/2021 9:15:00 PM 24.93 76.874 0.124 7.11 5.67 7.59
8/13/2021 9:30:00 PM 24.81 76.658 0.124 6.93 5.61 7.53
8/13/2021 9:45:00 PM 24.69 76.442 0.124 7.08 5.29 7.48
8/13/2021 10:00:00 PM 24.58 76.244 0.124 7.01 6.35 7.45
8/13/2021 10:15:00 PM 24.49 76.082 0.124 6.91 5.81 7.41
8/13/2021 10:30:00 PM 24.4 75.92 0.124 7.01 5.97 7.38
8/13/2021 10:45:00 PM 24.31 75.758 0.124 6.96 5.6 7.35
8/13/2021 11:00:00 PM 24.23 75.614 0.123 7 7.62 7.31
8/13/2021 11:15:00 PM 24.15 75.47 0.123 6.97 5.82 7.29
8/13/2021 11:30:00 PM 24.08 75.344 0.123 7 5.9 7.28
8/13/2021 11:45:00 PM 24.02 75.236 0.123 6.92 5.74 7.26
8/14/2021 12:00:00 AM 23.95 75.11 0.123 6.88 6.66 7.24
8/14/2021 12:15:00 AM 23.9 75.02 0.123 6.9 5.78 7.22
8/14/2021 12:30:00 AM 23.85 74.93 0.124 6.85 5.66 7.21
8/14/2021 12:45:00 AM 23.8 74.84 0.123 6.94 5.85 7.2
8/14/2021 1:00:00 AM 23.74 74.732 0.123 6.94 6.54 7.2
8/14/2021 1:15:00 AM 23.68 74.624 0.123 6.87 5.58 7.2
8/14/2021 1:30:00 AM 23.64 74.552 0.124 6.97 5.75 7.18
8/14/2021 1:45:00 AM 23.59 74.462 0.123 6.99 5.55 7.17
8/14/2021 2:00:00 AM 23.55 74.39 0.123 6.86 5.56 7.17
8/14/2021 2:15:00 AM 23.51 74.318 0.124 6.94 5.77 7.17
8/14/2021 2:30:00 AM 23.47 74.246 0.124 6.94 6.23 7.18
8/14/2021 2:45:00 AM 23.44 74.192 0.124 6.93 5.65 7.18
8/14/2021 3:00:00 AM 23.4 74.12 0.124 6.84 6.53 7.17
8/14/2021 3:15:00 AM 23.37 74.066 0.124 6.93 6.4 7.19
8/14/2021 3:30:00 AM 23.33 73.994 0.124 6.92 5.54 7.18
8/14/2021 3:45:00 AM 23.3 73.94 0.124 6.94 5.98 7.18
8/14/2021 4:00:00 AM 23.25 73.85 0.124 6.88 6.07 7.18
8/14/2021 4:15:00 AM 23.22 73.796 0.124 6.83 6.42 7.18
8/14/2021 4:30:00 AM 23.18 73.724 0.124 6.84 6.4 7.18
8/14/2021 4:45:00 AM 23.15 73.67 0.124 6.91 6.17 7.19
8/14/2021 5:00:00 AM 23.12 73.616 0.124 6.87 6.44 7.18
8/14/2021 5:15:00 AM 23.07 73.526 0.125 6.86 7.12 7.19
8/14/2021 5:30:00 AM 23.05 73.49 0.124 6.87 7.83 7.19
8/14/2021 5:45:00 AM 23.02 73.436 0.124 6.86 6 7.19
8/14/2021 6:00:00 AM 23 73.4 0.125 6.85 5.81 7.18
8/14/2021 6:15:00 AM 22.97 73.346 0.125 6.88 5.87 7.19
8/14/2021 6:30:00 AM 22.95 73.31 0.125 6.91 5.52 7.2
8/14/2021 6:45:00 AM 22.92 73.256 0.125 6.84 5.32 7.21
8/14/2021 7:00:00 AM 22.9 73.22 0.125 6.9 4.99 7.23
8/14/2021 7:15:00 AM 22.88 73.184 0.125 6.84 4.93 7.24
8/14/2021 7:30:00 AM 22.86 73.148 0.125 6.94 7.7 7.28
8/14/2021 7:45:00 AM 22.84 73.112 0.126 6.85 4.96 7.32
8/14/2021 8:00:00 AM 22.83 73.094 0.126 6.88 4.87 7.4
8/14/2021 8:15:00 AM 22.81 73.058 0.126 6.92 5.04 7.47
8/14/2021 8:30:00 AM 22.78 73.004 0.126 6.93 6.62 7.5
8/14/2021 8:45:00 AM 22.75 72.95 0.126 6.93 4.84 7.55
8/14/2021 9:00:00 AM 22.72 72.896 0.126 6.98 4.71 7.59
8/14/2021 9:15:00 AM 22.72 72.896 0.126 7 4.77 7.75
8/14/2021 9:30:00 AM 22.74 72.932 0.126 6.93 5.4 7.94
8/14/2021 9:45:00 AM 22.76 72.968 0.126 7.01 4.69 8.09
8/14/2021 10:00:00 AM 22.8 73.04 0.126 6.95 5.05 8.29
8/14/2021 10:15:00 AM 22.77 72.986 0.126 7.02 5.8 8.29
8/14/2021 10:30:00 AM 22.79 73.022 0.126 6.98 4.67 8.46
8/14/2021 10:45:00 AM 22.81 73.058 0.125 7.03 4.73 8.59
8/14/2021 11:00:00 AM 22.81 73.058 0.126 7.01 4.9 8.72
8/14/2021 11:15:00 AM 22.86 73.148 0.125 7.05 7.99 8.86
8/14/2021 11:30:00 AM 22.8 73.04 0.125 7.13 4.61 8.79
8/14/2021 11:45:00 AM 22.75 72.95 0.125 7.04 4.5 8.81
8/14/2021 12:00:00 PM 22.75 72.95 0.125 7.08 4.5 8.89
8/14/2021 12:15:00 PM 22.78 73.004 0.125 7.18 4.42 9.06
8/14/2021 12:30:00 PM 22.87 73.166 0.125 7.12 4.31 9.27
8/14/2021 12:45:00 PM 22.89 73.202 0.124 7.21 4.6 9.37
8/14/2021 1:00:00 PM 22.89 73.202 0.124 7.14 4.47 9.45
8/14/2021 1:15:00 PM 22.92 73.256 0.124 7.21 4.27 9.53
8/14/2021 1:30:00 PM 23.03 73.454 0.124 7.21 4.85 9.7
8/14/2021 1:45:00 PM 23.18 73.724 0.124 7.31 4.32 9.82
8/14/2021 2:00:00 PM 23.3 73.94 0.123 7.27 4.36 9.97
8/14/2021 2:15:00 PM 23.41 74.138 0.123 7.32 4.27 10.03
8/14/2021 2:30:00 PM 23.62 74.516 0.123 7.42 4.34 10.09
8/14/2021 2:45:00 PM 23.7 74.66 0.123 7.37 4.19 10.14
8/14/2021 3:00:00 PM 23.76 74.768 0.123 7.46 4.31 10.16
8/14/2021 3:15:00 PM 23.86 74.948 0.123 7.53 4.29 10.17
8/14/2021 3:30:00 PM 24 75.2 0.123 7.49 4.14 10.14
8/14/2021 3:45:00 PM 24.02 75.236 0.122 7.39 5.24 10.03
8/14/2021 4:00:00 PM 24.1 75.38 0.122 7.43 6.11 9.97
8/14/2021 4:15:00 PM 24.17 75.506 0.121 7.47 6.46 9.87
8/14/2021 4:30:00 PM 24.14 75.452 0.121 7.47 5.1 9.71
8/14/2021 4:45:00 PM 24.16 75.488 0.12 7.4 5.05 9.63
8/14/2021 5:00:00 PM 24.1 75.38 0.12 7.34 4.81 9.49
8/14/2021 5:15:00 PM 24.07 75.326 0.12 7.42 4.65 9.43
8/14/2021 5:30:00 PM 23.97 75.146 0.12 7.39 4.7 9.33
8/14/2021 5:45:00 PM 23.89 75.002 0.12 7.32 4.64 9.26
8/14/2021 6:00:00 PM 23.75 74.75 0.12 7.34 4.79 9.12
8/14/2021 6:15:00 PM 23.65 74.57 0.12 7.32 4.59 9.06
8/14/2021 6:30:00 PM 23.54 74.372 0.12 7.31 5.05 8.97
8/14/2021 6:45:00 PM 23.43 74.174 0.12 7.28 5.55 8.87
8/14/2021 7:00:00 PM 23.3 73.94 0.121 7.24 4.5 8.76
8/14/2021 7:15:00 PM 23.19 73.742 0.121 7.23 4.47 8.64
8/14/2021 7:30:00 PM 23.08 73.544 0.121 7.21 4.41 8.53
8/14/2021 7:45:00 PM 22.99 73.382 0.121 7.18 4.73 8.46
8/14/2021 8:00:00 PM 22.88 73.184 0.121 7.16 4.71 8.38
8/14/2021 8:15:00 PM 22.77 72.986 0.122 7.14 4.69 8.29
8/14/2021 8:30:00 PM 22.66 72.788 0.122 7.07 5.11 8.22
8/14/2021 8:45:00 PM 22.54 72.57201 0.122 7.1 4.85 8.14
8/14/2021 9:00:00 PM 22.43 72.374 0.123 7.08 5.53 8.09
8/14/2021 9:15:00 PM 22.32 72.176 0.123 7.09 5.61 8.05
8/14/2021 9:30:00 PM 22.21 71.978 0.123 6.96 5.58 8.01
8/14/2021 9:45:00 PM 22.1 71.78 0.124 6.97 6.37 7.98
8/14/2021 10:00:00 PM 22 71.6 0.124 7.03 5.68 7.96
8/14/2021 10:15:00 PM 21.9 71.42 0.124 7.05 5.75 7.93
8/14/2021 10:30:00 PM 21.81 71.258 0.125 7.04 6.38 7.9
8/14/2021 10:45:00 PM 21.71 71.078 0.125 7.03 5.9 7.89
8/14/2021 11:00:00 PM 21.61 70.898 0.125 7.02 5.72 7.88
8/14/2021 11:15:00 PM 21.54 70.772 0.126 7.01 6.05 7.85
8/14/2021 11:30:00 PM 21.45 70.61 0.126 7.02 6.1 7.83
8/14/2021 11:45:00 PM 21.36 70.448 0.126 7.02 7.79 7.82
8/15/2021 12:00:00 AM 21.27 70.286 0.127 7.01 5.97 7.82
8/15/2021 12:15:00 AM 21.19 70.142 0.127 7.01 6.16 7.81
8/15/2021 12:30:00 AM 21.1 69.98 0.127 7 6.58 7.81
8/15/2021 12:45:00 AM 21.03 69.854 0.127 6.99 6.93 7.79
8/15/2021 1:00:00 AM 20.94 69.692 0.128 6.99 6.3 7.81
8/15/2021 1:15:00 AM 20.86 69.548 0.128 6.99 6.51 7.8
8/15/2021 1:30:00 AM 20.78 69.404 0.128 6.89 6.1 7.8
8/15/2021 1:45:00 AM 20.71 69.278 0.128 6.9 7.09 7.79
8/15/2021 2:00:00 AM 20.62 69.116 0.129 6.89 6.47 7.81
8/15/2021 2:15:00 AM 20.55 68.99 0.129 6.89 6.36 7.82
8/15/2021 2:30:00 AM 20.47 68.846 0.13 6.98 6.44 7.82
8/15/2021 2:45:00 AM 20.4 68.72 0.13 6.98 7.25 7.82
8/15/2021 3:00:00 AM 20.32 68.576 0.131 6.98 6.63 7.83
8/15/2021 3:15:00 AM 20.24 68.432 0.131 6.9 6.53 7.83
8/15/2021 3:30:00 AM 20.16 68.288 0.131 6.97 6.88 7.84
8/15/2021 3:45:00 AM 20.09 68.162 0.132 6.98 6.62 7.85
8/15/2021 4:00:00 AM 20.01 68.018 0.132 6.97 7.42 7.85
8/15/2021 4:15:00 AM 19.93 67.874 0.132 6.97 7.95 7.87
8/15/2021 4:30:00 AM 19.85 67.73 0.132 6.88 9.09 7.87
8/15/2021 4:45:00 AM 19.78 67.604 0.132 6.95 9.66 7.89
8/15/2021 5:00:00 AM 19.71 67.478 0.132 6.95 11.79 7.87
8/15/2021 5:15:00 AM 19.62 67.316 0.132 6.96 10.66 7.91
8/15/2021 5:30:00 AM 19.54 67.172 0.132 6.96 9.19 7.92
8/15/2021 5:45:00 AM 19.46 67.028 0.132 6.88 8.85 7.93
8/15/2021 6:00:00 AM 19.39 66.902 0.132 6.87 7.27 7.94
8/15/2021 6:15:00 AM 19.3 66.74 0.132 6.87 6.43 7.97
8/15/2021 6:30:00 AM 19.23 66.614 0.131 6.87 6.57 8
8/15/2021 6:45:00 AM 19.15 66.47 0.131 6.97 6.25 8.05
8/15/2021 7:00:00 AM 19.08 66.344 0.131 6.98 6.17 8.09
8/15/2021 7:15:00 AM 19.01 66.218 0.131 6.98 8.06 8.14
8/15/2021 7:30:00 AM 18.95 66.11 0.131 6.92 6.35 8.22
8/15/2021 7:45:00 AM 18.91 66.038 0.13 7 6.31 8.29
8/15/2021 8:00:00 AM 18.89 66.002 0.13 6.99 6.36 8.38
8/15/2021 8:15:00 AM 18.87 65.966 0.13 7.01 6.61 8.46
8/15/2021 8:30:00 AM 18.88 65.984 0.13 7.02 5.43 8.57
8/15/2021 8:45:00 AM 18.93 66.074 0.129 7.04 6.04 8.66
8/15/2021 9:00:00 AM 18.99 66.182 0.129 7.05 6.42 8.75
8/15/2021 9:15:00 AM 19.14 66.452 0.129 7.07 6.58 8.89
8/15/2021 9:30:00 AM 19.32 66.776 0.129 7.09 6.37 9.06
8/15/2021 9:45:00 AM 19.39 66.902 0.128 7.03 6.14 9.13
8/15/2021 10:00:00 AM 19.49 67.082 0.128 7.06 6 9.22
8/15/2021 10:15:00 AM 19.56 67.208 0.128 7.05 5.97 9.3
8/15/2021 10:30:00 AM 19.67 67.406 0.128 7.14 5.92 9.41
8/15/2021 10:45:00 AM 19.81 67.658 0.128 7.15 5.72 9.53
8/15/2021 11:00:00 AM 19.94 67.892 0.128 7.17 5.74 9.62
8/15/2021 11:15:00 AM 20.06 68.108 0.127 7.2 5.82 9.7
8/15/2021 11:30:00 AM 20.24 68.432 0.127 7.13 5.81 9.8
8/15/2021 11:45:00 AM 20.24 68.432 0.127 7.23 5.99 9.86
8/15/2021 12:00:00 PM 20.36 68.648 0.126 7.25 6.23 9.93
8/15/2021 12:15:00 PM 20.44 68.792 0.126 7.27 5.99 9.99
8/15/2021 12:30:00 PM 20.66 69.188 0.125 7.28 6.06 10.06
8/15/2021 12:45:00 PM 20.77 69.386 0.125 7.31 6.29 10.14
8/15/2021 1:00:00 PM 21.05 69.89 0.125 7.34 6.17 10.25
8/15/2021 1:15:00 PM 21.32 70.376 0.124 7.36 5.6 10.32
8/15/2021 1:30:00 PM 21.55 70.79 0.124 7.38 5.54 10.39
8/15/2021 1:45:00 PM 21.68 71.024 0.124 7.42 5.53 10.45
8/15/2021 2:00:00 PM 21.82 71.276 0.123 7.44 5.47 10.48
8/15/2021 2:15:00 PM 22 71.6 0.123 7.43 5.39 10.49
8/15/2021 2:30:00 PM 22.09 71.762 0.123 7.47 5.41 10.55
8/15/2021 2:45:00 PM 22.27 72.086 0.123 7.49 5.36 10.58
8/15/2021 3:00:00 PM 22.41 72.338 0.123 7.5 5.27 10.58
8/15/2021 3:15:00 PM 22.64 72.752 0.123 7.44 5.35 10.61
8/15/2021 3:30:00 PM 22.81 73.058 0.123 7.53 5.15 10.62
8/15/2021 3:45:00 PM 22.92 73.256 0.123 7.46 5.31 10.58
8/15/2021 4:00:00 PM 22.99 73.382 0.123 7.53 5.27 10.55
8/15/2021 4:15:00 PM 23.05 73.49 0.123 7.48 5.19 10.53
8/15/2021 4:30:00 PM 23.05 73.49 0.123 7.54 5.22 10.48
8/15/2021 4:45:00 PM 23.03 73.454 0.123 7.54 5.07 10.47
8/15/2021 5:00:00 PM 23.02 73.436 0.123 7.53 5.14 10.41
8/15/2021 5:15:00 PM 22.98 73.364 0.123 7.53 5.06 10.36
8/15/2021 5:30:00 PM 22.92 73.256 0.123 7.51 4.96 10.27
8/15/2021 5:45:00 PM 22.87 73.166 0.123 7.48 5.29 10.2
8/15/2021 6:00:00 PM 22.81 73.058 0.123 7.43 5.02 10.13
8/15/2021 6:15:00 PM 22.74 72.932 0.123 7.45 5 9.99
8/15/2021 6:30:00 PM 22.69 72.842 0.123 7.44 5.29 9.92
8/15/2021 6:45:00 PM 22.62 72.716 0.123 7.41 5.17 9.78
8/15/2021 7:00:00 PM 22.53 72.554 0.124 7.33 8.28 9.63
8/15/2021 7:15:00 PM 22.44 72.392 0.124 7.28 5.36 9.49
8/15/2021 7:30:00 PM 22.34 72.212 0.124 7.25 5.14 9.35
8/15/2021 7:45:00 PM 22.24 72.032 0.124 7.27 4.95 9.2
8/15/2021 8:00:00 PM 22.13 71.834 0.124 7.24 5.09 9.06
8/15/2021 8:15:00 PM 22.01 71.618 0.124 7.22 4.94 8.94
8/15/2021 8:30:00 PM 21.91 71.438 0.125 7.2 5.52 8.85
8/15/2021 8:45:00 PM 21.8 71.24 0.125 7.08 5.43 8.74
8/15/2021 9:00:00 PM 21.7 71.06 0.125 7.16 5.84 8.65
8/15/2021 9:15:00 PM 21.61 70.898 0.125 7.14 5.89 8.59
8/15/2021 9:30:00 PM 21.52 70.736 0.125 7.13 6.18 8.53
8/15/2021 9:45:00 PM 21.43 70.574 0.125 7.12 6.09 8.47
8/15/2021 10:00:00 PM 21.35 70.43 0.125 7.11 6.52 8.41
8/15/2021 10:15:00 PM 21.26 70.268 0.125 7.09 6.58 8.35
8/15/2021 10:30:00 PM 21.18 70.124 0.125 7.06 6.68 8.3
8/15/2021 10:45:00 PM 21.1 69.98 0.126 7.03 6.96 8.25
8/15/2021 11:00:00 PM 21.02 69.836 0.126 7.06 7.04 8.21
8/15/2021 11:15:00 PM 20.96 69.728 0.126 7.05 6.74 8.17
8/15/2021 11:30:00 PM 20.89 69.602 0.126 7.04 7.12 8.12
8/15/2021 11:45:00 PM 20.82 69.476 0.126 7.03 7.05 8.08
8/16/2021 12:00:00 AM 20.75 69.35 0.126 7.03 7.4 8.04
8/16/2021 12:15:00 AM 20.68 69.224 0.127 7.02 6.85 8.01
8/16/2021 12:30:00 AM 20.62 69.116 0.127 7.01 7.16 7.99
8/16/2021 12:45:00 AM 20.56 69.008 0.127 6.98 7.28 7.96
8/16/2021 1:00:00 AM 20.51 68.918 0.127 7.01 7.44 7.94
8/16/2021 1:15:00 AM 20.45 68.81 0.127 7.01 7.61 7.93
8/16/2021 1:30:00 AM 20.4 68.72 0.127 7 7.26 7.92
8/16/2021 1:45:00 AM 20.34 68.612 0.127 7 7.02 7.91
8/16/2021 2:00:00 AM 20.29 68.522 0.127 6.92 6.9 7.9
8/16/2021 2:15:00 AM 20.25 68.45 0.127 6.96 8.3 7.89
8/16/2021 2:30:00 AM 20.2 68.36 0.128 6.94 6.9 7.88
8/16/2021 2:45:00 AM 20.15 68.27 0.128 6.96 7.02 7.87
8/16/2021 3:00:00 AM 20.1 68.18 0.128 6.98 6.94 7.88
8/16/2021 3:15:00 AM 20.05 68.09 0.128 6.97 6.95 7.87
8/16/2021 3:30:00 AM 20 68 0.129 6.96 7.36 7.87
8/16/2021 3:45:00 AM 19.95 67.91 0.129 6.95 9.05 7.86
8/16/2021 4:00:00 AM 19.91 67.838 0.129 6.96 7.63 7.87
8/16/2021 4:15:00 AM 19.87 67.766 0.129 6.95 11.47 7.88
8/16/2021 4:30:00 AM 19.82 67.676 0.129 6.85 8.31 7.87
8/16/2021 4:45:00 AM 19.77 67.586 0.13 6.95 12.73 7.86
8/16/2021 5:00:00 AM 19.72 67.496 0.13 6.94 10.37 7.88
8/16/2021 5:15:00 AM 19.67 67.406 0.13 6.93 9.25 7.86
8/16/2021 5:30:00 AM 19.62 67.316 0.13 6.85 8.87 7.88
8/16/2021 5:45:00 AM 19.57 67.226 0.13 6.93 8.93 7.88
8/16/2021 6:00:00 AM 19.52 67.136 0.13 6.94 8.86 7.88
8/16/2021 6:15:00 AM 19.48 67.064 0.13 6.94 8.51 7.89
8/16/2021 6:30:00 AM 19.43 66.974 0.13 6.93 6.9 7.91
8/16/2021 6:45:00 AM 19.39 66.902 0.13 6.95 6.99 7.96
8/16/2021 7:00:00 AM 19.36 66.848 0.13 6.86 6.68 8.01
8/16/2021 7:15:00 AM 19.34 66.812 0.13 6.96 6.74 8.07
8/16/2021 7:30:00 AM 19.31 66.758 0.13 6.96 6.33 8.12
8/16/2021 7:45:00 AM 19.31 66.758 0.13 6.98 6.43 8.25
8/16/2021 8:00:00 AM 19.35 66.83 0.13 6.98 6.45 8.41
8/16/2021 8:15:00 AM 19.33 66.794 0.13 7.01 7.04 8.49
8/16/2021 8:30:00 AM 19.35 66.83 0.13 7.01 6.77 8.57
8/16/2021 8:45:00 AM 19.4 66.92 0.13 7.01 8.13 8.7
8/16/2021 9:00:00 AM 19.45 67.01 0.13 6.94 7.31 8.8
8/16/2021 9:15:00 AM 19.58 67.244 0.13 6.94 7.37 8.92
8/16/2021 9:30:00 AM 19.76 67.568 0.13 7.05 6.36 9.1
8/16/2021 9:45:00 AM 19.88 67.784 0.13 7.07 7.5 9.21
8/16/2021 10:00:00 AM 19.87 67.766 0.13 7.08 6.17 9.29
8/16/2021 10:15:00 AM 19.88 67.784 0.129 7.09 6.02 9.37
8/16/2021 10:30:00 AM 20 68 0.129 7.11 6.28 9.53
8/16/2021 10:45:00 AM 20.06 68.108 0.129 7.12 6.03 9.61
8/16/2021 11:00:00 AM 20.09 68.162 0.129 7.14 6.42 9.65
8/16/2021 11:15:00 AM 20.19 68.342 0.129 7.06 7.35 9.79
8/16/2021 11:30:00 AM 20.33 68.594 0.129 7.18 6.53 9.93
8/16/2021 11:45:00 AM 20.42 68.756 0.129 7.21 6.43 10.02
8/16/2021 12:00:00 PM 20.51 68.918 0.129 7.21 6.09 10.11
8/16/2021 12:15:00 PM 20.75 69.35 0.128 7.24 5.97 10.25
8/16/2021 12:30:00 PM 20.86 69.548 0.128 7.2 6.37 10.32
8/16/2021 12:45:00 PM 20.88 69.584 0.128 7.18 5.69 10.36
8/16/2021 1:00:00 PM 20.97 69.746 0.128 7.3 5.71 10.43
8/16/2021 1:15:00 PM 21.1 69.98 0.128 7.32 6.22 10.52
8/16/2021 1:30:00 PM 21.27 70.286 0.128 7.35 5.71 10.6
8/16/2021 1:45:00 PM 21.47 70.646 0.128 7.28 5.86 10.65
8/16/2021 2:00:00 PM 21.66 70.988 0.128 7.4 5.67 10.72
8/16/2021 2:15:00 PM 21.9 71.42 0.127 7.41 5.8 10.77
8/16/2021 2:30:00 PM 22.1 71.78 0.127 7.47 5.59 10.83
8/16/2021 2:45:00 PM 22.24 72.032 0.127 7.5 5.93 10.86
8/16/2021 3:00:00 PM 22.37 72.266 0.127 7.52 5.67 10.87
8/16/2021 3:15:00 PM 22.43 72.374 0.127 7.54 5.64 10.83
8/16/2021 3:30:00 PM 22.42 72.356 0.127 7.51 6.08 10.68
8/16/2021 3:45:00 PM 22.42 72.356 0.127 7.5 5.69 10.61
8/16/2021 4:00:00 PM 22.44 72.392 0.127 7.5 5.62 10.56
8/16/2021 4:15:00 PM 22.47 72.446 0.127 7.51 5.88 10.54
8/16/2021 4:30:00 PM 22.49 72.482 0.127 7.5 6.13 10.49
8/16/2021 4:45:00 PM 22.49 72.482 0.127 7.39 6.29 10.37
8/16/2021 5:00:00 PM 22.52 72.536 0.127 7.47 5.79 10.35
8/16/2021 5:15:00 PM 22.52 72.536 0.127 7.46 6.74 10.23
8/16/2021 5:30:00 PM 22.52 72.536 0.127 7.44 8.62 10.07
8/16/2021 5:45:00 PM 22.53 72.554 0.127 7.42 5.71 10.03
8/16/2021 6:00:00 PM 22.54 72.57201 0.126 7.42 8.23 9.98
8/16/2021 6:15:00 PM 22.52 72.536 0.127 7.35 5.79 9.91
8/16/2021 6:30:00 PM 22.49 72.482 0.126 7.34 6.28 9.8
8/16/2021 6:45:00 PM 22.45 72.41 0.127 7.35 5.56 9.67
8/16/2021 7:00:00 PM 22.39 72.302 0.126 7.32 5.67 9.5
8/16/2021 7:15:00 PM 22.32 72.176 0.127 7.2 6.37 9.35
8/16/2021 7:30:00 PM 22.25 72.05 0.127 7.19 5.6 9.23
8/16/2021 7:45:00 PM 22.19 71.942 0.127 7.22 8.16 9.11
8/16/2021 8:00:00 PM 22.11 71.798 0.127 7.21 5.88 8.96
8/16/2021 8:15:00 PM 22.03 71.654 0.127 7.18 5.72 8.83
8/16/2021 8:30:00 PM 21.95 71.51 0.127 7.07 6.57 8.74
8/16/2021 8:45:00 PM 21.87 71.366 0.127 7.13 6.13 8.63
8/16/2021 9:00:00 PM 21.8 71.24 0.127 7.13 6.42 8.54
8/16/2021 9:15:00 PM 21.73 71.114 0.127 7.12 6.66 8.47
8/16/2021 9:30:00 PM 21.66 70.988 0.127 7.1 11.34 8.4
8/16/2021 9:45:00 PM 21.6 70.88 0.127 7.05 8.42 8.35
8/16/2021 10:00:00 PM 21.54 70.772 0.127 7.08 7.39 8.3
8/16/2021 10:15:00 PM 21.48 70.664 0.127 7.07 8.24 8.25
8/16/2021 10:30:00 PM 21.43 70.574 0.127 7.06 7.87 8.2
8/16/2021 10:45:00 PM 21.39 70.502 0.127 7 8.63 8.15
8/16/2021 11:00:00 PM 21.34 70.412 0.127 6.93 10.24 8.11
8/16/2021 11:15:00 PM 21.29 70.32201 0.127 6.97 9.84 8.06
8/16/2021 11:30:00 PM 21.26 70.268 0.127 6.93 10.8 8.03
8/16/2021 11:45:00 PM 21.21 70.17799 0.127 7.01 9.74 7.99
8/17/2021 12:00:00 AM 21.17 70.106 0.127 6.9 10.71 7.95
8/17/2021 12:15:00 AM 21.13 70.034 0.127 7 9.42 7.93
8/17/2021 12:30:00 AM 21.1 69.98 0.127 6.99 9.36 7.89
8/17/2021 12:45:00 AM 21.06 69.908 0.127 6.91 9.52 7.86
8/17/2021 1:00:00 AM 21.03 69.854 0.128 6.98 9.93 7.83
8/17/2021 1:15:00 AM 20.99 69.782 0.127 6.97 9.62 7.82
8/17/2021 1:30:00 AM 20.96 69.728 0.127 6.97 11.44 7.8
8/17/2021 1:45:00 AM 20.94 69.692 0.127 6.96 10.2 7.77
8/17/2021 2:00:00 AM 20.91 69.638 0.127 6.96 7.78 7.76
8/17/2021 2:15:00 AM 20.88 69.584 0.127 6.96 10.44 7.75
8/17/2021 2:30:00 AM 20.86 69.548 0.127 6.96 9.81 7.73
8/17/2021 2:45:00 AM 20.85 69.53 0.127 6.95 9.66 7.72
8/17/2021 3:00:00 AM 20.83 69.494 0.127 6.94 13.99 7.71
8/17/2021 3:15:00 AM 20.81 69.458 0.127 6.86 8.72 7.7
8/17/2021 3:30:00 AM 20.8 69.44 0.127 6.93 7.71 7.69
8/17/2021 3:45:00 AM 20.79 69.422 0.128 6.93 7.76 7.68
8/17/2021 4:00:00 AM 20.78 69.404 0.127 6.92 7.81 7.67
8/17/2021 4:15:00 AM 20.77 69.386 0.128 6.88 7.24 7.67
8/17/2021 4:30:00 AM 20.76 69.368 0.128 6.93 7.45 7.66
8/17/2021 4:45:00 AM 20.75 69.35 0.128 6.91 7.82 7.66
8/17/2021 5:00:00 AM 20.74 69.332 0.128 6.85 7.73 7.65
8/17/2021 5:15:00 AM 20.73 69.314 0.128 6.92 7.75 7.65
8/17/2021 5:30:00 AM 20.72 69.296 0.128 6.92 7.71 7.64
8/17/2021 5:45:00 AM 20.72 69.296 0.129 6.92 7.25 7.63
8/17/2021 6:00:00 AM 20.71 69.278 0.129 6.93 7.33 7.63
8/17/2021 6:15:00 AM 20.7 69.26 0.129 6.92 8.94 7.62
8/17/2021 6:30:00 AM 20.69 69.242 0.129 6.93 7.89 7.62
8/17/2021 6:45:00 AM 20.69 69.242 0.129 6.91 7.43 7.61
8/17/2021 7:00:00 AM 20.68 69.224 0.129 6.91 7.56 7.64
8/17/2021 7:15:00 AM 20.68 69.224 0.129 6.92 8.13 7.67
8/17/2021 7:30:00 AM 20.68 69.224 0.129 6.87 10.39 7.71
8/17/2021 7:45:00 AM 20.69 69.242 0.13 6.91 7.55 7.77
8/17/2021 8:00:00 AM 20.7 69.26 0.13 6.93 8.07 7.83
8/17/2021 8:15:00 AM 20.71 69.278 0.13 6.94 8.59 7.91
8/17/2021 8:30:00 AM 20.73 69.314 0.13 6.95 13.23 7.96
8/17/2021 8:45:00 AM 20.74 69.332 0.13 6.96 11.47 8.03
8/17/2021 9:00:00 AM 20.76 69.368 0.13 6.97 11.89 8.12
8/17/2021 9:15:00 AM 20.79 69.422 0.13 6.98 7.57 8.24
8/17/2021 9:30:00 AM 20.83 69.494 0.13 7 7.04 8.36
8/17/2021 9:45:00 AM 20.88 69.584 0.13 7.01 7.93 8.5
8/17/2021 10:00:00 AM 20.95 69.71 0.13 7.03 6.69 8.72
8/17/2021 10:15:00 AM 21.05 69.89 0.13 7 6.83 8.9
8/17/2021 10:30:00 AM 21.09 69.962 0.13 6.96 7.28 8.97
8/17/2021 10:45:00 AM 21.13 70.034 0.13 7.1 6.68 9.07
8/17/2021 11:00:00 AM 21.2 70.16 0.13 7.1 7.07 9.21
8/17/2021 11:15:00 AM 21.26 70.268 0.13 7.11 6.78 9.29
8/17/2021 11:30:00 AM 21.32 70.376 0.13 7.13 9.58 9.4
8/17/2021 11:45:00 AM 21.37 70.466 0.13 7.16 6.17 9.47
8/17/2021 12:00:00 PM 21.44 70.592 0.13 7.11 6.23 9.6
8/17/2021 12:15:00 PM 21.51 70.718 0.13 7.2 6.46 9.71
8/17/2021 12:30:00 PM 21.55 70.79 0.13 7.2 6.59 9.75
8/17/2021 12:45:00 PM 21.59 70.862 0.129 7.23 8.81 9.77
8/17/2021 1:00:00 PM 21.65 70.97 0.129 7.23 7.05 9.84
8/17/2021 1:15:00 PM 21.74 71.132 0.129 7.26 7.09 9.93
8/17/2021 1:30:00 PM 21.73 71.114 0.13 7.25 11.81 9.8
8/17/2021 1:45:00 PM 21.8 71.24 0.129 7.26 6.57 9.91
8/17/2021 2:00:00 PM 21.9 71.42 0.129 7.18 7.38 10.03
8/17/2021 2:15:00 PM 21.94 71.492 0.129 7.29 6.05 10.03
8/17/2021 2:30:00 PM 22.01 71.618 0.129 7.33 5.43 10.09
8/17/2021 2:45:00 PM 22.04 71.672 0.129 7.34 5.39 10.05
8/17/2021 3:00:00 PM 22.01 71.618 0.129 7.32 5.14 9.88
8/17/2021 3:15:00 PM 22 71.6 0.129 7.25 5.76 9.8
8/17/2021 3:30:00 PM 22.01 71.618 0.129 7.29 5.55 9.76
8/17/2021 3:45:00 PM 22.02 71.636 0.129 7.29 7.35 9.75
8/17/2021 4:00:00 PM 22.08 71.744 0.129 7.31 6.04 9.84
8/17/2021 4:15:00 PM 22.18 71.924 0.128 7.28 8.23 10
8/17/2021 4:30:00 PM 22.23 72.014 0.128 7.32 5.35 10.03
8/17/2021 4:45:00 PM 22.27 72.086 0.128 7.26 5.15 10.06
8/17/2021 5:00:00 PM 22.32 72.176 0.128 7.32 5.62 10.08
8/17/2021 5:15:00 PM 22.34 72.212 0.128 7.39 5.21 10.04
8/17/2021 5:30:00 PM 22.36 72.248 0.128 7.39 5.06 10
8/17/2021 5:45:00 PM 22.37 72.266 0.128 7.39 4.94 9.94
8/17/2021 6:00:00 PM 22.38 72.284 0.128 7.38 5.31 9.9
8/17/2021 6:15:00 PM 22.37 72.266 0.128 7.36 4.97 9.8
8/17/2021 6:30:00 PM 22.34 72.212 0.128 7.33 5.2 9.65
8/17/2021 6:45:00 PM 22.3 72.14 0.128 7.31 5.22 9.52
8/17/2021 7:00:00 PM 22.26 72.068 0.128 7.29 5.14 9.34
8/17/2021 7:15:00 PM 22.21 71.978 0.128 7.25 5.73 9.16
8/17/2021 7:30:00 PM 22.16 71.888 0.128 7.22 5.19 9
8/17/2021 7:45:00 PM 22.11 71.798 0.128 7.18 5.11 8.87
8/17/2021 8:00:00 PM 22.08 71.744 0.128 7.17 5.08 8.77
8/17/2021 8:15:00 PM 22.04 71.672 0.128 7.15 5.31 8.65
8/17/2021 8:30:00 PM 22.01 71.618 0.128 7.02 5.14 8.57
8/17/2021 8:45:00 PM 21.98 71.564 0.128 7.12 5.22 8.49
8/17/2021 9:00:00 PM 21.96 71.528 0.128 7.11 5.5 8.42
8/17/2021 9:15:00 PM 21.93 71.474 0.128 7.09 5.59 8.35
8/17/2021 9:30:00 PM 21.91 71.438 0.128 7.08 5.62 8.3
8/17/2021 9:45:00 PM 21.88 71.384 0.128 7.08 5.87 8.25
8/17/2021 10:00:00 PM 21.85 71.33 0.128 7.07 6.25 8.19
8/17/2021 10:15:00 PM 21.81 71.258 0.128 7.06 6.29 8.14
8/17/2021 10:30:00 PM 21.78 71.204 0.128 7.05 6.77 8.09
8/17/2021 10:45:00 PM 21.75 71.15 0.128 7.05 6.73 8.04
8/17/2021 11:00:00 PM 21.71 71.078 0.128 7.03 8.14 8
8/17/2021 11:15:00 PM 21.68 71.024 0.128 7.01 6.4 7.96
8/17/2021 11:30:00 PM 21.64 70.952 0.128 6.91 6.41 7.91
8/17/2021 11:45:00 PM 21.61 70.898 0.128 7.01 6.88 7.89
8/18/2021 12:00:00 AM 21.57 70.826 0.128 7 6.79 7.85
8/18/2021 12:15:00 AM 21.54 70.772 0.128 7 6.36 7.81
8/18/2021 12:30:00 AM 21.51 70.718 0.128 6.98 6.69 7.79
8/18/2021 12:45:00 AM 21.47 70.646 0.128 6.95 6.3 7.77
8/18/2021 1:00:00 AM 21.44 70.592 0.128 6.98 10.36 7.75
8/18/2021 1:15:00 AM 21.41 70.538 0.128 6.89 6.74 7.72
8/18/2021 1:30:00 AM 21.38 70.484 0.128 6.96 6.41 7.71
8/18/2021 1:45:00 AM 21.35 70.43 0.128 6.96 6.29 7.7
8/18/2021 2:00:00 AM 21.32 70.376 0.128 6.96 6.55 7.68
8/18/2021 2:15:00 AM 21.29 70.32201 0.128 6.92 6.52 7.67
8/18/2021 2:30:00 AM 21.27 70.286 0.127 6.95 7.33 7.67
8/18/2021 2:45:00 AM 21.25 70.25 0.128 6.95 7.08 7.65
8/18/2021 3:00:00 AM 21.23 70.214 0.127 6.95 6.63 7.66
8/18/2021 3:15:00 AM 21.21 70.17799 0.128 6.94 6.8 7.65
8/18/2021 3:30:00 AM 21.2 70.16 0.127 6.94 6.25 7.65
8/18/2021 3:45:00 AM 21.19 70.142 0.127 6.86 6.24 7.64
8/18/2021 4:00:00 AM 21.18 70.124 0.128 6.91 7.35 7.63
8/18/2021 4:15:00 AM 21.16 70.088 0.128 6.93 6.95 7.63
8/18/2021 4:30:00 AM 21.15 70.07 0.128 6.91 6.8 7.63
8/18/2021 4:45:00 AM 21.14 70.052 0.128 6.93 6.22 7.62
8/18/2021 5:00:00 AM 21.13 70.034 0.128 6.93 6.5 7.62
8/18/2021 5:15:00 AM 21.11 69.998 0.128 6.93 7.08 7.61
8/18/2021 5:30:00 AM 21.1 69.98 0.128 6.93 7.31 7.61
8/18/2021 5:45:00 AM 21.09 69.962 0.128 6.85 7.29 7.61
8/18/2021 6:00:00 AM 21.08 69.944 0.128 6.92 6.97 7.6
8/18/2021 6:15:00 AM 21.07 69.926 0.129 6.92 6.33 7.6
8/18/2021 6:30:00 AM 21.06 69.908 0.129 6.92 6.49 7.6
8/18/2021 6:45:00 AM 21.06 69.908 0.129 6.92 5.86 7.59
8/18/2021 7:00:00 AM 21.05 69.89 0.129 6.92 6.47 7.61
8/18/2021 7:15:00 AM 21.05 69.89 0.129 6.92 5.83 7.65
8/18/2021 7:30:00 AM 21.07 69.926 0.129 6.94 5.62 7.75
8/18/2021 7:45:00 AM 21.09 69.962 0.129 6.87 5.71 7.86
8/18/2021 8:00:00 AM 21.1 69.98 0.13 6.95 5.64 7.92
8/18/2021 8:15:00 AM 21.11 69.998 0.13 6.9 5.67 7.97
8/18/2021 8:30:00 AM 21.12 70.016 0.13 6.96 5.71 8
8/18/2021 8:45:00 AM 21.14 70.052 0.13 6.91 5.84 8.09
8/18/2021 9:00:00 AM 21.17 70.106 0.13 6.95 5.95 8.21
8/18/2021 9:15:00 AM 21.22 70.196 0.13 6.99 6.45 8.34
8/18/2021 9:30:00 AM 21.28 70.304 0.13 7.02 6.74 8.52
8/18/2021 9:45:00 AM 21.34 70.412 0.13 7.03 5.68 8.67
8/18/2021 10:00:00 AM 21.41 70.538 0.13 7.04 5.87 8.78
8/18/2021 10:15:00 AM 21.52 70.736 0.13 7.07 5.77 8.97
8/18/2021 10:30:00 AM 21.62 70.916 0.13 7.09 5.6 9.12
8/18/2021 10:45:00 AM 21.7 71.06 0.13 7.1 5.65 9.24
8/18/2021 11:00:00 AM 21.79 71.222 0.13 7.13 5.62 9.36
8/18/2021 11:15:00 AM 21.86 71.348 0.13 7.16 5.92 9.43
8/18/2021 11:30:00 AM 21.95 71.51 0.13 7.14 5.57 9.57
8/18/2021 11:45:00 AM 22.05 71.69 0.13 7.2 5.52 9.66
8/18/2021 12:00:00 PM 22.04 71.672 0.13 7.12 5.47 9.54
8/18/2021 12:15:00 PM 22.07 71.726 0.13 7.18 5.46 9.59
8/18/2021 12:30:00 PM 22.18 71.924 0.13 7.24 5.16 9.78
8/18/2021 12:45:00 PM 22.23 72.014 0.129 7.25 5.25 9.82
8/18/2021 1:00:00 PM 22.25 72.05 0.129 7.26 5.44 9.82
8/18/2021 1:15:00 PM 22.27 72.086 0.129 7.19 5.22 9.81
8/18/2021 1:30:00 PM 22.34 72.212 0.129 7.28 5.27 9.89
8/18/2021 1:45:00 PM 22.35 72.23 0.129 7.28 5.33 9.81
8/18/2021 2:00:00 PM 22.37 72.266 0.129 7.29 5.06 9.8
8/18/2021 2:15:00 PM 22.43 72.374 0.129 7.3 6.89 9.89
8/18/2021 2:30:00 PM 22.5 72.5 0.129 7.3 5.24 9.96
8/18/2021 2:45:00 PM 22.57 72.626 0.129 7.34 5.82 10.01
8/18/2021 3:00:00 PM 22.62 72.716 0.129 7.33 5.29 10.04
8/18/2021 3:15:00 PM 22.72 72.896 0.129 7.38 5.81 10.15
8/18/2021 3:30:00 PM 22.77 72.986 0.129 7.4 5.17 10.14
8/18/2021 3:45:00 PM 22.76 72.968 0.128 7.36 6.15 9.95
8/18/2021 4:00:00 PM 22.83 73.094 0.129 7.39 5 10.06
8/18/2021 4:15:00 PM 22.92 73.256 0.128 7.33 5.11 10.13
8/18/2021 4:30:00 PM 22.96 73.328 0.128 7.42 6.46 10.12
8/18/2021 4:45:00 PM 22.96 73.328 0.128 7.42 5.36 10.03
8/18/2021 5:00:00 PM 22.96 73.328 0.128 7.36 4.94 10
8/18/2021 5:15:00 PM 22.93 73.274 0.129 7.39 4.95 9.79
8/18/2021 5:30:00 PM 22.9 73.22 0.129 7.36 4.84 9.63
8/18/2021 5:45:00 PM 22.86 73.148 0.129 7.33 5.35 9.52
8/18/2021 6:00:00 PM 22.82 73.076 0.128 7.21 5.07 9.39
8/18/2021 6:15:00 PM 22.77 72.986 0.129 7.27 5.07 9.21
8/18/2021 6:30:00 PM 22.74 72.932 0.129 7.19 4.87 9.13
8/18/2021 6:45:00 PM 22.7 72.86 0.129 7.22 5.06 9.02
8/18/2021 7:00:00 PM 22.66 72.788 0.129 7.17 5.09 8.88
8/18/2021 7:15:00 PM 22.63 72.734 0.128 7.2 5.01 8.78
8/18/2021 7:30:00 PM 22.6 72.68 0.128 7.08 5.03 8.67
8/18/2021 7:45:00 PM 22.56 72.608 0.128 7.07 5.63 8.57
8/18/2021 8:00:00 PM 22.52 72.536 0.128 7.16 5.56 8.47
8/18/2021 8:15:00 PM 22.49 72.482 0.129 7.15 9.4 8.41
8/18/2021 8:30:00 PM 22.45 72.41 0.128 7.14 7.58 8.35
8/18/2021 8:45:00 PM 22.42 72.356 0.127 7.13 7.27 8.27
8/18/2021 9:00:00 PM 22.38 72.284 0.128 7.11 7.59 8.21
8/18/2021 9:15:00 PM 22.34 72.212 0.128 7.11 9.28 8.17
8/18/2021 9:30:00 PM 22.3 72.14 0.128 7.1 10.24 8.14
8/18/2021 9:45:00 PM 22.26 72.068 0.128 7 10.57 8.08
8/18/2021 10:00:00 PM 22.22 71.996 0.127 7.09 9.43 8.04
8/18/2021 10:15:00 PM 22.19 71.942 0.126 7.07 9.21 8
8/18/2021 10:30:00 PM 22.14 71.852 0.127 7.07 16.57 8
8/18/2021 10:45:00 PM 22.1 71.78 0.126 7 13 7.96
8/18/2021 11:00:00 PM 22.06 71.708 0.124 7.06 10.59 7.92
8/18/2021 11:15:00 PM 22.02 71.636 0.124 6.98 10.65 7.89
8/18/2021 11:30:00 PM 21.99 71.582 0.123 7.03 11.14 7.86
8/18/2021 11:45:00 PM 21.95 71.51 0.123 7 11.1 7.84
8/19/2021 12:00:00 AM 21.92 71.456 0.123 6.93 16.88 7.86
8/19/2021 12:15:00 AM 21.9 71.42 0.123 6.92 15.97 7.85
8/19/2021 12:30:00 AM 21.88 71.384 0.122 6.98 15.53 7.83
8/19/2021 12:45:00 AM 21.87 71.366 0.122 6.97 14.33 7.81
8/19/2021 1:00:00 AM 21.86 71.348 0.123 6.94 15.39 7.79
8/19/2021 1:15:00 AM 21.84 71.312 0.123 6.94 16.46 7.78
8/19/2021 1:30:00 AM 21.83 71.294 0.124 6.95 18.02 7.79
8/19/2021 1:45:00 AM 21.82 71.276 0.125 6.95 17.45 7.8
8/19/2021 2:00:00 AM 21.8 71.24 0.126 6.96 22.12 7.85
8/19/2021 2:15:00 AM 21.79 71.222 0.127 7 30.74 7.91
8/19/2021 2:30:00 AM 21.76 71.168 0.128 7.01 28.93 7.94
8/19/2021 2:45:00 AM 21.66 70.988 0.131 6.94 22.77 7.97
8/19/2021 3:00:00 AM 21.52 70.736 0.134 7 17.75 8.05
8/19/2021 3:15:00 AM 21.4 70.52 0.135 6.99 19.64 8.12
8/19/2021 3:30:00 AM 21.31 70.358 0.135 7 25.58 8.16
8/19/2021 3:45:00 AM 21.24 70.232 0.134 6.98 26.45 8.18
8/19/2021 4:00:00 AM 21.2 70.16 0.131 6.95 24.91 8.19
8/19/2021 4:15:00 AM 21.17 70.106 0.128 6.97 24.6 8.19
8/19/2021 4:30:00 AM 21.16 70.088 0.125 6.93 25.45 8.18
8/19/2021 4:45:00 AM 21.16 70.088 0.123 6.94 21.71 8.2
8/19/2021 5:00:00 AM 21.17 70.106 0.121 6.9 20.63 8.22
8/19/2021 5:15:00 AM 21.18 70.124 0.12 6.93 18.48 8.25
8/19/2021 5:30:00 AM 21.15 70.07 0.119 6.88 18.27 8.28
8/19/2021 5:45:00 AM 21.1 69.98 0.118 6.89 15.76 8.31
8/19/2021 6:00:00 AM 21.02 69.836 0.118 6.94 17.45 8.35
8/19/2021 6:15:00 AM 20.93 69.674 0.117 6.87 21.56 8.38
8/19/2021 6:30:00 AM 20.82 69.476 0.116 6.89 17.54 8.41
8/19/2021 6:45:00 AM 20.72 69.296 0.115 6.89 17.2 8.44
8/19/2021 7:00:00 AM 20.63 69.134 0.114 6.89 17.45 8.48
8/19/2021 7:15:00 AM 20.54 68.972 0.112 6.82 17.52 8.52
8/19/2021 7:30:00 AM 20.47 68.846 0.111 6.81 17.66 8.55
8/19/2021 7:45:00 AM 20.41 68.738 0.109 6.81 16.43 8.58
8/19/2021 8:00:00 AM 20.37 68.666 0.109 6.9 16.43 8.61
8/19/2021 8:15:00 AM 20.36 68.648 0.108 6.86 16.32 8.64
8/19/2021 8:30:00 AM 20.35 68.63 0.108 6.9 15.79 8.64
8/19/2021 8:45:00 AM 20.36 68.648 0.107 6.91 16.61 8.67
8/19/2021 9:00:00 AM 20.37 68.666 0.108 6.91 15.11 8.69
8/19/2021 9:15:00 AM 20.39 68.702 0.108 6.92 16.06 8.69
8/19/2021 9:30:00 AM 20.4 68.72 0.108 6.93 15.26 8.71
8/19/2021 9:45:00 AM 20.42 68.756 0.108 6.87 15.73 8.74
8/19/2021 10:00:00 AM 20.44 68.792 0.108 6.92 16.25 8.74
8/19/2021 10:15:00 AM 20.46 68.828 0.108 6.85 16.4 8.76
8/19/2021 10:30:00 AM 20.5 68.9 0.108 6.92 14.9 8.81
8/19/2021 10:45:00 AM 20.53 68.954 0.108 6.94 14.62 8.83
8/19/2021 11:00:00 AM 20.57 69.026 0.108 6.96 14.19 8.86
8/19/2021 11:15:00 AM 20.61 69.098 0.108 6.96 14.48 8.88
8/19/2021 11:30:00 AM 20.69 69.242 0.108 6.97 13.71 8.94
8/19/2021 11:45:00 AM 20.73 69.314 0.108 6.98 13.85 8.93
8/19/2021 12:00:00 PM 20.85 69.53 0.108 6.98 13.66 9.03
8/19/2021 12:15:00 PM 20.96 69.728 0.107 7 13.82 9.1
8/19/2021 12:30:00 PM 21.05 69.89 0.107 7.06 12.88 9.12
8/19/2021 12:45:00 PM 21.13 70.034 0.107 7.08 13.25 9.13
8/19/2021 1:00:00 PM 21.22 70.196 0.107 7.11 12.85 9.17
8/19/2021 1:15:00 PM 21.31 70.358 0.106 7.05 12.57 9.21
8/19/2021 1:30:00 PM 21.4 70.52 0.106 7.05 12.29 9.24
8/19/2021 1:45:00 PM 21.41 70.538 0.106 7.04 12.06 9.23
8/19/2021 2:00:00 PM 21.48 70.664 0.106 7.08 12.54 9.29
8/19/2021 2:15:00 PM 21.59 70.862 0.106 7.08 12.11 9.35
8/19/2021 2:30:00 PM 21.68 71.024 0.106 7.13 12.47 9.37
8/19/2021 2:45:00 PM 21.76 71.168 0.106 7.19 12.41 9.4
8/19/2021 3:00:00 PM 21.9 71.42 0.106 7.19 11.97 9.46
8/19/2021 3:15:00 PM 22.06 71.708 0.105 7.19 11.94 9.5
8/19/2021 3:30:00 PM 22.11 71.798 0.106 7.18 11.49 9.48
8/19/2021 3:45:00 PM 22.17 71.906 0.105 7.22 11.46 9.48
8/19/2021 4:00:00 PM 22.23 72.014 0.106 7.21 11.18 9.43
8/19/2021 4:15:00 PM 22.22 71.996 0.106 7.2 11.53 9.37
8/19/2021 4:30:00 PM 22.26 72.068 0.106 7.18 10.96 9.38
8/19/2021 4:45:00 PM 22.27 72.086 0.106 7.13 10.64 9.35
8/19/2021 5:00:00 PM 22.24 72.032 0.106 7.13 11.76 9.27
8/19/2021 5:15:00 PM 22.29 72.122 0.105 7.1 11.68 9.28
8/19/2021 5:30:00 PM 22.28 72.104 0.106 7.16 10.87 9.22
8/19/2021 5:45:00 PM 22.31 72.158 0.106 7.16 10.53 9.2
8/19/2021 6:00:00 PM 22.31 72.158 0.106 7.14 10.46 9.15
8/19/2021 6:15:00 PM 22.29 72.122 0.106 7.05 10.37 9.06
8/19/2021 6:30:00 PM 22.27 72.086 0.106 7.11 11.1 9
8/19/2021 6:45:00 PM 22.27 72.086 0.106 7.02 10.08 8.96
8/19/2021 7:00:00 PM 22.24 72.032 0.106 7.13 10.11 8.9
8/19/2021 7:15:00 PM 22.21 71.978 0.106 7.08 9.95 8.81
8/19/2021 7:30:00 PM 22.18 71.924 0.107 6.96 10.03 8.74
8/19/2021 7:45:00 PM 22.14 71.852 0.106 7.07 10.46 8.67
8/19/2021 8:00:00 PM 22.11 71.798 0.106 7.06 10.42 8.6
8/19/2021 8:15:00 PM 22.07 71.726 0.106 7.06 10.73 8.55
8/19/2021 8:30:00 PM 22.04 71.672 0.106 7.03 11.45 8.5
8/19/2021 8:45:00 PM 22 71.6 0.107 7.02 11.61 8.46
8/19/2021 9:00:00 PM 21.96 71.528 0.106 6.93 10.59 8.42
8/19/2021 9:15:00 PM 21.92 71.456 0.106 6.93 8.8 8.4
8/19/2021 9:30:00 PM 21.88 71.384 0.106 6.84 9.96 8.37
8/19/2021 9:45:00 PM 21.83 71.294 0.106 6.89 10.21 8.35
8/19/2021 10:00:00 PM 21.79 71.222 0.106 6.88 10.52 8.33
8/19/2021 10:15:00 PM 21.75 71.15 0.106 6.88 10.43 8.32
8/19/2021 10:30:00 PM 21.7 71.06 0.106 6.85 10.41 8.3
8/19/2021 10:45:00 PM 21.65 70.97 0.106 6.96 10.09 8.29
8/19/2021 11:00:00 PM 21.6 70.88 0.106 6.94 10.36 8.28
8/19/2021 11:15:00 PM 21.55 70.79 0.106 6.88 10.53 8.27
8/19/2021 11:30:00 PM 21.5 70.7 0.105 6.82 10.19 8.26
8/19/2021 11:45:00 PM 21.44 70.592 0.105 6.87 9.92 8.25
8/20/2021 12:00:00 AM 21.39 70.502 0.105 6.95 9.69 8.24
8/20/2021 12:15:00 AM 21.33 70.394 0.105 6.94 9.92 8.24
8/20/2021 12:30:00 AM 21.27 70.286 0.105 6.94 9.72 8.23
8/20/2021 12:45:00 AM 21.21 70.17799 0.105 6.85 10.44 8.23
8/20/2021 1:00:00 AM 21.15 70.07 0.105 6.92 9.88 8.24
8/20/2021 1:15:00 AM 21.09 69.962 0.105 6.84 9.58 8.25
8/20/2021 1:30:00 AM 21.02 69.836 0.105 6.83 9.57 8.25
8/20/2021 1:45:00 AM 20.96 69.728 0.105 6.87 9.78 8.26
8/20/2021 2:00:00 AM 20.89 69.602 0.105 6.82 9.45 8.27
8/20/2021 2:15:00 AM 20.83 69.494 0.105 6.92 9.7 8.27
8/20/2021 2:30:00 AM 20.77 69.386 0.105 6.87 9.88 8.27
8/20/2021 2:45:00 AM 20.71 69.278 0.105 6.92 9.84 8.28
8/20/2021 3:00:00 AM 20.66 69.188 0.105 6.86 9.91 8.29
8/20/2021 3:15:00 AM 20.6 69.08 0.105 6.92 9.69 8.29
8/20/2021 3:30:00 AM 20.55 68.99 0.105 6.85 9.95 8.3
8/20/2021 3:45:00 AM 20.49 68.882 0.105 6.9 9.57 8.31
8/20/2021 4:00:00 AM 20.44 68.792 0.105 6.9 9.95 8.32
8/20/2021 4:15:00 AM 20.39 68.702 0.105 6.91 9.45 8.32
8/20/2021 4:30:00 AM 20.34 68.612 0.106 6.89 9.74 8.33
8/20/2021 4:45:00 AM 20.29 68.522 0.105 6.84 8.95 8.34
8/20/2021 5:00:00 AM 20.24 68.432 0.105 6.9 9.25 8.34
8/20/2021 5:15:00 AM 20.19 68.342 0.105 6.85 9.34 8.35
8/20/2021 5:30:00 AM 20.14 68.252 0.105 6.9 9.27 8.35
8/20/2021 5:45:00 AM 20.1 68.18 0.106 6.88 9.21 8.36
8/20/2021 6:00:00 AM 20.05 68.09 0.105 6.94 9.44 8.36
8/20/2021 6:15:00 AM 20 68 0.106 6.88 9.62 8.38
8/20/2021 6:30:00 AM 19.95 67.91 0.106 6.88 8.91 8.39
8/20/2021 6:45:00 AM 19.91 67.838 0.106 6.8 8.91 8.4
8/20/2021 7:00:00 AM 19.88 67.784 0.106 6.88 9.07 8.43
8/20/2021 7:15:00 AM 19.85 67.73 0.106 6.88 9.16 8.45
8/20/2021 7:30:00 AM 19.83 67.694 0.106 6.89 9.08 8.47
8/20/2021 7:45:00 AM 19.82 67.676 0.106 6.9 8.85 8.52
8/20/2021 8:00:00 AM 19.81 67.658 0.106 6.89 8.81 8.59
8/20/2021 8:15:00 AM 19.82 67.676 0.106 6.92 8.62 8.66
8/20/2021 8:30:00 AM 19.82 67.676 0.106 6.94 8.16 8.71
8/20/2021 8:45:00 AM 19.81 67.658 0.106 6.86 8.11 8.72
8/20/2021 9:00:00 AM 19.82 67.676 0.106 6.94 11.11 8.77
8/20/2021 9:15:00 AM 19.83 67.694 0.105 6.95 7.51 8.85
8/20/2021 9:30:00 AM 19.88 67.784 0.106 6.95 7.42 8.97
8/20/2021 9:45:00 AM 19.99 67.982 0.105 6.96 7.38 9.12
8/20/2021 10:00:00 AM 20.02 68.036 0.106 6.98 7.59 9.18
8/20/2021 10:15:00 AM 20.03 68.054 0.106 7 7.04 9.22
8/20/2021 10:30:00 AM 20.1 68.18 0.106 7.03 6.83 9.32
8/20/2021 10:45:00 AM 20.15 68.27 0.106 7.03 6.91 9.41
8/20/2021 11:00:00 AM 20.23 68.414 0.105 7 6.87 9.52
8/20/2021 11:15:00 AM 20.29 68.522 0.105 7.08 6.83 9.58
8/20/2021 11:30:00 AM 20.33 68.594 0.106 7.1 6.88 9.63
8/20/2021 11:45:00 AM 20.36 68.648 0.105 7.11 6.82 9.64
8/20/2021 12:00:00 PM 20.39 68.702 0.105 7.1 7.17 9.65
8/20/2021 12:15:00 PM 20.43 68.774 0.105 7.09 6.79 9.68
8/20/2021 12:30:00 PM 20.5 68.9 0.106 7.1 7.18 9.74
8/20/2021 12:45:00 PM 20.52 68.936 0.106 7.12 8.36 9.73
8/20/2021 1:00:00 PM 20.59 69.062 0.106 7.13 6.6 9.81
8/20/2021 1:15:00 PM 20.68 69.224 0.105 7.17 7 9.89
8/20/2021 1:30:00 PM 20.77 69.386 0.105 7.15 6.8 9.94
8/20/2021 1:45:00 PM 20.75 69.35 0.105 7.16 6.44 9.8
8/20/2021 2:00:00 PM 20.73 69.314 0.105 7.19 9.97 9.64
8/20/2021 2:15:00 PM 20.72 69.296 0.105 7.17 16.38 9.57
8/20/2021 2:30:00 PM 20.75 69.35 0.105 7.19 9.64 9.6
8/20/2021 2:45:00 PM 20.78 69.404 0.105 7.19 7.39 9.6
8/20/2021 3:00:00 PM 20.8 69.44 0.104 7.19 7.26 9.59
8/20/2021 3:15:00 PM 20.83 69.494 0.104 7.2 6.93 9.62
8/20/2021 3:30:00 PM 20.83 69.494 0.105 7.19 7.51 9.62
8/20/2021 3:45:00 PM 20.83 69.494 0.105 7.17 9.21 9.56
8/20/2021 4:00:00 PM 20.82 69.476 0.106 7.16 10.23 9.49
8/20/2021 4:15:00 PM 20.83 69.494 0.107 7.1 10.6 9.48
8/20/2021 4:30:00 PM 20.87 69.566 0.107 7.16 11.43 9.57
8/20/2021 4:45:00 PM 20.72 69.296 0.12 7.19 13.06 9.54
8/20/2021 5:00:00 PM 20.58 69.044 0.126 7.21 16.2 9.45
8/20/2021 5:15:00 PM 20.54 68.972 0.126 7.19 17.05 9.4
8/20/2021 5:30:00 PM 20.56 69.008 0.124 7.17 18.74 9.37
8/20/2021 5:45:00 PM 20.58 69.044 0.122 7.16 19.24 9.3
8/20/2021 6:00:00 PM 20.6 69.08 0.119 7.13 17.36 9.22
8/20/2021 6:15:00 PM 20.62 69.116 0.118 7.09 14.97 9.16
8/20/2021 6:30:00 PM 20.63 69.134 0.117 7.08 14.03 9.11
8/20/2021 6:45:00 PM 20.64 69.152 0.116 6.99 13.3 9.07
8/20/2021 7:00:00 PM 20.65 69.17 0.115 7.05 13.03 9.02
8/20/2021 7:15:00 PM 20.65 69.17 0.114 7.06 11.07 8.97
8/20/2021 7:30:00 PM 20.65 69.17 0.113 6.99 10.62 8.93
8/20/2021 7:45:00 PM 20.65 69.17 0.112 7 10.42 8.89
8/20/2021 8:00:00 PM 20.65 69.17 0.112 6.96 11.1 8.84
8/20/2021 8:15:00 PM 20.65 69.17 0.112 6.96 9.96 8.8
8/20/2021 8:30:00 PM 20.65 69.17 0.111 6.93 10.14 8.75
8/20/2021 8:45:00 PM 20.65 69.17 0.111 6.96 10.17 8.72
8/20/2021 9:00:00 PM 20.66 69.188 0.11 7.01 9.48 8.68
8/20/2021 9:15:00 PM 20.67 69.206 0.11 7 9.37 8.65
8/20/2021 9:30:00 PM 20.67 69.206 0.11 6.87 11.25 8.62
8/20/2021 9:45:00 PM 20.68 69.224 0.11 6.98 10.11 8.59
8/20/2021 10:00:00 PM 20.67 69.206 0.109 6.99 11.91 8.57
8/20/2021 10:15:00 PM 20.67 69.206 0.109 7.02 10.5 8.54
8/20/2021 10:30:00 PM 20.66 69.188 0.109 6.77 9.77 8.52
8/20/2021 10:45:00 PM 20.64 69.152 0.109 6.76 9.41 8.5
8/20/2021 11:00:00 PM 20.62 69.116 0.109 6.97 8.69 8.48
8/20/2021 11:15:00 PM 20.6 69.08 0.108 6.93 9.8 8.47
8/20/2021 11:30:00 PM 20.58 69.044 0.109 6.94 9.73 8.45
8/20/2021 11:45:00 PM 20.55 68.99 0.109 6.94 9.4 8.44
8/21/2021 12:00:00 AM 20.52 68.936 0.108 6.94 13 8.43
8/21/2021 12:15:00 AM 20.49 68.882 0.108 6.93 11.02 8.42
8/21/2021 12:30:00 AM 20.46 68.828 0.108 6.91 10.8 8.42
8/21/2021 12:45:00 AM 20.43 68.774 0.108 6.89 10.04 8.41
8/21/2021 1:00:00 AM 20.39 68.702 0.108 6.85 10.23 8.41
8/21/2021 1:15:00 AM 20.35 68.63 0.108 6.92 11.55 8.41
8/21/2021 1:30:00 AM 20.31 68.558 0.108 6.92 9.94 8.41
8/21/2021 1:45:00 AM 20.28 68.504 0.108 6.88 10.01 8.41
8/21/2021 2:00:00 AM 20.24 68.432 0.108 6.9 9.72 8.41
8/21/2021 2:15:00 AM 20.21 68.378 0.107 6.9 9.44 8.41
8/21/2021 2:30:00 AM 20.17 68.306 0.107 6.89 10.28 8.41
8/21/2021 2:45:00 AM 20.13 68.234 0.107 6.86 9.23 8.41
8/21/2021 3:00:00 AM 20.1 68.18 0.107 6.83 8.8 8.41
8/21/2021 3:15:00 AM 20.07 68.126 0.107 6.87 8.84 8.41
8/21/2021 3:30:00 AM 20.03 68.054 0.108 6.87 9.55 8.41
8/21/2021 3:45:00 AM 20.01 68.018 0.107 6.9 8.74 8.42
8/21/2021 4:00:00 AM 19.98 67.964 0.107 6.87 8.52 8.42
8/21/2021 4:15:00 AM 19.95 67.91 0.107 6.89 8.58 8.43
8/21/2021 4:30:00 AM 19.93 67.874 0.107 6.89 8.09 8.43
8/21/2021 4:45:00 AM 19.91 67.838 0.107 6.87 8.71 8.43
8/21/2021 5:00:00 AM 19.89 67.802 0.107 6.88 8.41 8.43
8/21/2021 5:15:00 AM 19.87 67.766 0.107 6.85 8.48 8.43
8/21/2021 5:30:00 AM 19.85 67.73 0.107 6.87 8.4 8.43
8/21/2021 5:45:00 AM 19.83 67.694 0.106 6.88 8.65 8.44
8/21/2021 6:00:00 AM 19.81 67.658 0.107 6.88 8.88 8.44
8/21/2021 6:15:00 AM 19.79 67.622 0.107 6.84 8.67 8.44
8/21/2021 6:30:00 AM 19.77 67.586 0.107 6.86 8.69 8.45
8/21/2021 6:45:00 AM 19.75 67.55 0.107 6.87 8.89 8.45
8/21/2021 7:00:00 AM 19.74 67.532 0.107 6.88 8.18 8.46
8/21/2021 7:15:00 AM 19.73 67.514 0.107 6.86 8.47 8.47
8/21/2021 7:30:00 AM 19.72 67.496 0.106 6.87 8.52 8.49
8/21/2021 7:45:00 AM 19.71 67.478 0.107 6.84 8.5 8.51
8/21/2021 8:00:00 AM 19.72 67.496 0.106 6.83 8.02 8.58
8/21/2021 8:15:00 AM 19.73 67.514 0.107 6.9 7.7 8.63
8/21/2021 8:30:00 AM 19.73 67.514 0.107 6.88 7.69 8.65
8/21/2021 8:45:00 AM 19.73 67.514 0.107 6.88 7.83 8.67
8/21/2021 9:00:00 AM 19.73 67.514 0.107 6.9 7.29 8.71
8/21/2021 9:15:00 AM 19.75 67.55 0.107 6.91 7.14 8.77
8/21/2021 9:30:00 AM 19.76 67.568 0.107 6.89 7.04 8.82
8/21/2021 9:45:00 AM 19.76 67.568 0.107 6.94 7.5 8.86
8/21/2021 10:00:00 AM 19.78 67.604 0.107 6.95 6.98 8.94
8/21/2021 10:15:00 AM 19.8 67.64 0.107 6.93 6.83 9.01
8/21/2021 10:30:00 AM 19.82 67.676 0.107 6.95 6.88 9.05
8/21/2021 10:45:00 AM 19.84 67.712 0.107 6.95 6.8 9.12
8/21/2021 11:00:00 AM 19.88 67.784 0.107 6.99 6.62 9.22
8/21/2021 11:15:00 AM 19.91 67.838 0.108 6.98 6.76 9.29
8/21/2021 11:30:00 AM 19.92 67.856 0.107 7.01 6.76 9.25
8/21/2021 11:45:00 AM 19.98 67.964 0.107 7.03 6.54 9.4
8/21/2021 12:00:00 PM 20.09 68.162 0.107 6.96 6.5 9.55
8/21/2021 12:15:00 PM 20.18 68.324 0.107 7.06 6.4 9.65
8/21/2021 12:30:00 PM 20.29 68.522 0.107 7.04 6.32 9.75
8/21/2021 12:45:00 PM 20.39 68.702 0.107 7.08 6.09 9.81
8/21/2021 1:00:00 PM 20.58 69.044 0.108 7.07 6.22 9.89
8/21/2021 1:15:00 PM 20.69 69.242 0.107 7.1 6.03 9.92
8/21/2021 1:30:00 PM 20.78 69.404 0.107 7.14 6.37 9.97
8/21/2021 1:45:00 PM 20.88 69.584 0.108 7.13 6.18 10.01
8/21/2021 2:00:00 PM 21.03 69.854 0.107 7.14 6.28 10.11
8/21/2021 2:15:00 PM 21.22 70.196 0.107 7.17 5.88 10.13
8/21/2021 2:30:00 PM 21.3 70.34 0.108 7.13 5.83 10.13
8/21/2021 2:45:00 PM 21.4 70.52 0.108 7.2 5.88 10.18
8/21/2021 3:00:00 PM 21.57 70.826 0.107 7.25 6.13 10.24
8/21/2021 3:15:00 PM 21.79 71.222 0.108 7.27 5.93 10.25
8/21/2021 3:30:00 PM 21.89 71.402 0.108 7.26 5.68 10.24
8/21/2021 3:45:00 PM 22.01 71.618 0.107 7.25 5.96 10.27
8/21/2021 4:00:00 PM 22.11 71.798 0.107 7.29 5.96 10.24
8/21/2021 4:15:00 PM 22.18 71.924 0.107 7.32 6.1 10.21
8/21/2021 4:30:00 PM 22.2 71.96 0.107 7.28 6.14 10.15
8/21/2021 4:45:00 PM 22.14 71.852 0.108 7.24 6.54 10.02
8/21/2021 5:00:00 PM 22.15 71.87 0.108 7.26 6.53 9.96
8/21/2021 5:15:00 PM 22.2 71.96 0.107 7.28 6.42 9.92
8/21/2021 5:30:00 PM 22.17 71.906 0.108 7.26 6.45 9.84
8/21/2021 5:45:00 PM 22.11 71.798 0.108 7.25 6.46 9.77
8/21/2021 6:00:00 PM 22.09 71.762 0.108 7.25 6.44 9.72
8/21/2021 6:15:00 PM 22.09 71.762 0.108 7.2 7.49 9.65
8/21/2021 6:30:00 PM 22.09 71.762 0.108 7.17 7.06 9.57
8/21/2021 6:45:00 PM 22.06 71.708 0.108 7.19 6.79 9.47
8/21/2021 7:00:00 PM 22.04 71.672 0.108 7.11 6.54 9.36
8/21/2021 7:15:00 PM 22.03 71.654 0.108 7.11 6.71 9.26
8/21/2021 7:30:00 PM 22.02 71.636 0.108 7.12 6.59 9.16
8/21/2021 7:45:00 PM 22.01 71.618 0.108 7.1 6.63 9.05
8/21/2021 8:00:00 PM 21.99 71.582 0.109 7.09 6.51 8.93
8/21/2021 8:15:00 PM 21.97 71.546 0.109 7.06 6.14 8.83
8/21/2021 8:30:00 PM 21.94 71.492 0.109 7 6.45 8.74
8/21/2021 8:45:00 PM 21.92 71.456 0.109 7.02 7.37 8.66
8/21/2021 9:00:00 PM 21.9 71.42 0.109 7 7.4 8.59
8/21/2021 9:15:00 PM 21.87 71.366 0.109 6.96 6.96 8.52
8/21/2021 9:30:00 PM 21.85 71.33 0.109 6.98 7.04 8.46
8/21/2021 9:45:00 PM 21.82 71.276 0.109 6.92 7.48 8.41
8/21/2021 10:00:00 PM 21.8 71.24 0.109 6.95 7.11 8.37
8/21/2021 10:15:00 PM 21.78 71.204 0.109 6.98 8.23 8.33
8/21/2021 10:30:00 PM 21.75 71.15 0.109 6.93 7.39 8.3
8/21/2021 10:45:00 PM 21.73 71.114 0.11 6.95 7.3 8.28
8/21/2021 11:00:00 PM 21.71 71.078 0.11 6.92 7.28 8.25
8/21/2021 11:15:00 PM 21.69 71.042 0.11 6.92 7.3 8.23
8/21/2021 11:30:00 PM 21.68 71.024 0.11 6.88 7.4 8.2
8/21/2021 11:45:00 PM 21.66 70.988 0.11 6.87 7.39 8.18
8/22/2021 12:00:00 AM 21.63 70.934 0.11 6.88 8.47 8.15
8/22/2021 12:15:00 AM 21.61 70.898 0.11 6.85 7.59 8.13
8/22/2021 12:30:00 AM 21.58 70.844 0.11 6.87 7.94 8.11
8/22/2021 12:45:00 AM 21.55 70.79 0.11 6.78 8.72 8.09
8/22/2021 1:00:00 AM 21.52 70.736 0.11 6.85 8.17 8.07
8/22/2021 1:15:00 AM 21.48 70.664 0.11 6.86 7.99 8.05
8/22/2021 1:30:00 AM 21.44 70.592 0.111 6.78 8.35 8.04
8/22/2021 1:45:00 AM 21.4 70.52 0.111 6.85 9.49 8.03
8/22/2021 2:00:00 AM 21.37 70.466 0.111 6.84 8.4 8.02
8/22/2021 2:15:00 AM 21.33 70.394 0.111 6.83 8.77 8.01
8/22/2021 2:30:00 AM 21.29 70.32201 0.111 6.85 8.51 8
8/22/2021 2:45:00 AM 21.25 70.25 0.111 6.83 9.02 8
8/22/2021 3:00:00 AM 21.21 70.17799 0.111 6.84 8.29 8
8/22/2021 3:15:00 AM 21.16 70.088 0.111 6.73 8.57 8
8/22/2021 3:30:00 AM 21.12 70.016 0.111 6.82 8.5 8
8/22/2021 3:45:00 AM 21.08 69.944 0.111 6.83 8.59 8
8/22/2021 4:00:00 AM 21.03 69.854 0.111 6.82 8.85 8.01
8/22/2021 4:15:00 AM 20.98 69.764 0.111 6.75 8.91 8.01
8/22/2021 4:30:00 AM 20.93 69.674 0.111 6.82 8.5 8.02
8/22/2021 4:45:00 AM 20.88 69.584 0.111 6.81 8.92 8.03
8/22/2021 5:00:00 AM 20.83 69.494 0.111 6.81 8.55 8.03
8/22/2021 5:15:00 AM 20.79 69.422 0.111 6.81 9.12 8.04
8/22/2021 5:30:00 AM 20.75 69.35 0.112 6.81 8.38 8.04
8/22/2021 5:45:00 AM 20.7 69.26 0.112 6.83 8.7 8.05
8/22/2021 6:00:00 AM 20.65 69.17 0.112 6.8 8.12 8.06
8/22/2021 6:15:00 AM 20.6 69.08 0.112 6.81 8.04 8.07
8/22/2021 6:30:00 AM 20.56 69.008 0.112 6.81 8.25 8.08
8/22/2021 6:45:00 AM 20.52 68.936 0.112 6.81 8.48 8.11
8/22/2021 7:00:00 AM 20.48 68.864 0.112 6.83 7.89 8.15
8/22/2021 7:15:00 AM 20.45 68.81 0.112 6.82 7.89 8.2
8/22/2021 7:30:00 AM 20.42 68.756 0.112 6.82 8.05 8.25
8/22/2021 7:45:00 AM 20.41 68.738 0.112 6.82 8.04 8.36
8/22/2021 8:00:00 AM 20.44 68.792 0.112 6.85 8.73 8.52
8/22/2021 8:15:00 AM 20.45 68.81 0.112 6.86 8.24 8.61
8/22/2021 8:30:00 AM 20.52 68.936 0.112 6.9 7.63 8.77
8/22/2021 8:45:00 AM 20.54 68.972 0.112 6.88 9.98 8.86
8/22/2021 9:00:00 AM 20.6 69.08 0.112 6.89 6.68 8.94
8/22/2021 9:15:00 AM 20.56 69.008 0.112 6.92 6.41 8.98
8/22/2021 9:30:00 AM 20.59 69.062 0.112 6.94 6.28 9.09
8/22/2021 9:45:00 AM 20.62 69.116 0.112 6.96 6.2 9.19
8/22/2021 10:00:00 AM 20.63 69.134 0.112 6.97 6.15 9.26
8/22/2021 10:15:00 AM 20.68 69.224 0.112 6.99 6.14 9.38
8/22/2021 10:30:00 AM 20.74 69.332 0.112 7 6.13 9.5
8/22/2021 10:45:00 AM 20.88 69.584 0.112 7.08 5.9 9.66
8/22/2021 11:00:00 AM 20.95 69.71 0.112 7.1 5.73 9.75
8/22/2021 11:15:00 AM 20.97 69.746 0.112 7.11 5.79 9.8
8/22/2021 11:30:00 AM 21 69.8 0.112 7.12 5.9 9.83
8/22/2021 11:45:00 AM 20.99 69.782 0.112 7.14 5.77 9.8
8/22/2021 12:00:00 PM 20.99 69.782 0.112 7.12 5.7 9.75
8/22/2021 12:15:00 PM 21.01 69.818 0.112 7.12 6.34 9.76
8/22/2021 12:30:00 PM 21.03 69.854 0.112 7.13 6.55 9.79
8/22/2021 12:45:00 PM 21.07 69.926 0.112 7.14 5.98 9.86
8/22/2021 1:00:00 PM 21.1 69.98 0.112 7.14 5.61 9.89
8/22/2021 1:15:00 PM 21.12 70.016 0.112 7.11 6.34 9.91
8/22/2021 1:30:00 PM 21.13 70.034 0.112 7.09 6.59 9.92
8/22/2021 1:45:00 PM 21.15 70.07 0.112 7.15 6.98 9.96
8/22/2021 2:00:00 PM 21.22 70.196 0.112 7.18 7.17 10.05
8/22/2021 2:15:00 PM 21.32 70.376 0.112 7.21 7.16 10.15
8/22/2021 2:30:00 PM 21.41 70.538 0.112 7.25 5.71 10.24
8/22/2021 2:45:00 PM 21.5 70.7 0.112 7.26 5.9 10.29
8/22/2021 3:00:00 PM 21.49 70.682 0.112 7.14 6.01 10.11
8/22/2021 3:15:00 PM 21.55 70.79 0.112 7.24 5.95 10.15
8/22/2021 3:30:00 PM 21.61 70.898 0.112 7.24 6.77 10.22
8/22/2021 3:45:00 PM 21.74 71.132 0.112 7.29 5.98 10.3
8/22/2021 4:00:00 PM 21.79 71.222 0.112 7.3 5.67 10.27
8/22/2021 4:15:00 PM 21.85 71.33 0.112 7.31 5.89 10.27
8/22/2021 4:30:00 PM 21.88 71.384 0.112 7.31 5.72 10.24
8/22/2021 4:45:00 PM 21.87 71.366 0.112 7.28 6.14 10.11
8/22/2021 5:00:00 PM 21.85 71.33 0.112 7.26 6.11 9.99
8/22/2021 5:15:00 PM 21.83 71.294 0.112 7.24 6.13 9.9
8/22/2021 5:30:00 PM 21.8 71.24 0.112 7.2 6.14 9.7
8/22/2021 5:45:00 PM 21.79 71.222 0.112 7.08 6.24 9.65
8/22/2021 6:00:00 PM 21.75 71.15 0.112 7.15 6.19 9.56
8/22/2021 6:15:00 PM 21.73 71.114 0.112 7.09 5.96 9.48
8/22/2021 6:30:00 PM 21.68 71.024 0.112 7.11 5.99 9.35
8/22/2021 6:45:00 PM 21.64 70.952 0.112 7.08 5.89 9.23
8/22/2021 7:00:00 PM 21.6 70.88 0.112 7.06 6.14 9.09
8/22/2021 7:15:00 PM 21.57 70.826 0.112 7.04 6.15 9.01
8/22/2021 7:30:00 PM 21.54 70.772 0.112 7 6.03 8.93
8/22/2021 7:45:00 PM 21.51 70.718 0.112 6.96 6.53 8.85
8/22/2021 8:00:00 PM 21.48 70.664 0.113 6.9 6.59 8.76
8/22/2021 8:15:00 PM 21.46 70.628 0.112 6.96 7 8.69
8/22/2021 8:30:00 PM 21.45 70.61 0.112 6.91 8.18 8.62
8/22/2021 8:45:00 PM 21.44 70.592 0.112 6.94 9.37 8.58
8/22/2021 9:00:00 PM 21.43 70.574 0.112 6.94 9.63 8.53
8/22/2021 9:15:00 PM 21.42 70.556 0.112 6.9 9.86 8.49
8/22/2021 9:30:00 PM 21.42 70.556 0.112 6.96 10.76 8.46
8/22/2021 9:45:00 PM 21.41 70.538 0.112 6.96 11.39 8.43
8/22/2021 10:00:00 PM 21.4 70.52 0.114 6.93 32.63 8.44
8/22/2021 10:15:00 PM 21.38 70.484 0.115 6.93 137.47 8.5
8/22/2021 10:30:00 PM 21.35 70.43 0.112 6.94 47.75 8.45
8/22/2021 10:45:00 PM 21.34 70.412 0.124 7 36.03 8.43
8/22/2021 11:00:00 PM 21.27 70.286 0.122 7.01 98.23 8.51
8/22/2021 11:15:00 PM 20.78 69.404 0.117 7.04 253.5 8.74
8/22/2021 11:30:00 PM 20.39 68.702 0.11 7.14 359.59 9.06
8/22/2021 11:45:00 PM 20.45 68.81 0.089 7.02 290.71 9.05
8/23/2021 12:00:00 AM 20.59 69.062 0.085 7.04 199.2 8.92
8/23/2021 12:15:00 AM 20.66 69.188 0.084 7.03 141.66 8.8
8/23/2021 12:30:00 AM 20.62 69.116 0.087 7.03 169.54 8.79
8/23/2021 12:45:00 AM 20.57 69.026 0.084 7.01 231.23 8.8
8/23/2021 1:00:00 AM 20.56 69.008 0.07 6.87 181.31 8.75
8/23/2021 1:15:00 AM 20.48 68.864 0.079 6.88 183.54 8.72
8/23/2021 1:30:00 AM 20.46 68.828 0.076 6.9 204.1 8.72
8/23/2021 1:45:00 AM 20.46 68.828 0.074 6.9 208.66 8.75
8/23/2021 2:00:00 AM 20.46 68.828 0.073 6.79 186.18 8.77
8/23/2021 2:15:00 AM 20.45 68.81 0.072 6.84 168.75 8.77
8/23/2021 2:30:00 AM 20.42 68.756 0.072 6.82 130.31 8.78
8/23/2021 2:45:00 AM 20.4 68.72 0.072 6.82 112.07 8.77
8/23/2021 3:00:00 AM 20.39 68.702 0.072 6.8 94.57 8.76
8/23/2021 3:15:00 AM 20.37 68.666 0.072 6.81 83.78 8.76
8/23/2021 3:30:00 AM 20.35 68.63 0.072 6.8 75.14 8.75
8/23/2021 3:45:00 AM 20.34 68.612 0.072 6.78 73.82 8.75
8/23/2021 4:00:00 AM 20.32 68.576 0.072 6.77 72.12 8.74
8/23/2021 4:15:00 AM 20.31 68.558 0.073 6.78 59.99 8.74
8/23/2021 4:30:00 AM 20.29 68.522 0.072 6.75 49.61 8.74
8/23/2021 4:45:00 AM 20.28 68.504 0.072 6.81 51.87 8.74
8/23/2021 5:00:00 AM 20.26 68.468 0.073 6.81 48.36 8.74
8/23/2021 5:15:00 AM 20.25 68.45 0.073 6.82 47.97 8.73
8/23/2021 5:30:00 AM 20.24 68.432 0.073 6.81 45.07 8.73
8/23/2021 5:45:00 AM 20.22 68.396 0.073 6.8 41.68 8.71
8/23/2021 6:00:00 AM 20.21 68.378 0.073 6.81 39.51 8.71
8/23/2021 6:15:00 AM 20.2 68.36 0.073 6.8 38.49 8.71
8/23/2021 6:30:00 AM 20.19 68.342 0.073 6.81 37.5 8.71
8/23/2021 6:45:00 AM 20.18 68.324 0.073 6.79 37.72 8.7
8/23/2021 7:00:00 AM 20.17 68.306 0.073 6.69 36.03 8.7
8/23/2021 7:15:00 AM 20.16 68.288 0.073 6.66 34.14 8.7
8/23/2021 7:30:00 AM 20.16 68.288 0.074 6.74 35.65 8.7
8/23/2021 7:45:00 AM 20.16 68.288 0.074 6.73 33.58 8.7
8/23/2021 8:00:00 AM 20.16 68.288 0.074 6.71 31.06 8.71
8/23/2021 8:15:00 AM 20.15 68.27 0.074 6.75 36.32 8.71
8/23/2021 8:30:00 AM 20.15 68.27 0.074 6.77 31.12 8.71
8/23/2021 8:45:00 AM 20.15 68.27 0.074 6.76 29.35 8.71
8/23/2021 9:00:00 AM 20.15 68.27 0.075 6.76 31.44 8.72
8/23/2021 9:15:00 AM 20.17 68.306 0.076 6.79 31.32 8.74
8/23/2021 9:30:00 AM 20.18 68.324 0.076 6.81 29.37 8.74
8/23/2021 9:45:00 AM 20.19 68.342 0.076 6.75 28.98 8.76
8/23/2021 10:00:00 AM 20.21 68.378 0.076 6.83 23.57 8.79
8/23/2021 10:15:00 AM 20.25 68.45 0.076 6.74 24.17 8.8
8/23/2021 10:30:00 AM 20.29 68.522 0.076 6.83 26.56 8.84
8/23/2021 10:45:00 AM 20.34 68.612 0.076 6.83 31.35 8.86
8/23/2021 11:00:00 AM 20.42 68.756 0.076 6.85 24.72 8.88
8/23/2021 11:15:00 AM 20.51 68.918 0.077 6.83 25.43 8.88
8/23/2021 11:30:00 AM 20.6 69.08 0.077 6.75 24.56 8.93
8/23/2021 11:45:00 AM 20.73 69.314 0.077 6.79 22.87 8.94
8/23/2021 12:00:00 PM 20.82 69.476 0.077 6.87 37.43 8.94
8/23/2021 12:15:00 PM 20.93 69.674 0.077 6.84 22.17 8.96
8/23/2021 12:30:00 PM 21.06 69.908 0.077 6.79 21.43 8.97
8/23/2021 12:45:00 PM 21.24 70.232 0.076 6.87 23.28 8.99
8/23/2021 1:00:00 PM 21.37 70.466 0.077 6.88 24.22 8.99
8/23/2021 1:15:00 PM 21.5 70.7 0.077 6.88 21.51 8.99
8/23/2021 1:30:00 PM 21.57 70.826 0.077 6.82 22.05 8.97
8/23/2021 1:45:00 PM 21.63 70.934 0.077 6.83 21.77 8.96
8/23/2021 2:00:00 PM 21.7 71.06 0.077 6.8 23.96 8.95
8/23/2021 2:15:00 PM 21.8 71.24 0.077 6.81 20.68 8.94
8/23/2021 2:30:00 PM 21.97 71.546 0.078 6.88 20.08 8.95
8/23/2021 2:45:00 PM 22.03 71.654 0.078 6.75 20.45 8.92
8/23/2021 3:00:00 PM 22.16 71.888 0.078 6.85 19.79 8.9
8/23/2021 3:15:00 PM 22.19 71.942 0.079 6.78 20.73 8.86
8/23/2021 3:30:00 PM 22.24 72.032 0.079 6.82 18.99 8.85
8/23/2021 3:45:00 PM 22.21 71.978 0.079 6.85 20.53 8.79
8/23/2021 4:00:00 PM 22.33 72.194 0.079 6.84 18.73 8.84
8/23/2021 4:15:00 PM 22.35 72.23 0.079 6.79 19.19 8.78
8/23/2021 4:30:00 PM 22.37 72.266 0.079 6.78 20.13 8.76
8/23/2021 4:45:00 PM 22.38 72.284 0.079 6.73 19.06 8.72
8/23/2021 5:00:00 PM 22.36 72.248 0.079 6.76 17.56 8.68
8/23/2021 5:15:00 PM 22.37 72.266 0.079 6.79 18.45 8.65
8/23/2021 5:30:00 PM 22.35 72.23 0.079 6.77 17.72 8.62
8/23/2021 5:45:00 PM 22.34 72.212 0.079 6.75 17.71 8.6
8/23/2021 6:00:00 PM 22.33 72.194 0.079 6.72 17.54 8.58
8/23/2021 6:15:00 PM 22.31 72.158 0.08 6.8 17.46 8.56
8/23/2021 6:30:00 PM 22.3 72.14 0.08 6.75 17.25 8.55
8/23/2021 6:45:00 PM 22.27 72.086 0.08 6.8 17.63 8.53
8/23/2021 7:00:00 PM 22.22 71.996 0.08 6.74 15.54 8.5
8/23/2021 7:15:00 PM 22.17 71.906 0.08 6.8 16.72 8.49
8/23/2021 7:30:00 PM 22.1 71.78 0.08 6.79 16.69 8.46
8/23/2021 7:45:00 PM 22.04 71.672 0.08 6.84 16.34 8.44
8/23/2021 8:00:00 PM 21.97 71.546 0.081 6.79 16.02 8.43
8/23/2021 8:15:00 PM 21.9 71.42 0.081 6.79 16.01 8.42
8/23/2021 8:30:00 PM 21.84 71.312 0.081 6.79 15.62 8.41
8/23/2021 8:45:00 PM 21.77 71.186 0.081 6.78 17.13 8.41
8/23/2021 9:00:00 PM 21.71 71.078 0.081 6.77 16.21 8.41
8/23/2021 9:15:00 PM 21.65 70.97 0.081 6.76 16.97 8.41
8/23/2021 9:30:00 PM 21.59 70.862 0.081 6.76 16.4 8.4
8/23/2021 9:45:00 PM 21.53 70.754 0.082 6.75 14.84 8.39
8/23/2021 10:00:00 PM 21.46 70.628 0.082 6.75 15.78 8.39
8/23/2021 10:15:00 PM 21.4 70.52 0.082 6.74 15.31 8.39
8/23/2021 10:30:00 PM 21.34 70.412 0.083 6.77 15.72 8.39
8/23/2021 10:45:00 PM 21.29 70.32201 0.082 6.75 15.82 8.4
8/23/2021 11:00:00 PM 21.24 70.232 0.082 6.75 17.45 8.4
8/23/2021 11:15:00 PM 21.19 70.142 0.083 6.77 17.42 8.41
8/23/2021 11:30:00 PM 21.13 70.034 0.083 6.75 18.03 8.42
8/23/2021 11:45:00 PM 21.08 69.944 0.083 6.72 17.42 8.43
8/24/2021 12:00:00 AM 21.02 69.836 0.083 6.71 16.27 8.44
8/24/2021 12:15:00 AM 20.98 69.764 0.083 6.68 16.96 8.45
8/24/2021 12:30:00 AM 20.92 69.656 0.083 6.71 17.71 8.45
8/24/2021 12:45:00 AM 20.87 69.566 0.083 6.67 17.73 8.46
8/24/2021 1:00:00 AM 20.82 69.476 0.084 6.65 18.06 8.47
8/24/2021 1:15:00 AM 20.77 69.386 0.084 6.6 16.98 8.47
8/24/2021 1:30:00 AM 20.72 69.296 0.084 6.68 16.63 8.48
8/24/2021 1:45:00 AM 20.68 69.224 0.084 6.75 15.63 8.49
8/24/2021 2:00:00 AM 20.63 69.134 0.084 6.73 16.63 8.5
8/24/2021 2:15:00 AM 20.58 69.044 0.084 6.66 15.41 8.51
8/24/2021 2:30:00 AM 20.53 68.954 0.084 6.75 15.53 8.52
8/24/2021 2:45:00 AM 20.48 68.864 0.084 6.74 14.66 8.53
8/24/2021 3:00:00 AM 20.43 68.774 0.085 6.73 14.26 8.53
8/24/2021 3:15:00 AM 20.39 68.702 0.085 6.69 14.44 8.54
8/24/2021 3:30:00 AM 20.35 68.63 0.085 6.64 14.39 8.55
8/24/2021 3:45:00 AM 20.31 68.558 0.085 6.72 14.05 8.56
8/24/2021 4:00:00 AM 20.27 68.486 0.085 6.63 14.09 8.56
8/24/2021 4:15:00 AM 20.22 68.396 0.085 6.66 14.01 8.57
8/24/2021 4:30:00 AM 20.18 68.324 0.085 6.7 13.57 8.58
8/24/2021 4:45:00 AM 20.13 68.234 0.085 6.62 13.99 8.59
8/24/2021 5:00:00 AM 20.09 68.162 0.086 6.71 13.46 8.59
8/24/2021 5:15:00 AM 20.05 68.09 0.086 6.66 13.92 8.6
8/24/2021 5:30:00 AM 20.01 68.018 0.086 6.65 13.65 8.61
8/24/2021 5:45:00 AM 19.97 67.946 0.086 6.72 14.22 8.62
8/24/2021 6:00:00 AM 19.93 67.874 0.086 6.73 12.95 8.63
8/24/2021 6:15:00 AM 19.89 67.802 0.086 6.66 13.27 8.64
8/24/2021 6:30:00 AM 19.85 67.73 0.086 6.68 13.01 8.65
8/24/2021 6:45:00 AM 19.81 67.658 0.086 6.69 12.91 8.66
8/24/2021 7:00:00 AM 19.78 67.604 0.086 6.69 12.71 8.68
8/24/2021 7:15:00 AM 19.76 67.568 0.086 6.76 12.05 8.71
8/24/2021 7:30:00 AM 19.73 67.514 0.086 6.76 12.82 8.73
8/24/2021 7:45:00 AM 19.72 67.496 0.087 6.68 12.85 8.77
8/24/2021 8:00:00 AM 19.7 67.46 0.087 6.76 12.78 8.8
8/24/2021 8:15:00 AM 19.69 67.442 0.087 6.76 12.17 8.83
8/24/2021 8:30:00 AM 19.68 67.424 0.087 6.7 11.48 8.86
8/24/2021 8:45:00 AM 19.69 67.442 0.087 6.79 11.45 8.89
8/24/2021 9:00:00 AM 19.71 67.478 0.087 6.76 11.7 8.93
8/24/2021 9:15:00 AM 19.73 67.514 0.087 6.8 11.63 8.96
8/24/2021 9:30:00 AM 19.77 67.586 0.087 6.81 12.1 9.01
8/24/2021 9:45:00 AM 19.87 67.766 0.087 6.77 11.46 9.09
8/24/2021 10:00:00 AM 19.95 67.91 0.087 6.82 11.27 9.14
8/24/2021 10:15:00 AM 19.96 67.92799 0.087 6.82 12.39 9.15
8/24/2021 10:30:00 AM 20.05 68.09 0.088 6.85 11.67 9.21
8/24/2021 10:45:00 AM 20.18 68.324 0.088 6.89 10.64 9.27
8/24/2021 11:00:00 AM 20.28 68.504 0.088 6.9 9.4 9.31
8/24/2021 11:15:00 AM 20.37 68.666 0.088 6.83 9.53 9.32
8/24/2021 11:30:00 AM 20.52 68.936 0.088 6.92 9.64 9.37
8/24/2021 11:45:00 AM 20.66 69.188 0.088 6.91 9.93 9.4
8/24/2021 12:00:00 PM 20.85 69.53 0.088 6.86 9.25 9.45
8/24/2021 12:15:00 PM 21.1 69.98 0.088 6.88 9.56 9.49
8/24/2021 12:30:00 PM 21.33 70.394 0.088 6.97 9.5 9.52
8/24/2021 12:45:00 PM 21.55 70.79 0.088 6.98 10.67 9.54
8/24/2021 1:00:00 PM 21.77 71.186 0.088 6.98 9.19 9.56
8/24/2021 1:15:00 PM 21.97 71.546 0.088 6.99 9.02 9.57
8/24/2021 1:30:00 PM 22.15 71.87 0.088 6.98 8.83 9.58
8/24/2021 1:45:00 PM 22.32 72.176 0.088 7 8.89 9.58
8/24/2021 2:00:00 PM 22.48 72.464 0.088 7.02 9.17 9.58
8/24/2021 2:15:00 PM 22.62 72.716 0.093 6.96 8.9 9.58
8/24/2021 2:30:00 PM 22.76 72.968 0.093 7.03 9.22 9.57
8/24/2021 2:45:00 PM 22.89 73.202 0.088 7 9.07 9.56
8/24/2021 3:00:00 PM 23 73.4 0.088 7 8.59 9.53
8/24/2021 3:15:00 PM 23.1 73.58 0.088 7.01 8.68 9.5
8/24/2021 3:30:00 PM 23.19 73.742 0.093 7.02 10.95 9.47
8/24/2021 3:45:00 PM 23.25 73.85 0.094 6.91 9.16 9.43
8/24/2021 4:00:00 PM 23.29 73.922 0.093 7.06 8 9.38
8/24/2021 4:15:00 PM 23.29 73.922 0.094 7.1 9.59 9.32
8/24/2021 4:30:00 PM 23.28 73.904 0.094 7.07 8.16 9.26
8/24/2021 4:45:00 PM 23.28 73.904 0.094 7.08 7.99 9.2
8/24/2021 5:00:00 PM 23.28 73.904 0.094 7.07 8.34 9.14
8/24/2021 5:15:00 PM 23.29 73.922 0.089 7.06 7.61 9.06
8/24/2021 5:30:00 PM 23.3 73.94 0.089 7.04 8.52 8.99
8/24/2021 5:45:00 PM 23.32 73.976 0.094 6.95 8.22 8.92
8/24/2021 6:00:00 PM 23.33 73.994 0.094 6.91 7.45 8.85
8/24/2021 6:15:00 PM 23.34 74.012 0.094 6.94 8.3 8.78
8/24/2021 6:30:00 PM 23.34 74.012 0.095 6.89 9.31 8.72
8/24/2021 6:45:00 PM 23.34 74.012 0.094 6.85 8.79 8.65
8/24/2021 7:00:00 PM 23.31 73.958 0.095 6.85 8.33 8.58
8/24/2021 7:15:00 PM 23.29 73.922 0.095 6.79 8.63 8.52
8/24/2021 7:30:00 PM 23.24 73.832 0.095 6.87 8.08 8.47
8/24/2021 7:45:00 PM 23.2 73.76 0.095 6.81 8.28 8.41
8/24/2021 8:00:00 PM 23.14 73.652 0.095 6.86 8.18 8.36
8/24/2021 8:15:00 PM 23.08 73.544 0.095 6.85 8.26 8.32
8/24/2021 8:30:00 PM 23.02 73.436 0.095 6.82 8.87 8.28
8/24/2021 8:45:00 PM 22.95 73.31 0.095 6.9 8.84 8.26
8/24/2021 9:00:00 PM 22.88 73.184 0.095 6.92 8.66 8.24
8/24/2021 9:15:00 PM 22.81 73.058 0.095 6.9 8.29 8.23
8/24/2021 9:30:00 PM 22.73 72.914 0.09 6.9 8.22 8.22
8/24/2021 9:45:00 PM 22.65 72.77 0.096 6.87 8.49 8.21
8/24/2021 10:00:00 PM 22.56 72.608 0.096 6.84 17.67 8.21
8/24/2021 10:15:00 PM 22.47 72.446 0.096 6.89 9.09 8.19
8/24/2021 10:30:00 PM 22.37 72.266 0.096 6.86 9.16 8.19
8/24/2021 10:45:00 PM 22.27 72.086 0.097 6.86 9.02 8.19
8/24/2021 11:00:00 PM 22.16 71.888 0.097 6.84 9.56 8.19
8/24/2021 11:15:00 PM 22.05 71.69 0.097 6.79 8.95 8.19
8/24/2021 11:30:00 PM 21.94 71.492 0.097 6.86 9.16 8.2
8/24/2021 11:45:00 PM 21.83 71.294 0.097 6.85 8.75 8.21
8/25/2021 12:00:00 AM 21.72 71.096 0.097 6.86 8.85 8.22
8/25/2021 12:15:00 AM 21.61 70.898 0.091 6.85 9.01 8.24
8/25/2021 12:30:00 AM 21.5 70.7 0.091 6.83 9.15 8.26
8/25/2021 12:45:00 AM 21.4 70.52 0.097 6.84 9.16 8.27
8/25/2021 1:00:00 AM 21.3 70.34 0.097 6.86 9.4 8.28
8/25/2021 1:15:00 AM 21.2 70.16 0.097 6.84 9.72 8.3
8/25/2021 1:30:00 AM 21.11 69.998 0.097 6.84 10.24 8.31
8/25/2021 1:45:00 AM 21.02 69.836 0.097 6.81 9.81 8.33
8/25/2021 2:00:00 AM 20.93 69.674 0.092 6.8 9.56 8.35
8/25/2021 2:15:00 AM 20.85 69.53 0.097 6.82 9.44 8.36
8/25/2021 2:30:00 AM 20.77 69.386 0.097 6.81 9.37 8.37
8/25/2021 2:45:00 AM 20.69 69.242 0.097 6.82 9.03 8.38
8/25/2021 3:00:00 AM 20.61 69.098 0.098 6.83 9.8 8.39
8/25/2021 3:15:00 AM 20.53 68.954 0.093 6.81 8.82 8.41
8/25/2021 3:30:00 AM 20.45 68.81 0.092 6.74 8.99 8.43
8/25/2021 3:45:00 AM 20.38 68.684 0.098 6.7 9.2 8.44
8/25/2021 4:00:00 AM 20.3 68.54 0.098 6.79 9.27 8.45
8/25/2021 4:15:00 AM 20.23 68.414 0.098 6.81 9.31 8.47
8/25/2021 4:30:00 AM 20.15 68.27 0.098 6.81 9.61 8.48
8/25/2021 4:45:00 AM 20.08 68.144 0.098 6.81 8.85 8.49
8/25/2021 5:00:00 AM 20.01 68.018 0.093 6.8 9.74 8.51
8/25/2021 5:15:00 AM 19.94 67.892 0.093 6.8 9.21 8.53
8/25/2021 5:30:00 AM 19.87 67.766 0.093 6.79 9.3 8.54
8/25/2021 5:45:00 AM 19.81 67.658 0.093 6.81 9.36 8.56
8/25/2021 6:00:00 AM 19.74 67.532 0.093 6.81 9.44 8.56
8/25/2021 6:15:00 AM 19.68 67.424 0.093 6.79 9.52 8.58
8/25/2021 6:30:00 AM 19.62 67.316 0.093 6.77 9.36 8.6
8/25/2021 6:45:00 AM 19.56 67.208 0.099 6.81 9.37 8.62
8/25/2021 7:00:00 AM 19.51 67.118 0.094 6.84 9.46 8.66
8/25/2021 7:15:00 AM 19.46 67.028 0.093 6.84 9.81 8.69
8/25/2021 7:30:00 AM 19.42 66.956 0.093 6.85 10.07 8.73
8/25/2021 7:45:00 AM 19.39 66.902 0.099 6.81 11.41 8.79
8/25/2021 8:00:00 AM 19.36 66.848 0.099 6.86 10.01 8.83
8/25/2021 8:15:00 AM 19.35 66.83 0.094 6.84 10.16 8.9
8/25/2021 8:30:00 AM 19.35 66.83 0.094 6.88 10.84 8.96
8/25/2021 8:45:00 AM 19.37 66.866 0.099 6.89 10.21 9.03
8/25/2021 9:00:00 AM 19.41 66.938 0.094 6.84 9.98 9.1
8/25/2021 9:15:00 AM 19.45 67.01 0.094 6.83 10.19 9.17
8/25/2021 9:30:00 AM 19.51 67.118 0.099 6.93 9.97 9.25
8/25/2021 9:45:00 AM 19.58 67.244 0.099 6.94 10.9 9.32
8/25/2021 10:00:00 AM 19.65 67.37 0.094 6.9 9.04 9.39
8/25/2021 10:15:00 AM 19.75 67.55 0.1 6.96 8.47 9.47
8/25/2021 10:30:00 AM 19.86 67.748 0.094 6.94 8.15 9.55
8/25/2021 10:45:00 AM 19.98 67.964 0.099 6.99 8.09 9.62
8/25/2021 11:00:00 AM 20.11 68.198 0.1 7.01 8.04 9.69
8/25/2021 11:15:00 AM 20.27 68.486 0.094 7.02 8.03 9.77
8/25/2021 11:30:00 AM 20.43 68.774 0.1 7.03 7.93 9.83
8/25/2021 11:45:00 AM 20.58 69.044 0.1 7.06 7.79 9.88
8/25/2021 12:00:00 PM 20.78 69.404 0.1 7.07 7.36 9.94
8/25/2021 12:15:00 PM 21.01 69.818 0.1 7.03 7.36 10
8/25/2021 12:30:00 PM 21.23 70.214 0.1 7.11 7.42 10.04
8/25/2021 12:45:00 PM 21.45 70.61 0.1 7.13 7.64 10.08
8/25/2021 1:00:00 PM 21.64 70.952 0.1 7.14 7.31 10.11
8/25/2021 1:15:00 PM 21.82 71.276 0.1 7.15 7.53 10.13
8/25/2021 1:30:00 PM 22.02 71.636 0.1 7.17 7.05 10.16
8/25/2021 1:45:00 PM 22.24 72.032 0.1 7.17 7.18 10.19
8/25/2021 2:00:00 PM 22.43 72.374 0.1 7.19 6.8 10.18
8/25/2021 2:15:00 PM 22.59 72.662 0.1 7.16 7.1 10.19
8/25/2021 2:30:00 PM 22.73 72.914 0.099 7.22 6.72 10.18
8/25/2021 2:45:00 PM 22.88 73.184 0.099 7.24 6.62 10.18
8/25/2021 3:00:00 PM 23.03 73.454 0.099 7.24 6.9 10.15
8/25/2021 3:15:00 PM 23.08 73.544 0.099 7.24 6.75 10.07
8/25/2021 3:30:00 PM 23.08 73.544 0.1 7.23 6.4 9.99
8/25/2021 3:45:00 PM 23.19 73.742 0.1 7.24 6.61 10
8/25/2021 4:00:00 PM 23.29 73.922 0.1 7.24 6.74 9.99
8/25/2021 4:15:00 PM 23.35 74.03 0.1 7.24 6.6 9.94
8/25/2021 4:30:00 PM 23.38 74.084 0.1 7.24 6.74 9.87
8/25/2021 4:45:00 PM 23.38 74.084 0.1 7.13 6.61 9.78
8/25/2021 5:00:00 PM 23.4 74.12 0.1 7.21 6.52 9.73
8/25/2021 5:15:00 PM 23.42 74.156 0.1 7.21 6.31 9.68
8/25/2021 5:30:00 PM 23.42 74.156 0.1 7.16 6.71 9.6
8/25/2021 5:45:00 PM 23.42 74.156 0.1 7.18 6.68 9.52
8/25/2021 6:00:00 PM 23.43 74.174 0.1 7.08 6.39 9.44
8/25/2021 6:15:00 PM 23.43 74.174 0.1 7.13 6.7 9.34
8/25/2021 6:30:00 PM 23.43 74.174 0.1 7.04 6.26 9.24
8/25/2021 6:45:00 PM 23.41 74.138 0.1 7.1 6.13 9.13
8/25/2021 7:00:00 PM 23.39 74.102 0.101 7.08 6.33 9
8/25/2021 7:15:00 PM 23.36 74.048 0.101 7.06 6.56 8.89
8/25/2021 7:30:00 PM 23.32 73.976 0.101 7.04 6.49 8.78
8/25/2021 7:45:00 PM 23.27 73.886 0.101 7.02 6.6 8.67
8/25/2021 8:00:00 PM 23.23 73.814 0.101 7.01 7.13 8.58
8/25/2021 8:15:00 PM 23.19 73.742 0.101 7 7.3 8.5
8/25/2021 8:30:00 PM 23.16 73.688 0.101 6.92 7.61 8.44
8/25/2021 8:45:00 PM 23.13 73.634 0.102 6.96 7.77 8.39
8/25/2021 9:00:00 PM 23.09 73.562 0.102 6.85 7.52 8.34
8/25/2021 9:15:00 PM 23.05 73.49 0.102 6.84 7.94 8.29
8/25/2021 9:30:00 PM 23.02 73.436 0.102 6.94 8.39 8.25
8/25/2021 9:45:00 PM 22.98 73.364 0.102 6.88 7.74 8.23
8/25/2021 10:00:00 PM 22.94 73.292 0.102 6.92 7.64 8.2
8/25/2021 10:15:00 PM 22.91 73.238 0.102 6.92 7.93 8.17
8/25/2021 10:30:00 PM 22.87 73.166 0.102 6.8 7.31 8.14
8/25/2021 10:45:00 PM 22.83 73.094 0.103 6.83 7.58 8.12
8/25/2021 11:00:00 PM 22.79 73.022 0.103 6.79 7.89 8.1
8/25/2021 11:15:00 PM 22.75 72.95 0.103 6.8 7.72 8.07
8/25/2021 11:30:00 PM 22.7 72.86 0.103 6.85 7.73 8.05
8/25/2021 11:45:00 PM 22.64 72.752 0.103 6.88 9.06 8.04
8/26/2021 12:00:00 AM 22.59 72.662 0.103 6.88 8.76 8.03
8/26/2021 12:15:00 AM 22.52 72.536 0.103 6.88 9.07 8.02
8/26/2021 12:30:00 AM 22.46 72.42799 0.103 6.89 8.79 8.01
8/26/2021 12:45:00 AM 22.39 72.302 0.103 6.89 8.64 8.01
8/26/2021 1:00:00 AM 22.31 72.158 0.103 6.89 8.61 8.01
8/26/2021 1:15:00 AM 22.24 72.032 0.104 6.88 8.17 8.02
8/26/2021 1:30:00 AM 22.16 71.888 0.104 6.87 8.34 8.03
8/26/2021 1:45:00 AM 22.07 71.726 0.104 6.87 8.1 8.04
8/26/2021 2:00:00 AM 21.99 71.582 0.104 6.86 8.54 8.04
8/26/2021 2:15:00 AM 21.89 71.402 0.104 6.86 8.56 8.06
8/26/2021 2:30:00 AM 21.81 71.258 0.104 6.83 8.02 8.06
8/26/2021 2:45:00 AM 21.73 71.114 0.104 6.83 8.33 8.08
8/26/2021 3:00:00 AM 21.64 70.952 0.104 6.84 8.69 8.09
8/26/2021 3:15:00 AM 21.55 70.79 0.104 6.77 9.15 8.11
8/26/2021 3:30:00 AM 21.47 70.646 0.104 6.84 8.71 8.12
8/26/2021 3:45:00 AM 21.39 70.502 0.104 6.84 9.75 8.13
8/26/2021 4:00:00 AM 21.3 70.34 0.104 6.84 9.63 8.15
8/26/2021 4:15:00 AM 21.23 70.214 0.105 6.84 9.41 8.16
8/26/2021 4:30:00 AM 21.14 70.052 0.105 6.79 8.13 8.17
8/26/2021 4:45:00 AM 21.07 69.926 0.105 6.84 8.85 8.19
8/26/2021 5:00:00 AM 21 69.8 0.105 6.83 8.11 8.21
8/26/2021 5:15:00 AM 20.93 69.674 0.105 6.89 8.82 8.22
8/26/2021 5:30:00 AM 20.86 69.548 0.105 6.89 9.11 8.23
8/26/2021 5:45:00 AM 20.79 69.422 0.105 6.88 8.6 8.24
8/26/2021 6:00:00 AM 20.71 69.278 0.105 6.88 9 8.26
8/26/2021 6:15:00 AM 20.65 69.17 0.105 6.88 9.68 8.27
8/26/2021 6:30:00 AM 20.58 69.044 0.105 6.88 9.11 8.29
8/26/2021 6:45:00 AM 20.52 68.936 0.105 6.87 9.26 8.33
8/26/2021 7:00:00 AM 20.46 68.828 0.105 6.88 9.9 8.37
8/26/2021 7:15:00 AM 20.41 68.738 0.106 6.88 8.22 8.42
8/26/2021 7:30:00 AM 20.37 68.666 0.105 6.91 8.48 8.5
8/26/2021 7:45:00 AM 20.35 68.63 0.106 6.9 8.26 8.61
8/26/2021 8:00:00 AM 20.35 68.63 0.106 6.91 8.09 8.71
8/26/2021 8:15:00 AM 20.36 68.648 0.106 6.93 7.94 8.82
8/26/2021 8:30:00 AM 20.38 68.684 0.106 6.89 7.67 8.92
8/26/2021 8:45:00 AM 20.37 68.666 0.106 6.86 7.42 8.98
8/26/2021 9:00:00 AM 20.44 68.792 0.106 6.96 7.52 9.13
8/26/2021 9:15:00 AM 20.44 68.792 0.106 6.96 7.91 9.18
8/26/2021 9:30:00 AM 20.48 68.864 0.106 7.01 7.49 9.28
8/26/2021 9:45:00 AM 20.53 68.954 0.106 7.01 7.5 9.4
8/26/2021 10:00:00 AM 20.54 68.972 0.106 7.02 8.47 9.43
8/26/2021 10:15:00 AM 20.57 69.026 0.106 7.01 8.1 9.49
8/26/2021 10:30:00 AM 20.7 69.26 0.106 6.96 7.78 9.65
8/26/2021 10:45:00 AM 20.79 69.422 0.106 7.09 7.98 9.77
8/26/2021 11:00:00 AM 20.83 69.494 0.106 7.04 8.33 9.81
8/26/2021 11:15:00 AM 20.85 69.53 0.106 7.07 7.98 9.83
8/26/2021 11:30:00 AM 20.9 69.62 0.106 7.06 7.93 9.9
8/26/2021 11:45:00 AM 20.99 69.782 0.106 7.07 7.97 10.01
8/26/2021 12:00:00 PM 21.12 70.016 0.106 7.14 7.99 10.14
8/26/2021 12:15:00 PM 21.33 70.394 0.106 7.16 11.32 10.23
8/26/2021 12:30:00 PM 21.43 70.574 0.106 7.17 9.89 10.28
8/26/2021 12:45:00 PM 21.49 70.682 0.106 7.2 9.98 10.31
8/26/2021 1:00:00 PM 21.55 70.79 0.105 7.21 9.93 10.34
8/26/2021 1:15:00 PM 21.62 70.916 0.106 7.13 9.86 10.36
8/26/2021 1:30:00 PM 21.7 71.06 0.105 7.24 9.92 10.38
8/26/2021 1:45:00 PM 21.75 71.15 0.106 7.25 9.53 10.37
8/26/2021 2:00:00 PM 21.82 71.276 0.106 7.21 8.47 10.42
8/26/2021 2:15:00 PM 21.91 71.438 0.105 7.32 8.66 10.49
8/26/2021 2:30:00 PM 21.97 71.546 0.105 7.27 8.39 10.51
8/26/2021 2:45:00 PM 22.03 71.654 0.106 7.3 8.45 10.52
8/26/2021 3:00:00 PM 22.12 71.816 0.105 7.24 6.45 10.55
8/26/2021 3:15:00 PM 22.25 72.05 0.105 7.35 6.69 10.61
8/26/2021 3:30:00 PM 22.33 72.194 0.105 7.35 6.67 10.58
8/26/2021 3:45:00 PM 22.39 72.302 0.105 7.38 6.72 10.52
8/26/2021 4:00:00 PM 22.47 72.446 0.105 7.33 6.19 10.48
8/26/2021 4:15:00 PM 22.53 72.554 0.105 7.33 6.66 10.43
8/26/2021 4:30:00 PM 22.58 72.644 0.105 7.25 6.47 10.39
8/26/2021 4:45:00 PM 22.65 72.77 0.105 7.33 6.46 10.38
8/26/2021 5:00:00 PM 22.67 72.806 0.105 7.32 6.3 10.3
8/26/2021 5:15:00 PM 22.67 72.806 0.106 7.27 6.47 10.22
8/26/2021 5:30:00 PM 22.66 72.788 0.106 7.3 6.39 10.13
8/26/2021 5:45:00 PM 22.67 72.806 0.106 7.27 6.6 10.06
8/26/2021 6:00:00 PM 22.71 72.878 0.105 7.25 6.44 10.02
8/26/2021 6:15:00 PM 22.72 72.896 0.106 7.23 6.47 9.91
8/26/2021 6:30:00 PM 22.72 72.896 0.106 7.21 6.41 9.81
8/26/2021 6:45:00 PM 22.72 72.896 0.106 7.18 6.7 9.7
8/26/2021 7:00:00 PM 22.72 72.896 0.106 7.16 6.74 9.56
8/26/2021 7:15:00 PM 22.7 72.86 0.106 7.16 6.8 9.42
8/26/2021 7:30:00 PM 22.68 72.824 0.106 7.15 6.64 9.26
8/26/2021 7:45:00 PM 22.65 72.77 0.106 7.12 6.75 9.12
8/26/2021 8:00:00 PM 22.62 72.716 0.106 7.05 6.79 9
8/26/2021 8:15:00 PM 22.6 72.68 0.106 7.03 7.21 8.89
8/26/2021 8:30:00 PM 22.57 72.626 0.107 6.98 7.39 8.78
8/26/2021 8:45:00 PM 22.54 72.57201 0.107 6.99 7.33 8.7
8/26/2021 9:00:00 PM 22.52 72.536 0.107 6.98 7.23 8.63
8/26/2021 9:15:00 PM 22.49 72.482 0.107 6.99 7.73 8.56
8/26/2021 9:30:00 PM 22.47 72.446 0.107 6.97 7.86 8.51
8/26/2021 9:45:00 PM 22.45 72.41 0.107 6.96 7.74 8.47
8/26/2021 10:00:00 PM 22.42 72.356 0.107 6.97 7.76 8.43
8/26/2021 10:15:00 PM 22.39 72.302 0.107 6.96 7.84 8.39
8/26/2021 10:30:00 PM 22.36 72.248 0.107 6.97 7.92 8.35
8/26/2021 10:45:00 PM 22.33 72.194 0.107 6.94 7.92 8.31
8/26/2021 11:00:00 PM 22.3 72.14 0.107 6.94 7.99 8.27
8/26/2021 11:15:00 PM 22.26 72.068 0.107 6.94 8.34 8.24
8/26/2021 11:30:00 PM 22.22 71.996 0.108 6.93 7.79 8.21
8/26/2021 11:45:00 PM 22.18 71.924 0.108 6.92 7.9 8.18
8/27/2021 12:00:00 AM 22.13 71.834 0.108 6.94 7.54 8.15
8/27/2021 12:15:00 AM 22.09 71.762 0.108 6.96 7.23 8.12
8/27/2021 12:30:00 AM 22.05 71.69 0.108 6.96 7.45 8.1
8/27/2021 12:45:00 AM 22 71.6 0.108 6.93 7.37 8.08
8/27/2021 1:00:00 AM 21.95 71.51 0.108 6.93 7.24 8.07
8/27/2021 1:15:00 AM 21.9 71.42 0.108 6.92 7.25 8.05
8/27/2021 1:30:00 AM 21.85 71.33 0.108 6.94 7.54 8.04
8/27/2021 1:45:00 AM 21.8 71.24 0.108 6.92 7.4 8.04
8/27/2021 2:00:00 AM 21.75 71.15 0.109 6.88 7.58 8.03
8/27/2021 2:15:00 AM 21.7 71.06 0.109 6.92 7.7 8.03
8/27/2021 2:30:00 AM 21.64 70.952 0.109 6.91 7.4 8.03
8/27/2021 2:45:00 AM 21.58 70.844 0.109 6.89 7.89 8.03
8/27/2021 3:00:00 AM 21.53 70.754 0.109 6.93 7.5 8.04
8/27/2021 3:15:00 AM 21.48 70.664 0.109 6.91 7.56 8.04
8/27/2021 3:30:00 AM 21.44 70.592 0.109 6.92 7.73 8.05
8/27/2021 3:45:00 AM 21.39 70.502 0.109 6.91 8.41 8.06
8/27/2021 4:00:00 AM 21.34 70.412 0.109 6.91 7.86 8.06
8/27/2021 4:15:00 AM 21.29 70.32201 0.109 6.87 8.55 8.06
8/27/2021 4:30:00 AM 21.24 70.232 0.109 6.9 8.41 8.07
8/27/2021 4:45:00 AM 21.2 70.16 0.109 6.77 7.99 8.07
8/27/2021 5:00:00 AM 21.15 70.07 0.109 6.83 8.29 8.08
8/27/2021 5:15:00 AM 21.09 69.962 0.109 6.79 8.03 8.09
8/27/2021 5:30:00 AM 21.03 69.854 0.11 6.88 8.08 8.09
8/27/2021 5:45:00 AM 20.98 69.764 0.11 6.84 7.57 8.11
8/27/2021 6:00:00 AM 20.92 69.656 0.11 6.87 7.84 8.12
8/27/2021 6:15:00 AM 20.87 69.566 0.11 6.87 7.77 8.13
8/27/2021 6:30:00 AM 20.82 69.476 0.11 6.87 7.19 8.15
8/27/2021 6:45:00 AM 20.76 69.368 0.11 6.85 7.66 8.16
8/27/2021 7:00:00 AM 20.71 69.278 0.11 6.87 8.18 8.2
8/27/2021 7:15:00 AM 20.67 69.206 0.11 6.85 7.88 8.25
8/27/2021 7:30:00 AM 20.64 69.152 0.111 6.82 7.22 8.31
8/27/2021 7:45:00 AM 20.62 69.116 0.111 6.88 7.64 8.4
8/27/2021 8:00:00 AM 20.61 69.098 0.111 6.87 6.96 8.46
8/27/2021 8:15:00 AM 20.59 69.062 0.111 6.87 7.16 8.51
8/27/2021 8:30:00 AM 20.57 69.026 0.111 6.86 6.81 8.58
8/27/2021 8:45:00 AM 20.57 69.026 0.111 6.83 7.63 8.68
8/27/2021 9:00:00 AM 20.57 69.026 0.111 6.9 6.85 8.78
8/27/2021 9:15:00 AM 20.59 69.062 0.111 6.94 7.02 8.91
8/27/2021 9:30:00 AM 20.62 69.116 0.111 6.97 7.38 9.09
8/27/2021 9:45:00 AM 20.65 69.17 0.111 6.98 7.37 9.21
8/27/2021 10:00:00 AM 20.67 69.206 0.111 6.92 7.61 9.32
8/27/2021 10:15:00 AM 20.68 69.224 0.111 6.91 8.79 9.37
8/27/2021 10:30:00 AM 20.71 69.278 0.111 7.03 7.26 9.49
8/27/2021 10:45:00 AM 20.75 69.35 0.11 7.04 7.04 9.65
8/27/2021 11:00:00 AM 20.79 69.422 0.111 7.05 7.68 9.74
8/27/2021 11:15:00 AM 20.81 69.458 0.111 7.08 6.75 9.77
8/27/2021 11:30:00 AM 20.81 69.458 0.111 7.01 7.02 9.77
8/27/2021 11:45:00 AM 20.82 69.476 0.111 7.06 6.95 9.8
8/27/2021 12:00:00 PM 20.85 69.53 0.11 7.11 7.03 9.91
8/27/2021 12:15:00 PM 20.92 69.656 0.11 7.13 6.91 10.06
8/27/2021 12:30:00 PM 21.06 69.908 0.11 7.17 6.85 10.26
8/27/2021 12:45:00 PM 21.19 70.142 0.11 7.2 7.71 10.36
8/27/2021 1:00:00 PM 21.37 70.466 0.11 7.24 6.71 10.45
8/27/2021 1:15:00 PM 21.48 70.664 0.11 7.16 6.43 10.54
8/27/2021 1:30:00 PM 21.62 70.916 0.11 7.28 6.81 10.65
8/27/2021 1:45:00 PM 21.82 71.276 0.11 7.35 6.24 10.75
8/27/2021 2:00:00 PM 21.94 71.492 0.11 7.38 6.29 10.8
8/27/2021 2:15:00 PM 22.05 71.69 0.11 7.29 7.05 10.83
8/27/2021 2:30:00 PM 22.19 71.942 0.11 7.44 7.32 10.88
8/27/2021 2:45:00 PM 22.27 72.086 0.11 7.43 9.16 10.91
8/27/2021 3:00:00 PM 22.35 72.23 0.11 7.4 9.04 10.88
8/27/2021 3:15:00 PM 22.45 72.41 0.11 7.43 10.73 10.89
8/27/2021 3:30:00 PM 22.6 72.68 0.11 7.51 10.82 10.88
8/27/2021 3:45:00 PM 22.72 72.896 0.109 7.53 10.34 10.88
8/27/2021 4:00:00 PM 22.8 73.04 0.106 7.5 16.9 10.86
8/27/2021 4:15:00 PM 22.86 73.148 0.109 7.58 8.29 10.83
8/27/2021 4:30:00 PM 22.91 73.238 0.109 7.54 8.13 10.8
8/27/2021 4:45:00 PM 22.96 73.328 0.109 7.48 8.05 10.72
8/27/2021 5:00:00 PM 22.93 73.274 0.109 7.52 8.25 10.53
8/27/2021 5:15:00 PM 22.92 73.256 0.109 7.51 8.02 10.46
8/27/2021 5:30:00 PM 22.94 73.292 0.109 7.51 7.71 10.42
8/27/2021 5:45:00 PM 22.91 73.238 0.109 7.47 8.08 10.27
8/27/2021 6:00:00 PM 22.87 73.166 0.109 7.42 7.97 10.2
8/27/2021 6:15:00 PM 22.8 73.04 0.109 7.3 7.96 10.04
8/27/2021 6:30:00 PM 22.74 72.932 0.109 7.3 8.03 9.87
8/27/2021 6:45:00 PM 22.7 72.86 0.109 7.31 7.74 9.74
8/27/2021 7:00:00 PM 22.65 72.77 0.109 7.25 7.97 9.58
8/27/2021 7:15:00 PM 22.62 72.716 0.109 7.23 8.11 9.49
8/27/2021 7:30:00 PM 22.6 72.68 0.109 7.22 8.17 9.39
8/27/2021 7:45:00 PM 22.55 72.59 0.11 7.18 8.46 9.22
8/27/2021 8:00:00 PM 22.52 72.536 0.11 7.15 8.17 9.05
8/27/2021 8:15:00 PM 22.49 72.482 0.11 7.08 8.51 8.92
8/27/2021 8:30:00 PM 22.47 72.446 0.11 6.98 8.98 8.84
8/27/2021 8:45:00 PM 22.45 72.41 0.11 7.07 9.29 8.76
8/27/2021 9:00:00 PM 22.44 72.392 0.11 6.98 9.45 8.69
8/27/2021 9:15:00 PM 22.41 72.338 0.11 6.99 9.72 8.61
8/27/2021 9:30:00 PM 22.39 72.302 0.11 7.03 9.59 8.56
8/27/2021 9:45:00 PM 22.36 72.248 0.11 7.02 9.75 8.5
8/27/2021 10:00:00 PM 22.33 72.194 0.111 7 10.04 8.46
8/27/2021 10:15:00 PM 22.3 72.14 0.111 6.95 11.7 8.42
8/27/2021 10:30:00 PM 22.28 72.104 0.111 6.94 8.7 8.38
8/27/2021 10:45:00 PM 22.27 72.086 0.111 6.97 10.12 8.35
8/27/2021 11:00:00 PM 22.25 72.05 0.11 6.98 10.47 8.31
8/27/2021 11:15:00 PM 22.23 72.014 0.11 6.97 10.36 8.27
8/27/2021 11:30:00 PM 22.21 71.978 0.11 6.9 11.24 8.23
8/27/2021 11:45:00 PM 22.2 71.96 0.11 6.95 10.82 8.19
8/28/2021 12:00:00 AM 22.18 71.924 0.11 6.95 11.21 8.15
8/28/2021 12:15:00 AM 22.16 71.888 0.11 6.96 11.43 8.11
8/28/2021 12:30:00 AM 22.15 71.87 0.109 6.93 10.75 8.1
8/28/2021 12:45:00 AM 22.12 71.816 0.109 6.93 10.82 8.06
8/28/2021 1:00:00 AM 22.1 71.78 0.109 6.91 11.06 8.03
8/28/2021 1:15:00 AM 22.07 71.726 0.109 6.9 11.08 8.02
8/28/2021 1:30:00 AM 22.04 71.672 0.109 6.92 11.83 8
8/28/2021 1:45:00 AM 22 71.6 0.109 6.8 11.54 8
8/28/2021 2:00:00 AM 21.96 71.528 0.109 6.9 11.6 7.98
8/28/2021 2:15:00 AM 21.91 71.438 0.108 6.89 11.26 7.98
8/28/2021 2:30:00 AM 21.87 71.366 0.108 6.89 11.8 7.98
8/28/2021 2:45:00 AM 21.83 71.294 0.108 6.8 12.02 7.98
8/28/2021 3:00:00 AM 21.79 71.222 0.108 6.8 11.91 7.99
8/28/2021 3:15:00 AM 21.74 71.132 0.108 6.89 11.47 7.99
8/28/2021 3:30:00 AM 21.7 71.06 0.108 6.84 11.4 8
8/28/2021 3:45:00 AM 21.65 70.97 0.108 6.89 11.09 8.01
8/28/2021 4:00:00 AM 21.6 70.88 0.108 6.89 10.83 8.02
8/28/2021 4:15:00 AM 21.55 70.79 0.108 6.88 10.76 8.03
8/28/2021 4:30:00 AM 21.51 70.718 0.108 6.88 11.3 8.03
8/28/2021 4:45:00 AM 21.46 70.628 0.108 6.89 11.34 8.04
8/28/2021 5:00:00 AM 21.41 70.538 0.108 6.79 11.52 8.05
8/28/2021 5:15:00 AM 21.37 70.466 0.108 6.88 11.11 8.06
8/28/2021 5:30:00 AM 21.32 70.376 0.108 6.83 11.05 8.07
8/28/2021 5:45:00 AM 21.27 70.286 0.108 6.83 11.24 8.08
8/28/2021 6:00:00 AM 21.21 70.17799 0.108 6.88 11.57 8.09
8/28/2021 6:15:00 AM 21.16 70.088 0.108 6.8 12.15 8.1
8/28/2021 6:30:00 AM 21.12 70.016 0.108 6.85 11.89 8.12
8/28/2021 6:45:00 AM 21.07 69.926 0.108 6.87 12.24 8.14
8/28/2021 7:00:00 AM 21.02 69.836 0.108 6.87 11.92 8.18
8/28/2021 7:15:00 AM 20.98 69.764 0.108 6.83 11.85 8.21
8/28/2021 7:30:00 AM 20.94 69.692 0.108 6.84 12.04 8.24
8/28/2021 7:45:00 AM 20.9 69.62 0.108 6.9 11.89 8.27
8/28/2021 8:00:00 AM 20.87 69.566 0.108 6.85 12.33 8.34
8/28/2021 8:15:00 AM 20.84 69.512 0.108 6.88 12.46 8.39
8/28/2021 8:30:00 AM 20.82 69.476 0.108 6.88 12.4 8.44
8/28/2021 8:45:00 AM 20.8 69.44 0.108 6.79 11.94 8.5
8/28/2021 9:00:00 AM 20.79 69.422 0.108 6.81 11.67 8.59
8/28/2021 9:15:00 AM 20.79 69.422 0.108 6.91 10.84 8.75
8/28/2021 9:30:00 AM 20.79 69.422 0.108 6.94 11.24 8.83
8/28/2021 9:45:00 AM 20.79 69.422 0.108 6.94 10.51 8.92
8/28/2021 10:00:00 AM 20.81 69.458 0.108 6.92 10.43 9.06
8/28/2021 10:15:00 AM 20.82 69.476 0.108 6.94 10.14 9.2
8/28/2021 10:30:00 AM 20.85 69.53 0.108 7.04 10.3 9.36
8/28/2021 10:45:00 AM 20.89 69.602 0.108 7.05 10.37 9.51
8/28/2021 11:00:00 AM 20.9 69.62 0.108 7.05 10.03 9.56
8/28/2021 11:15:00 AM 20.92 69.656 0.108 7.04 10.42 9.65
8/28/2021 11:30:00 AM 20.98 69.764 0.108 7.11 10.29 9.83
8/28/2021 11:45:00 AM 21.01 69.818 0.108 7.1 10.05 9.93
8/28/2021 12:00:00 PM 21.02 69.836 0.108 7.06 10.32 9.96
8/28/2021 12:15:00 PM 21.08 69.944 0.107 7.1 10.14 10.09
8/28/2021 12:30:00 PM 21.19 70.142 0.107 7.13 9.84 10.25
8/28/2021 12:45:00 PM 21.31 70.358 0.108 7.14 9.5 10.38
8/28/2021 1:00:00 PM 21.37 70.466 0.107 7.19 9.77 10.42
8/28/2021 1:15:00 PM 21.46 70.628 0.107 7.22 9.5 10.53
8/28/2021 1:30:00 PM 21.54 70.772 0.107 7.25 9.76 10.63
8/28/2021 1:45:00 PM 21.78 71.204 0.107 7.36 9.73 10.75
8/28/2021 2:00:00 PM 21.97 71.546 0.107 7.41 9.56 10.85
8/28/2021 2:15:00 PM 22.18 71.924 0.107 7.45 9.39 10.92
8/28/2021 2:30:00 PM 22.4 72.32 0.107 7.5 9.6 10.98
8/28/2021 2:45:00 PM 22.47 72.446 0.107 7.52 10.08 10.97
8/28/2021 3:00:00 PM 22.48 72.464 0.107 7.53 9.36 10.91
8/28/2021 3:15:00 PM 22.54 72.57201 0.107 7.55 9.43 10.9
8/28/2021 3:30:00 PM 22.66 72.788 0.107 7.58 9.56 10.92
8/28/2021 3:45:00 PM 22.72 72.896 0.106 7.59 9.31 10.89
8/28/2021 4:00:00 PM 22.75 72.95 0.107 7.6 9.05 10.88
8/28/2021 4:15:00 PM 22.72 72.896 0.107 7.6 9.74 10.84
8/28/2021 4:30:00 PM 22.67 72.806 0.107 7.6 9.54 10.8
8/28/2021 4:45:00 PM 22.7 72.86 0.106 7.62 10.77 10.84
8/28/2021 5:00:00 PM 22.72 72.896 0.106 7.64 9.62 10.83
8/28/2021 5:15:00 PM 22.7 72.86 0.106 7.62 9.81 10.79
8/28/2021 5:30:00 PM 22.65 72.77 0.106 7.6 9.79 10.67
8/28/2021 5:45:00 PM 22.6 72.68 0.106 7.54 9.82 10.55
8/28/2021 6:00:00 PM 22.57 72.626 0.106 7.52 9.61 10.42
8/28/2021 6:15:00 PM 22.55 72.59 0.107 7.46 9.77 10.23
8/28/2021 6:30:00 PM 22.52 72.536 0.107 7.43 9.59 10.11
8/28/2021 6:45:00 PM 22.48 72.464 0.107 7.27 9.25 9.92
8/28/2021 7:00:00 PM 22.43 72.374 0.107 7.32 9.29 9.74
8/28/2021 7:15:00 PM 22.38 72.284 0.107 7.25 9.37 9.59
8/28/2021 7:30:00 PM 22.33 72.194 0.107 7.22 9.24 9.44
8/28/2021 7:45:00 PM 22.27 72.086 0.108 7.16 9.52 9.3
8/28/2021 8:00:00 PM 22.21 71.978 0.108 7.16 9.43 9.14
8/28/2021 8:15:00 PM 22.15 71.87 0.108 7.12 9.77 9.03
8/28/2021 8:30:00 PM 22.09 71.762 0.108 7.05 9.75 8.92
8/28/2021 8:45:00 PM 22.03 71.654 0.108 7.08 9.94 8.84
8/28/2021 9:00:00 PM 21.99 71.582 0.109 7.06 10.52 8.77
8/28/2021 9:15:00 PM 21.96 71.528 0.109 7.03 12.68 8.71
8/28/2021 9:30:00 PM 21.93 71.474 0.109 7.04 10.42 8.65
8/28/2021 9:45:00 PM 21.9 71.42 0.109 7.04 9.9 8.61
8/28/2021 10:00:00 PM 21.87 71.366 0.109 7.03 9.95 8.56
8/28/2021 10:15:00 PM 21.84 71.312 0.109 7 9.74 8.51
8/28/2021 10:30:00 PM 21.81 71.258 0.109 6.99 10.39 8.47
8/28/2021 10:45:00 PM 21.78 71.204 0.109 7.01 10.91 8.43
8/28/2021 11:00:00 PM 21.74 71.132 0.109 7 10.4 8.39
8/28/2021 11:15:00 PM 21.7 71.06 0.109 6.95 10.47 8.35
8/28/2021 11:30:00 PM 21.66 70.988 0.109 6.89 11.46 8.31
8/28/2021 11:45:00 PM 21.62 70.916 0.109 6.96 9.86 8.28
8/29/2021 12:00:00 AM 21.57 70.826 0.11 6.84 10.18 8.25
8/29/2021 12:15:00 AM 21.52 70.736 0.109 6.97 10.21 8.22
8/29/2021 12:30:00 AM 21.47 70.646 0.109 6.91 12.1 8.2
8/29/2021 12:45:00 AM 21.43 70.574 0.109 6.94 10 8.18
8/29/2021 1:00:00 AM 21.39 70.502 0.109 6.95 10.97 8.15
8/29/2021 1:15:00 AM 21.34 70.412 0.109 6.9 10.22 8.14
8/29/2021 1:30:00 AM 21.29 70.32201 0.109 6.9 10.54 8.13
8/29/2021 1:45:00 AM 21.25 70.25 0.109 6.9 10.58 8.11
8/29/2021 2:00:00 AM 21.22 70.196 0.109 6.92 11.71 8.1
8/29/2021 2:15:00 AM 21.18 70.124 0.11 6.9 11.38 8.09
8/29/2021 2:30:00 AM 21.15 70.07 0.109 6.93 11.73 8.08
8/29/2021 2:45:00 AM 21.11 69.998 0.109 6.93 12.29 8.08
8/29/2021 3:00:00 AM 21.08 69.944 0.109 6.87 12.27 8.08
8/29/2021 3:15:00 AM 21.05 69.89 0.11 6.91 12.1 8.08
8/29/2021 3:30:00 AM 21.01 69.818 0.11 6.86 11.94 8.08
8/29/2021 3:45:00 AM 20.98 69.764 0.11 6.92 11.67 8.08
8/29/2021 4:00:00 AM 20.94 69.692 0.11 6.87 12.31 8.08
8/29/2021 4:15:00 AM 20.9 69.62 0.11 6.84 12.36 8.08
8/29/2021 4:30:00 AM 20.87 69.566 0.11 6.91 16.03 8.08
8/29/2021 4:45:00 AM 20.84 69.512 0.11 6.87 15.21 8.08
8/29/2021 5:00:00 AM 20.8 69.44 0.11 6.9 15.04 8.09
8/29/2021 5:15:00 AM 20.77 69.386 0.11 6.93 14.88 8.09
8/29/2021 5:30:00 AM 20.73 69.314 0.11 6.92 14.57 8.09
8/29/2021 5:45:00 AM 20.69 69.242 0.111 6.92 14.57 8.1
8/29/2021 6:00:00 AM 20.66 69.188 0.111 6.94 14.64 8.11
8/29/2021 6:15:00 AM 20.62 69.116 0.111 6.92 14.24 8.11
8/29/2021 6:30:00 AM 20.59 69.062 0.111 6.9 14.11 8.13
8/29/2021 6:45:00 AM 20.56 69.008 0.111 6.91 13.79 8.14
8/29/2021 7:00:00 AM 20.53 68.954 0.111 6.92 13.99 8.17
8/29/2021 7:15:00 AM 20.5 68.9 0.111 6.93 13.75 8.22
8/29/2021 7:30:00 AM 20.48 68.864 0.111 6.91 13.71 8.27
8/29/2021 7:45:00 AM 20.46 68.828 0.111 6.91 13.78 8.33
8/29/2021 8:00:00 AM 20.45 68.81 0.112 6.91 13.04 8.41
8/29/2021 8:15:00 AM 20.44 68.792 0.112 6.91 13.43 8.52
8/29/2021 8:30:00 AM 20.44 68.792 0.112 6.95 13.27 8.65
8/29/2021 8:45:00 AM 20.46 68.828 0.112 6.99 13.71 8.8
8/29/2021 9:00:00 AM 20.48 68.864 0.112 6.97 13.46 8.92
8/29/2021 9:15:00 AM 20.51 68.918 0.112 7.03 13.51 9.09
8/29/2021 9:30:00 AM 20.51 68.918 0.112 7.04 13.47 9.14
8/29/2021 9:45:00 AM 20.57 69.026 0.112 7.06 13.3 9.31
8/29/2021 10:00:00 AM 20.58 69.044 0.112 7.08 13.22 9.41
8/29/2021 10:15:00 AM 20.66 69.188 0.112 7.11 13.23 9.6
8/29/2021 10:30:00 AM 20.77 69.386 0.112 7.15 12.94 9.8
8/29/2021 10:45:00 AM 20.95 69.71 0.112 7.08 12.99 9.95
8/29/2021 11:00:00 AM 21.11 69.998 0.112 7.2 13.35 10.05
8/29/2021 11:15:00 AM 21.13 70.034 0.112 7.18 13.39 10.08
8/29/2021 11:30:00 AM 21.23 70.214 0.112 7.2 13.05 10.21
8/29/2021 11:45:00 AM 21.33 70.394 0.112 7.28 13.29 10.3
8/29/2021 12:00:00 PM 21.45 70.61 0.112 7.33 13.21 10.4
8/29/2021 12:15:00 PM 21.53 70.754 0.111 7.35 13.24 10.48
8/29/2021 12:30:00 PM 21.65 70.97 0.111 7.34 13.01 10.53
8/29/2021 12:45:00 PM 21.87 71.366 0.111 7.41 12.86 10.64
8/29/2021 1:00:00 PM 22.09 71.762 0.111 7.39 13.13 10.77
8/29/2021 1:15:00 PM 22.17 71.906 0.111 7.42 13.18 10.78
8/29/2021 1:30:00 PM 22.24 72.032 0.111 7.51 13.04 10.77
8/29/2021 1:45:00 PM 22.23 72.014 0.111 7.51 13.21 10.71
8/29/2021 2:00:00 PM 22.26 72.068 0.111 7.45 13.06 10.69
8/29/2021 2:15:00 PM 22.28 72.104 0.111 7.5 12.82 10.67
8/29/2021 2:30:00 PM 22.31 72.158 0.111 7.49 12.92 10.68
8/29/2021 2:45:00 PM 22.33 72.194 0.11 7.56 13.25 10.68
8/29/2021 3:00:00 PM 22.38 72.284 0.11 7.56 13.12 10.7
8/29/2021 3:15:00 PM 22.42 72.356 0.11 7.59 13.17 10.7
8/29/2021 3:30:00 PM 22.51 72.518 0.11 7.58 12.74 10.75
8/29/2021 3:45:00 PM 22.52 72.536 0.11 7.61 13.23 10.68
8/29/2021 4:00:00 PM 22.56 72.608 0.11 7.61 13.11 10.68
8/29/2021 4:15:00 PM 22.61 72.698 0.11 7.56 12.72 10.69
8/29/2021 4:30:00 PM 22.71 72.878 0.11 7.58 13.07 10.72
8/29/2021 4:45:00 PM 22.79 73.022 0.11 7.58 13.19 10.7
8/29/2021 5:00:00 PM 22.77 72.986 0.11 7.61 13.07 10.55
8/29/2021 5:15:00 PM 22.69 72.842 0.11 7.57 12.89 10.3
8/29/2021 5:30:00 PM 22.64 72.752 0.11 7.52 13.49 10.12
8/29/2021 5:45:00 PM 22.61 72.698 0.11 7.48 13.47 10
8/29/2021 6:00:00 PM 22.58 72.644 0.111 7.44 12.85 9.89
8/29/2021 6:15:00 PM 22.55 72.59 0.111 7.39 13.66 9.76
8/29/2021 6:30:00 PM 22.5 72.5 0.111 7.33 13.04 9.64
8/29/2021 6:45:00 PM 22.45 72.41 0.111 7.3 13.51 9.51
8/29/2021 7:00:00 PM 22.39 72.302 0.111 7.31 13.76 9.36
8/29/2021 7:15:00 PM 22.32 72.176 0.111 7.23 13.98 9.18
8/29/2021 7:30:00 PM 22.26 72.068 0.112 7.19 13.67 9.06
8/29/2021 7:45:00 PM 22.2 71.96 0.112 7.2 13.36 8.95
8/29/2021 8:00:00 PM 22.15 71.87 0.112 7.16 14.45 8.86
8/29/2021 8:15:00 PM 22.1 71.78 0.112 7.05 14.43 8.78
8/29/2021 8:30:00 PM 22.06 71.708 0.112 7.04 14.52 8.71
8/29/2021 8:45:00 PM 22.02 71.636 0.112 7.08 14.93 8.63
8/29/2021 9:00:00 PM 21.99 71.582 0.112 7.04 15.09 8.58
8/29/2021 9:15:00 PM 21.96 71.528 0.112 7.06 15.17 8.51
8/29/2021 9:30:00 PM 21.93 71.474 0.112 7.03 15.16 8.47
8/29/2021 9:45:00 PM 21.9 71.42 0.112 6.98 15.77 8.42
8/29/2021 10:00:00 PM 21.87 71.366 0.112 7.03 15.66 8.38
8/29/2021 10:15:00 PM 21.84 71.312 0.112 6.97 16.12 8.33
8/29/2021 10:30:00 PM 21.8 71.24 0.112 7.01 16.08 8.29
8/29/2021 10:45:00 PM 21.77 71.186 0.112 6.95 16.94 8.26
8/29/2021 11:00:00 PM 21.75 71.15 0.112 6.99 17.07 8.22
8/29/2021 11:15:00 PM 21.73 71.114 0.112 6.97 15.19 8.19
8/29/2021 11:30:00 PM 21.7 71.06 0.112 6.97 15.85 8.16
8/29/2021 11:45:00 PM 21.68 71.024 0.112 6.96 15.31 8.12
8/30/2021 12:00:00 AM 21.66 70.988 0.112 6.91 15.66 8.1
8/30/2021 12:15:00 AM 21.64 70.952 0.112 6.96 15.3 8.07
8/30/2021 12:30:00 AM 21.62 70.916 0.112 6.93 15.42 8.05
8/30/2021 12:45:00 AM 21.6 70.88 0.112 6.93 15.39 8.02
8/30/2021 1:00:00 AM 21.58 70.844 0.112 6.91 15.4 7.99
8/30/2021 1:15:00 AM 21.56 70.808 0.112 6.86 15.44 7.97
8/30/2021 1:30:00 AM 21.54 70.772 0.112 6.91 16.03 7.96
8/30/2021 1:45:00 AM 21.51 70.718 0.112 6.91 16.2 7.94
8/30/2021 2:00:00 AM 21.47 70.646 0.112 6.92 15.85 7.93
8/30/2021 2:15:00 AM 21.44 70.592 0.112 6.91 16.06 7.91
8/30/2021 2:30:00 AM 21.41 70.538 0.112 6.91 16.64 7.9
8/30/2021 2:45:00 AM 21.39 70.502 0.113 6.91 16.12 7.9
8/30/2021 3:00:00 AM 21.36 70.448 0.112 6.85 16.13 7.89
8/30/2021 3:15:00 AM 21.33 70.394 0.112 6.9 16.28 7.89
8/30/2021 3:30:00 AM 21.29 70.32201 0.113 6.87 16.6 7.89
8/30/2021 3:45:00 AM 21.26 70.268 0.112 6.83 17.31 7.89
8/30/2021 4:00:00 AM 21.23 70.214 0.112 6.9 16.39 7.88
8/30/2021 4:15:00 AM 21.2 70.16 0.113 6.9 16.15 7.89
8/30/2021 4:30:00 AM 21.17 70.106 0.113 6.86 17.05 7.89
8/30/2021 4:45:00 AM 21.14 70.052 0.113 6.85 16.33 7.89
8/30/2021 5:00:00 AM 21.1 69.98 0.113 6.88 16.92 7.9
8/30/2021 5:15:00 AM 21.06 69.908 0.113 6.9 16.74 7.91
8/30/2021 5:30:00 AM 21.03 69.854 0.113 6.85 16.31 7.91
8/30/2021 5:45:00 AM 21 69.8 0.113 6.88 17.23 7.91
8/30/2021 6:00:00 AM 20.97 69.746 0.113 6.86 16.84 7.92
8/30/2021 6:15:00 AM 20.95 69.71 0.113 6.84 15.25 7.93
8/30/2021 6:30:00 AM 20.92 69.656 0.113 6.89 15.29 7.93
8/30/2021 6:45:00 AM 20.88 69.584 0.113 6.88 15.66 7.95
8/30/2021 7:00:00 AM 20.86 69.548 0.113 6.86 15.83 7.99
8/30/2021 7:15:00 AM 20.84 69.512 0.113 6.86 14.63 8.04
8/30/2021 7:30:00 AM 20.83 69.494 0.114 6.93 15.41 8.12
8/30/2021 7:45:00 AM 20.83 69.494 0.113 6.94 15.39 8.19
8/30/2021 8:00:00 AM 20.82 69.476 0.114 6.93 14.23 8.23
8/30/2021 8:15:00 AM 20.81 69.458 0.114 6.92 14.23 8.26
8/30/2021 8:30:00 AM 20.8 69.44 0.114 6.94 14.42 8.33
8/30/2021 8:45:00 AM 20.8 69.44 0.114 6.95 14.38 8.42
8/30/2021 9:00:00 AM 20.83 69.494 0.114 6.98 14.24 8.61
8/30/2021 9:15:00 AM 20.85 69.53 0.114 7 14.63 8.72
8/30/2021 9:30:00 AM 20.92 69.656 0.114 7 14.57 8.85
8/30/2021 9:45:00 AM 20.99 69.782 0.114 7.03 14.6 8.95
8/30/2021 10:00:00 AM 20.9 69.62 0.114 7.04 14.49 8.88
8/30/2021 10:15:00 AM 21 69.8 0.114 7.07 14.91 9.12
8/30/2021 10:30:00 AM 21.02 69.836 0.114 7.01 15.58 9.25
8/30/2021 10:45:00 AM 21.11 69.998 0.114 7.12 15.11 9.43
8/30/2021 11:00:00 AM 21.14 70.052 0.114 7.14 14.75 9.53
8/30/2021 11:15:00 AM 21.27 70.286 0.114 7.14 14.31 9.68
8/30/2021 11:30:00 AM 21.34 70.412 0.114 7.13 14.48 9.79
8/30/2021 11:45:00 AM 21.49 70.682 0.114 7.2 14.98 9.93
8/30/2021 12:00:00 PM 21.58 70.844 0.114 7.21 14.56 10
8/30/2021 12:15:00 PM 21.71 71.078 0.114 7.26 14.45 10.14
8/30/2021 12:30:00 PM 21.94 71.492 0.114 7.31 14.29 10.26
8/30/2021 12:45:00 PM 22.07 71.726 0.114 7.28 14.39 10.31
8/30/2021 1:00:00 PM 22.1 71.78 0.114 7.34 13.93 10.2
8/30/2021 1:15:00 PM 22.26 72.068 0.114 7.35 14.64 10.27
8/30/2021 1:30:00 PM 22.51 72.518 0.114 7.4 14.21 10.39
8/30/2021 1:45:00 PM 22.58 72.644 0.114 7.42 13.79 10.37
8/30/2021 2:00:00 PM 22.88 73.184 0.114 7.46 14.01 10.47
8/30/2021 2:15:00 PM 23.04 73.472 0.114 7.48 14.02 10.51
8/30/2021 2:30:00 PM 23.17 73.706 0.114 7.5 13.64 10.51
8/30/2021 2:45:00 PM 23.25 73.85 0.114 7.54 13.29 10.5
8/30/2021 3:00:00 PM 23.29 73.922 0.114 7.51 13.11 10.48
8/30/2021 3:15:00 PM 23.48 74.264 0.114 7.54 13.55 10.51
8/30/2021 3:30:00 PM 23.58 74.444 0.113 7.59 12.21 10.51
8/30/2021 3:45:00 PM 23.7 74.66 0.113 7.6 12.63 10.53
8/30/2021 4:00:00 PM 23.7 74.66 0.113 7.61 12.26 10.47
8/30/2021 4:15:00 PM 23.73 74.714 0.113 7.61 11.7 10.46
8/30/2021 4:30:00 PM 23.74 74.732 0.113 7.6 11.64 10.42
8/30/2021 4:45:00 PM 23.73 74.714 0.113 7.6 11.61 10.33
8/30/2021 5:00:00 PM 23.71 74.67799 0.113 7.6 13.37 10.28
8/30/2021 5:15:00 PM 23.65 74.57 0.113 7.51 11.67 10.17
8/30/2021 5:30:00 PM 23.62 74.516 0.113 7.55 12.31 10.09
8/30/2021 5:45:00 PM 23.56 74.408 0.113 7.52 11.95 9.94
8/30/2021 6:00:00 PM 23.52 74.336 0.113 7.49 11.62 9.83
8/30/2021 6:15:00 PM 23.45 74.21 0.113 7.44 11.77 9.69
8/30/2021 6:30:00 PM 23.37 74.066 0.113 7.41 11.96 9.51
8/30/2021 6:45:00 PM 23.34 74.012 0.113 7.36 11.85 9.46
8/30/2021 7:00:00 PM 23.29 73.922 0.114 7.31 12.03 9.33
8/30/2021 7:15:00 PM 23.24 73.832 0.114 7.31 12.46 9.18
8/30/2021 7:30:00 PM 23.18 73.724 0.114 7.26 12.36 9.03
8/30/2021 7:45:00 PM 23.1 73.58 0.114 7.23 13.38 8.87
8/30/2021 8:00:00 PM 23.04 73.472 0.114 7.12 12.13 8.75
8/30/2021 8:15:00 PM 22.97 73.346 0.114 7.17 12.62 8.65
8/30/2021 8:30:00 PM 22.91 73.238 0.114 7.16 13.17 8.55
8/30/2021 8:45:00 PM 22.86 73.148 0.114 7.14 13.55 8.47
8/30/2021 9:00:00 PM 22.81 73.058 0.114 7.13 14.47 8.4
8/30/2021 9:15:00 PM 22.77 72.986 0.114 7.07 13.81 8.33
8/30/2021 9:30:00 PM 22.72 72.896 0.114 7.08 13.82 8.27
8/30/2021 9:45:00 PM 22.66 72.788 0.114 7.05 14.22 8.2
8/30/2021 10:00:00 PM 22.61 72.698 0.114 7.04 13.81 8.16
8/30/2021 10:15:00 PM 22.56 72.608 0.115 6.99 13.81 8.11
8/30/2021 10:30:00 PM 22.51 72.518 0.114 7.03 14.12 8.07
8/30/2021 10:45:00 PM 22.45 72.41 0.114 7.01 14.87 8.04
8/30/2021 11:00:00 PM 22.4 72.32 0.114 7.03 14.46 8.01
8/30/2021 11:15:00 PM 22.35 72.23 0.115 7 14.12 7.98
8/30/2021 11:30:00 PM 22.3 72.14 0.115 7 14.88 7.96
8/30/2021 11:45:00 PM 22.24 72.032 0.115 6.99 14.18 7.94
8/31/2021 12:00:00 AM 22.19 71.942 0.115 6.99 14.74 7.91
8/31/2021 12:15:00 AM 22.15 71.87 0.115 7 15.5 7.89
8/31/2021 12:30:00 AM 22.1 71.78 0.115 6.96 15.94 7.87
8/31/2021 12:45:00 AM 22.06 71.708 0.115 6.91 15.43 7.85
8/31/2021 1:00:00 AM 22.02 71.636 0.115 6.97 15.85 7.83
8/31/2021 1:15:00 AM 21.99 71.582 0.115 6.98 15.46 7.81
8/31/2021 1:30:00 AM 21.95 71.51 0.115 6.93 14.13 7.79
8/31/2021 1:45:00 AM 21.9 71.42 0.115 6.96 15.89 7.77
8/31/2021 2:00:00 AM 21.86 71.348 0.115 6.95 16.38 7.75
8/31/2021 2:15:00 AM 21.81 71.258 0.115 6.97 15.63 7.71
8/31/2021 2:30:00 AM 21.74 71.132 0.115 6.97 16.21 7.73
8/31/2021 2:45:00 AM 21.69 71.042 0.115 6.95 15.72 7.73
8/31/2021 3:00:00 AM 21.62 70.916 0.115 6.93 16.47 7.72
8/31/2021 3:15:00 AM 21.56 70.808 0.115 6.98 16.19 7.72
8/31/2021 3:30:00 AM 21.5 70.7 0.115 6.97 16.28 7.72
8/31/2021 3:45:00 AM 21.44 70.592 0.115 6.98 16.36 7.72
8/31/2021 4:00:00 AM 21.37 70.466 0.115 6.89 16.27 7.72
8/31/2021 4:15:00 AM 21.31 70.358 0.115 6.92 15.74 7.72
8/31/2021 4:30:00 AM 21.24 70.232 0.115 6.95 15.43 7.72
8/31/2021 4:45:00 AM 21.17 70.106 0.115 6.9 15.93 7.73
8/31/2021 5:00:00 AM 21.11 69.998 0.115 6.94 16.19 7.75
8/31/2021 5:15:00 AM 21.04 69.872 0.115 6.88 16.77 7.75
8/31/2021 5:30:00 AM 20.97 69.746 0.115 6.86 15.31 7.76
8/31/2021 5:45:00 AM 20.9 69.62 0.115 6.9 15.53 7.77
8/31/2021 6:00:00 AM 20.84 69.512 0.115 6.92 14.47 7.77
8/31/2021 6:15:00 AM 20.77 69.386 0.115 6.92 13.9 7.79
8/31/2021 6:30:00 AM 20.7 69.26 0.115 6.92 13.71 7.8
8/31/2021 6:45:00 AM 20.64 69.152 0.115 6.93 13.45 7.82
8/31/2021 7:00:00 AM 20.59 69.062 0.115 6.97 13 7.86
8/31/2021 7:15:00 AM 20.54 68.972 0.115 6.94 12.64 7.92
8/31/2021 7:30:00 AM 20.5 68.9 0.115 6.93 13.29 7.99
8/31/2021 7:45:00 AM 20.47 68.846 0.115 6.94 12.94 8.08
8/31/2021 8:00:00 AM 20.44 68.792 0.115 6.97 12.86 8.17
8/31/2021 8:15:00 AM 20.43 68.774 0.115 6.93 12.74 8.28
8/31/2021 8:30:00 AM 20.42 68.756 0.115 6.97 13.2 8.4
8/31/2021 8:45:00 AM 20.42 68.756 0.115 6.76 13.63 8.52
8/31/2021 9:00:00 AM 20.42 68.756 0.115 6.96 13.08 8.64
8/31/2021 9:15:00 AM 20.43 68.774 0.115 7.03 13.11 8.78
8/31/2021 9:30:00 AM 20.47 68.846 0.115 7.01 13.26 8.95
8/31/2021 9:45:00 AM 20.52 68.936 0.115 7.02 13.17 9.1
8/31/2021 10:00:00 AM 20.59 69.062 0.115 7.06 13.5 9.25
8/31/2021 10:15:00 AM 20.63 69.134 0.115 7.1 13.35 9.36
8/31/2021 10:30:00 AM 20.64 69.152 0.115 7.11 13.69 9.44
8/31/2021 10:45:00 AM 20.72 69.296 0.115 7.11 13.64 9.59
8/31/2021 11:00:00 AM 20.78 69.404 0.115 7.1 13.75 9.69
8/31/2021 11:15:00 AM 20.89 69.602 0.115 7.11 13.51 9.81
8/31/2021 11:30:00 AM 20.91 69.638 0.115 7.16 13.4 9.87
8/31/2021 11:45:00 AM 20.96 69.728 0.115 7.25 13.23 9.96
8/31/2021 12:00:00 PM 21.1 69.98 0.115 7.23 13.52 10.06
8/31/2021 12:15:00 PM 21.21 70.17799 0.115 7.27 14.89 10.12
8/31/2021 12:30:00 PM 21.43 70.574 0.115 7.26 13.25 10.22
8/31/2021 12:45:00 PM 21.63 70.934 0.115 7.22 13.22 10.28
8/31/2021 1:00:00 PM 21.77 71.186 0.116 7.4 13.12 10.32
8/31/2021 1:15:00 PM 21.8 71.24 0.116 7.31 13.56 10.31
8/31/2021 1:30:00 PM 22.02 71.636 0.116 7.28 12.91 10.38
8/31/2021 1:45:00 PM 22.19 71.942 0.116 7.35 13.14 10.44
8/31/2021 2:00:00 PM 22.34 72.212 0.116 7.37 13.79 10.45
8/31/2021 2:15:00 PM 22.51 72.518 0.116 7.45 13.62 10.49
8/31/2021 2:30:00 PM 22.59 72.662 0.116 7.45 13.29 10.51
8/31/2021 2:45:00 PM 22.67 72.806 0.116 7.49 13.12 10.54
8/31/2021 3:00:00 PM 22.69 72.842 0.116 7.4 13.56 10.5
8/31/2021 3:15:00 PM 22.86 73.148 0.115 7.3 12.93 10.56
8/31/2021 3:30:00 PM 22.85 73.13 0.116 7.57 13.28 10.5
8/31/2021 3:45:00 PM 22.86 73.148 0.116 7.55 13.13 10.39
8/31/2021 4:00:00 PM 22.89 73.202 0.116 7.53 13.08 10.34
8/31/2021 4:15:00 PM 22.9 73.22 0.115 7.53 13.17 10.29
8/31/2021 4:30:00 PM 22.88 73.184 0.115 7.52 12.93 10.23
8/31/2021 4:45:00 PM 22.88 73.184 0.115 7.28 12.91 10.23
8/31/2021 5:00:00 PM 22.86 73.148 0.115 7.41 12.82 10.18
8/31/2021 5:15:00 PM 22.78 73.004 0.115 7.51 13.18 10.08
8/31/2021 5:30:00 PM 22.71 72.878 0.115 7.48 12.94 9.99
8/31/2021 5:45:00 PM 22.62 72.716 0.115 7.46 13.05 9.87
8/31/2021 6:00:00 PM 22.55 72.59 0.115 7.41 14.86 9.78
8/31/2021 6:15:00 PM 22.47 72.446 0.115 7.4 13.05 9.68
8/31/2021 6:30:00 PM 22.41 72.338 0.115 7.38 13.16 9.56
8/31/2021 6:45:00 PM 22.34 72.212 0.115 7.36 13.57 9.44
8/31/2021 7:00:00 PM 22.3 72.14 0.115 7.34 13.24 9.35
8/31/2021 7:15:00 PM 22.24 72.032 0.115 7.3 13.63 9.21
8/31/2021 7:30:00 PM 22.18 71.924 0.116 7.29 13.76 9.06
8/31/2021 7:45:00 PM 22.12 71.816 0.116 7.19 13.14 8.94
8/31/2021 8:00:00 PM 22.05 71.69 0.116 7.22 13.91 8.85
8/31/2021 8:15:00 PM 21.99 71.582 0.116 7.16 13.68 8.75
8/31/2021 8:30:00 PM 21.93 71.474 0.116 7.18 13.53 8.66
8/31/2021 8:45:00 PM 21.88 71.384 0.116 7.16 13.91 8.57
8/31/2021 9:00:00 PM 21.83 71.294 0.116 7.16 14.77 8.5
8/31/2021 9:15:00 PM 21.79 71.222 0.116 7.13 13.76 8.44
8/31/2021 9:30:00 PM 21.75 71.15 0.116 7.13 14.29 8.39
8/31/2021 9:45:00 PM 21.7 71.06 0.116 7.1 13.52 8.33
8/31/2021 10:00:00 PM 21.66 70.988 0.117 7.06 13.7 8.29
8/31/2021 10:15:00 PM 21.61 70.898 0.117 7.07 14.05 8.25
8/31/2021 10:30:00 PM 21.56 70.808 0.117 7.06 13.75 8.22
8/31/2021 10:45:00 PM 21.52 70.736 0.117 7.07 13.44 8.19
8/31/2021 11:00:00 PM 21.47 70.646 0.117 7.04 14.13 8.17
8/31/2021 11:15:00 PM 21.43 70.574 0.117 7.02 14.03 8.14
8/31/2021 11:30:00 PM 21.39 70.502 0.116 7.01 14.73 8.12
8/31/2021 11:45:00 PM 21.35 70.43 0.117 7 14.25 8.1
9/1/2021 12:00:00 AM 21.3 70.34 0.116 7.01 14.73 8.09
9/1/2021 12:15:00 AM 21.25 70.25 0.117 6.98 15.47 8.07
9/1/2021 12:30:00 AM 21.19 70.142 0.116 6.99 14.85 8.05
9/1/2021 12:45:00 AM 21.15 70.07 0.117 6.94 15.15 8.04
9/1/2021 1:00:00 AM 21.1 69.98 0.117 6.97 14.81 8.03
9/1/2021 1:15:00 AM 21.05 69.89 0.117 6.9 14.87 8.02
9/1/2021 1:30:00 AM 21 69.8 0.117 7 15.23 8
9/1/2021 1:45:00 AM 20.96 69.728 0.117 7.01 15.07 7.99
9/1/2021 2:00:00 AM 20.91 69.638 0.117 6.96 14.36 7.98
9/1/2021 2:15:00 AM 20.86 69.548 0.117 6.97 15.13 7.96
9/1/2021 2:30:00 AM 20.82 69.476 0.117 6.98 14.81 7.95
9/1/2021 2:45:00 AM 20.78 69.404 0.117 7 14.66 7.94
9/1/2021 3:00:00 AM 20.74 69.332 0.117 7 15 7.93
9/1/2021 3:15:00 AM 20.7 69.26 0.117 7 14.74 7.92
9/1/2021 3:30:00 AM 20.65 69.17 0.117 7 15.02 7.92
9/1/2021 3:45:00 AM 20.62 69.116 0.117 6.99 14.62 7.91
9/1/2021 4:00:00 AM 20.58 69.044 0.117 6.99 14.38 7.91
9/1/2021 4:15:00 AM 20.55 68.99 0.117 7 14.96 7.91
9/1/2021 4:30:00 AM 20.53 68.954 0.117 6.98 14.48 7.91
9/1/2021 4:45:00 AM 20.5 68.9 0.117 6.96 14.63 7.9
9/1/2021 5:00:00 AM 20.46 68.828 0.117 6.99 15.83 7.9
9/1/2021 5:15:00 AM 20.44 68.792 0.117 6.98 15.07 7.89
9/1/2021 5:30:00 AM 20.41 68.738 0.117 6.99 16.09 7.89
9/1/2021 5:45:00 AM 20.38 68.684 0.117 6.98 16.18 7.89
9/1/2021 6:00:00 AM 20.35 68.63 0.117 6.99 14.96 7.89
9/1/2021 6:15:00 AM 20.33 68.594 0.117 6.83 14.59 7.9
9/1/2021 6:30:00 AM 20.3 68.54 0.117 6.98 14.16 7.9
9/1/2021 6:45:00 AM 20.27 68.486 0.117 6.91 14.14 7.91
9/1/2021 7:00:00 AM 20.25 68.45 0.117 6.98 14.38 7.91
9/1/2021 7:15:00 AM 20.22 68.396 0.117 6.96 14.12 7.94
9/1/2021 7:30:00 AM 20.2 68.36 0.117 6.98 14.28 7.96
9/1/2021 7:45:00 AM 20.18 68.324 0.117 6.98 14.1 7.98
9/1/2021 8:00:00 AM 20.16 68.288 0.117 6.99 14.28 8
9/1/2021 8:15:00 AM 20.14 68.252 0.117 6.98 14.58 8.03
9/1/2021 8:30:00 AM 20.12 68.216 0.117 6.94 14.87 8.09
9/1/2021 8:45:00 AM 20.11 68.198 0.117 6.97 16.79 8.14
9/1/2021 9:00:00 AM 20.09 68.162 0.117 6.95 16.8 8.19
9/1/2021 9:15:00 AM 20.07 68.126 0.117 6.95 15.79 8.22
9/1/2021 9:30:00 AM 20.06 68.108 0.117 6.96 14.95 8.3
9/1/2021 9:45:00 AM 20.05 68.09 0.117 7.01 16.67 8.37
9/1/2021 10:00:00 AM 20.05 68.09 0.117 7 15.79 8.47
9/1/2021 10:15:00 AM 20.05 68.09 0.117 7.03 15.69 8.53
9/1/2021 10:30:00 AM 20.05 68.09 0.116 7.04 15.42 8.58
9/1/2021 10:45:00 AM 20.05 68.09 0.116 7.02 14.46 8.66
9/1/2021 11:00:00 AM 20.06 68.108 0.116 7.05 14.81 8.78
9/1/2021 11:15:00 AM 20.06 68.108 0.116 7.06 14.9 8.85
9/1/2021 11:30:00 AM 20.06 68.108 0.116 7.08 15 8.94
9/1/2021 11:45:00 AM 20.05 68.09 0.116 7.1 14.56 8.98
9/1/2021 12:00:00 PM 20.05 68.09 0.116 7.1 14.29 9.02
9/1/2021 12:15:00 PM 20.04 68.07201 0.116 7.05 15.15 9.02
9/1/2021 12:30:00 PM 20.02 68.036 0.117 7.1 14.36 8.98
9/1/2021 12:45:00 PM 20.01 68.018 0.116 7.09 12.91 9.01
9/1/2021 1:00:00 PM 19.99 67.982 0.116 7.12 14.56 9.05
9/1/2021 1:15:00 PM 20 68 0.116 7.11 14.2 9.15
9/1/2021 1:30:00 PM 20 68 0.116 7.14 14.14 9.25
9/1/2021 1:45:00 PM 20 68 0.116 7.15 14.47 9.3
9/1/2021 2:00:00 PM 20 68 0.116 7.15 14.64 9.35
9/1/2021 2:15:00 PM 19.99 67.982 0.117 7.17 14.07 9.36
9/1/2021 2:30:00 PM 19.97 67.946 0.117 7.17 14.07 9.38
9/1/2021 2:45:00 PM 19.95 67.91 0.117 7.17 14.37 9.37
9/1/2021 3:00:00 PM 19.93 67.874 0.117 7.17 14.51 9.37
9/1/2021 3:15:00 PM 19.9 67.82 0.117 7.16 13.93 9.33
9/1/2021 3:30:00 PM 19.87 67.766 0.117 7.14 14.29 9.31
9/1/2021 3:45:00 PM 19.84 67.712 0.117 7.14 14.4 9.29
9/1/2021 4:00:00 PM 19.81 67.658 0.117 7.15 14 9.27
9/1/2021 4:15:00 PM 19.78 67.604 0.117 7.14 14.43 9.24
9/1/2021 4:30:00 PM 19.75 67.55 0.117 7.16 14.37 9.21
9/1/2021 4:45:00 PM 19.71 67.478 0.117 7.16 14.97 9.17
9/1/2021 5:00:00 PM 19.68 67.424 0.117 7.17 14.78 9.13
9/1/2021 5:15:00 PM 19.64 67.352 0.117 7.12 15.03 9.08
9/1/2021 5:30:00 PM 19.6 67.28 0.116 7.13 15.68 9.02
9/1/2021 5:45:00 PM 19.55 67.19 0.116 7.14 16.19 8.98
9/1/2021 6:00:00 PM 19.51 67.118 0.116 7.11 17.76 8.94
9/1/2021 6:15:00 PM 19.46 67.028 0.116 7.11 16.74 8.91
9/1/2021 6:30:00 PM 19.41 66.938 0.116 7.12 18.49 8.89
9/1/2021 6:45:00 PM 19.36 66.848 0.115 7.11 19.03 8.86
9/1/2021 7:00:00 PM 19.31 66.758 0.115 7.1 21.7 8.84
9/1/2021 7:15:00 PM 19.27 66.686 0.115 7.08 19.23 8.81
9/1/2021 7:30:00 PM 19.23 66.614 0.117 7.1 22.83 8.78
9/1/2021 7:45:00 PM 19.19 66.542 0.12 7.08 18.72 8.76
9/1/2021 8:00:00 PM 19.16 66.488 0.122 7.09 19.99 8.74
9/1/2021 8:15:00 PM 19.11 66.398 0.124 7.08 21.66 8.72
9/1/2021 8:30:00 PM 19.06 66.308 0.126 7.08 24.31 8.73
9/1/2021 8:45:00 PM 19 66.2 0.127 7.07 26.34 8.73
9/1/2021 9:00:00 PM 18.92 66.056 0.127 7.08 28.25 8.77
9/1/2021 9:15:00 PM 18.82 65.876 0.126 7.09 34.29 8.83
9/1/2021 9:30:00 PM 18.71 65.67799 0.125 7.07 32.87 8.88
9/1/2021 9:45:00 PM 18.62 65.516 0.124 7.05 34.01 8.92
9/1/2021 10:00:00 PM 18.55 65.39 0.121 7.03 28.09 8.95
9/1/2021 10:15:00 PM 18.49 65.282 0.118 7.06 27.28 8.95
9/1/2021 10:30:00 PM 18.45 65.21 0.116 7.06 23.55 8.94
9/1/2021 10:45:00 PM 18.41 65.138 0.113 7.1 28.76 8.95
9/1/2021 11:00:00 PM 18.37 65.066 0.111 7.12 28.61 8.96
9/1/2021 11:15:00 PM 18.32 64.976 0.11 7.12 28.81 8.98
9/1/2021 11:30:00 PM 18.26 64.868 0.109 7.07 39.29 9.01
9/1/2021 11:45:00 PM 18.21 64.778 0.108 7.11 33.38 9.02
9/2/2021 12:00:00 AM 18.16 64.688 0.107 7.09 33.78 9.04
9/2/2021 12:15:00 AM 18.12 64.616 0.105 7.06 35.02 9.05
9/2/2021 12:30:00 AM 18.08 64.544 0.097 7.02 37.15 9.06
9/2/2021 12:45:00 AM 18.06 64.508 0.095 7.12 33.27 9.06
9/2/2021 1:00:00 AM 18.04 64.472 0.094 7.08 34.04 9.05
9/2/2021 1:15:00 AM 18.02 64.436 0.093 7.08 34.37 9.04
9/2/2021 1:30:00 AM 18 64.4 0.093 7.08 31.57 9.03
9/2/2021 1:45:00 AM 17.96 64.328 0.093 7.06 33.45 9.03
9/2/2021 2:00:00 AM 17.92 64.256 0.093 7.06 35.68 9.02
9/2/2021 2:15:00 AM 17.87 64.166 0.093 7.05 28.67 9.03
9/2/2021 2:30:00 AM 17.82 64.076 0.093 6.99 27.17 9.05
9/2/2021 2:45:00 AM 17.77 63.986 0.093 7.01 27.01 9.04
9/2/2021 3:00:00 AM 17.71 63.878 0.093 6.97 25.74 9.06
9/2/2021 3:15:00 AM 17.65 63.77 0.093 6.97 26.71 9.07
9/2/2021 3:30:00 AM 17.6 63.68 0.093 6.98 24.82 9.08
9/2/2021 3:45:00 AM 17.54 63.572 0.093 6.97 24.44 9.09
9/2/2021 4:00:00 AM 17.49 63.482 0.093 6.97 21.88 9.1
9/2/2021 4:15:00 AM 17.43 63.374 0.093 6.98 23.41 9.1
9/2/2021 4:30:00 AM 17.37 63.266 0.092 6.91 23.34 9.11
9/2/2021 4:45:00 AM 17.32 63.176 0.092 6.96 23.02 9.12
9/2/2021 5:00:00 AM 17.27 63.086 0.092 6.95 22.13 9.13
9/2/2021 5:15:00 AM 17.21 62.978 0.092 6.82 22.44 9.13
9/2/2021 5:30:00 AM 17.16 62.888 0.092 6.95 22.54 9.13
9/2/2021 5:45:00 AM 17.11 62.798 0.092 6.89 22.3 9.14
9/2/2021 6:00:00 AM 17.05 62.69 0.092 6.94 21.59 9.15
9/2/2021 6:15:00 AM 16.99 62.582 0.092 6.93 21.68 9.16
9/2/2021 6:30:00 AM 16.93 62.474 0.092 6.92 20.88 9.17
9/2/2021 6:45:00 AM 16.88 62.384 0.092 6.94 21.11 9.19
9/2/2021 7:00:00 AM 16.82 62.276 0.092 6.93 20.71 9.2
9/2/2021 7:15:00 AM 16.77 62.186 0.092 6.93 20.36 9.22
9/2/2021 7:30:00 AM 16.73 62.114 0.092 6.91 20.62 9.24
9/2/2021 7:45:00 AM 16.68 62.024 0.092 6.86 41.22 9.26
9/2/2021 8:00:00 AM 16.65 61.97 0.092 6.83 18.57 9.29
9/2/2021 8:15:00 AM 16.63 61.934 0.092 6.82 17.39 9.31
9/2/2021 8:30:00 AM 16.61 61.898 0.092 6.89 17.76 9.35
9/2/2021 8:45:00 AM 16.61 61.898 0.092 6.92 17.17 9.37
9/2/2021 9:00:00 AM 16.63 61.934 0.092 6.93 17.02 9.41
9/2/2021 9:15:00 AM 16.66 61.988 0.092 6.89 16.1 9.46
9/2/2021 9:30:00 AM 16.69 62.042 0.092 6.9 15.79 9.51
9/2/2021 9:45:00 AM 16.72 62.096 0.092 6.95 16.14 9.55
9/2/2021 10:00:00 AM 16.76 62.168 0.092